<?xml version='1.0' encoding='UTF-8'?><gpx version="1.1" creator="JPX - https://github.com/jenetics/jpx" xmlns="http://www.topografix.com/GPX/1/1"><trk><trkseg><trkpt lat="44.8934838" lon="8.6732011"><ele>97.2</ele><time>2026-04-28T07:37:03.31Z</time></trkpt><trkpt lat="44.8933699" lon="8.6731941"><ele>96.4</ele><time>2026-04-28T07:38:26.31Z</time></trkpt><trkpt lat="44.8932871" lon="8.673138"><ele>95.60000000000001</ele><time>2026-04-28T07:38:28.31Z</time></trkpt><trkpt lat="44.8932034" lon="8.6730819"><ele>94.80000000000001</ele><time>2026-04-28T07:38:30.31Z</time></trkpt><trkpt lat="44.8931093" lon="8.6730852"><ele>94.0</ele><time>2026-04-28T07:38:32.31Z</time></trkpt><trkpt lat="44.8930035" lon="8.6731075"><ele>94.0</ele><time>2026-04-28T07:38:34.31Z</time></trkpt><trkpt lat="44.8928871" lon="8.6731038"><ele>94.0</ele><time>2026-04-28T07:38:36.309Z</time></trkpt><trkpt lat="44.8927842" lon="8.6730758"><ele>94.0</ele><time>2026-04-28T07:38:38.31Z</time></trkpt><trkpt lat="44.8927062" lon="8.6730509"><ele>94.0</ele><time>2026-04-28T07:38:40.31Z</time></trkpt><trkpt lat="44.8926317" lon="8.6730083"><ele>94.0</ele><time>2026-04-28T07:38:42.31Z</time></trkpt><trkpt lat="44.8925684" lon="8.6729632"><ele>94.0</ele><time>2026-04-28T07:38:44.31Z</time></trkpt><trkpt lat="44.8925105" lon="8.6729269"><ele>94.0</ele><time>2026-04-28T07:38:46.31Z</time></trkpt><trkpt lat="44.8924667" lon="8.6728585"><ele>94.0</ele><time>2026-04-28T07:38:48.31Z</time></trkpt><trkpt lat="44.8924923" lon="8.6727556"><ele>94.0</ele><time>2026-04-28T07:38:51.31Z</time></trkpt><trkpt lat="44.8925575" lon="8.6727481"><ele>94.0</ele><time>2026-04-28T07:38:53.309Z</time></trkpt><trkpt lat="44.8926769" lon="8.6727974"><ele>94.0</ele><time>2026-04-28T07:38:55.31Z</time></trkpt><trkpt lat="44.8927907" lon="8.6728441"><ele>94.0</ele><time>2026-04-28T07:38:57.31Z</time></trkpt><trkpt lat="44.8928887" lon="8.6729026"><ele>94.0</ele><time>2026-04-28T07:38:59.31Z</time></trkpt><trkpt lat="44.89298" lon="8.6729769"><ele>94.0</ele><time>2026-04-28T07:39:01.31Z</time></trkpt><trkpt lat="44.8930772" lon="8.6730237"><ele>94.0</ele><time>2026-04-28T07:39:03.31Z</time></trkpt><trkpt lat="44.8931531" lon="8.673045"><ele>94.0</ele><time>2026-04-28T07:39:05.31Z</time></trkpt><trkpt lat="44.8932643" lon="8.673068"><ele>94.0</ele><time>2026-04-28T07:39:08.31Z</time></trkpt><trkpt lat="44.8933782" lon="8.6731419"><ele>94.0</ele><time>2026-04-28T07:39:10.31Z</time></trkpt><trkpt lat="44.8934981" lon="8.6731887"><ele>94.0</ele><time>2026-04-28T07:39:12.31Z</time></trkpt><trkpt lat="44.8935915" lon="8.6732196"><ele>94.0</ele><time>2026-04-28T07:39:14.31Z</time></trkpt><trkpt lat="44.8936731" lon="8.6732478"><ele>94.0</ele><time>2026-04-28T07:39:16.31Z</time></trkpt><trkpt lat="44.893694" lon="8.6733417"><ele>93.80000000000001</ele><time>2026-04-28T07:39:27.31Z</time></trkpt><trkpt lat="44.8937001" lon="8.6735051"><ele>93.60000000000001</ele><time>2026-04-28T07:39:29.31Z</time></trkpt><trkpt lat="44.8936827" lon="8.6736432"><ele>93.4</ele><time>2026-04-28T07:39:30.31Z</time></trkpt><trkpt lat="44.893663" lon="8.6737901"><ele>93.2</ele><time>2026-04-28T07:39:31.31Z</time></trkpt><trkpt lat="44.8936373" lon="8.6739577"><ele>93.0</ele><time>2026-04-28T07:39:32.31Z</time></trkpt><trkpt lat="44.8936098" lon="8.6741247"><ele>93.0</ele><time>2026-04-28T07:39:33.31Z</time></trkpt><trkpt lat="44.8935792" lon="8.6742942"><ele>93.0</ele><time>2026-04-28T07:39:34.31Z</time></trkpt><trkpt lat="44.8935516" lon="8.6744527"><ele>93.0</ele><time>2026-04-28T07:39:35.31Z</time></trkpt><trkpt lat="44.8935263" lon="8.6745958"><ele>93.0</ele><time>2026-04-28T07:39:36.31Z</time></trkpt><trkpt lat="44.8935025" lon="8.6747257"><ele>93.0</ele><time>2026-04-28T07:39:37.31Z</time></trkpt><trkpt lat="44.8934757" lon="8.6748401"><ele>93.0</ele><time>2026-04-28T07:39:38.31Z</time></trkpt><trkpt lat="44.8934404" lon="8.6749335"><ele>93.0</ele><time>2026-04-28T07:39:39.31Z</time></trkpt><trkpt lat="44.8933906" lon="8.6750181"><ele>93.0</ele><time>2026-04-28T07:39:40.31Z</time></trkpt><trkpt lat="44.8932439" lon="8.6751126"><ele>93.0</ele><time>2026-04-28T07:39:42.309Z</time></trkpt><trkpt lat="44.8931629" lon="8.6751069"><ele>93.0</ele><time>2026-04-28T07:39:43.31Z</time></trkpt><trkpt lat="44.8930876" lon="8.6750603"><ele>93.0</ele><time>2026-04-28T07:39:44.31Z</time></trkpt><trkpt lat="44.8930099" lon="8.6749818"><ele>93.0</ele><time>2026-04-28T07:39:45.31Z</time></trkpt><trkpt lat="44.8929235" lon="8.6748819"><ele>93.0</ele><time>2026-04-28T07:39:46.31Z</time></trkpt><trkpt lat="44.8928285" lon="8.6747785"><ele>93.0</ele><time>2026-04-28T07:39:47.31Z</time></trkpt><trkpt lat="44.8927201" lon="8.6746749"><ele>93.0</ele><time>2026-04-28T07:39:48.31Z</time></trkpt><trkpt lat="44.8926034" lon="8.6745706"><ele>93.0</ele><time>2026-04-28T07:39:49.31Z</time></trkpt><trkpt lat="44.8924782" lon="8.6744574"><ele>93.0</ele><time>2026-04-28T07:39:50.31Z</time></trkpt><trkpt lat="44.8923516" lon="8.6743356"><ele>93.0</ele><time>2026-04-28T07:39:51.31Z</time></trkpt><trkpt lat="44.892114" lon="8.6741218"><ele>93.0</ele><time>2026-04-28T07:39:53.309Z</time></trkpt><trkpt lat="44.8920149" lon="8.6740246"><ele>93.0</ele><time>2026-04-28T07:39:54.31Z</time></trkpt><trkpt lat="44.8919317" lon="8.6739339"><ele>93.0</ele><time>2026-04-28T07:39:55.31Z</time></trkpt><trkpt lat="44.8918563" lon="8.6738459"><ele>93.0</ele><time>2026-04-28T07:39:56.31Z</time></trkpt><trkpt lat="44.8918007" lon="8.6737693"><ele>93.0</ele><time>2026-04-28T07:39:57.31Z</time></trkpt><trkpt lat="44.8917618" lon="8.6736927"><ele>92.60000000000001</ele><time>2026-04-28T07:39:58.31Z</time></trkpt><trkpt lat="44.8917325" lon="8.6736015"><ele>92.2</ele><time>2026-04-28T07:39:59.31Z</time></trkpt><trkpt lat="44.8917052" lon="8.6734966"><ele>91.8</ele><time>2026-04-28T07:40:00.31Z</time></trkpt><trkpt lat="44.8916692" lon="8.6733983"><ele>91.4</ele><time>2026-04-28T07:40:01.31Z</time></trkpt><trkpt lat="44.8916177" lon="8.6733235"><ele>91.0</ele><time>2026-04-28T07:40:02.31Z</time></trkpt><trkpt lat="44.8914748" lon="8.6732401"><ele>91.0</ele><time>2026-04-28T07:40:04.31Z</time></trkpt><trkpt lat="44.8914011" lon="8.6732541"><ele>91.0</ele><time>2026-04-28T07:40:05.31Z</time></trkpt><trkpt lat="44.8913423" lon="8.6733123"><ele>91.0</ele><time>2026-04-28T07:40:06.31Z</time></trkpt><trkpt lat="44.8912955" lon="8.6734083"><ele>91.0</ele><time>2026-04-28T07:40:07.31Z</time></trkpt><trkpt lat="44.8912596" lon="8.6735439"><ele>91.0</ele><time>2026-04-28T07:40:08.31Z</time></trkpt><trkpt lat="44.8912309" lon="8.6736943"><ele>91.0</ele><time>2026-04-28T07:40:09.31Z</time></trkpt><trkpt lat="44.8911832" lon="8.6738516"><ele>91.19999999999999</ele><time>2026-04-28T07:40:10.31Z</time></trkpt><trkpt lat="44.8911176" lon="8.6739948"><ele>91.39999999999999</ele><time>2026-04-28T07:40:11.31Z</time></trkpt><trkpt lat="44.8910396" lon="8.6741124"><ele>91.6</ele><time>2026-04-28T07:40:12.31Z</time></trkpt><trkpt lat="44.8909581" lon="8.6742072"><ele>91.8</ele><time>2026-04-28T07:40:13.31Z</time></trkpt><trkpt lat="44.8908762" lon="8.6742866"><ele>92.0</ele><time>2026-04-28T07:40:14.31Z</time></trkpt><trkpt lat="44.8907933" lon="8.6743717"><ele>92.25</ele><time>2026-04-28T07:40:15.31Z</time></trkpt><trkpt lat="44.8907025" lon="8.6744714"><ele>92.5</ele><time>2026-04-28T07:40:16.31Z</time></trkpt><trkpt lat="44.890601" lon="8.6745869"><ele>92.75</ele><time>2026-04-28T07:40:17.31Z</time></trkpt><trkpt lat="44.8904875" lon="8.6747329"><ele>93.0</ele><time>2026-04-28T07:40:18.31Z</time></trkpt><trkpt lat="44.8903685" lon="8.6748779"><ele>93.0</ele><time>2026-04-28T07:40:19.31Z</time></trkpt><trkpt lat="44.8902504" lon="8.6750124"><ele>93.0</ele><time>2026-04-28T07:40:20.31Z</time></trkpt><trkpt lat="44.8901411" lon="8.6751342"><ele>93.0</ele><time>2026-04-28T07:40:21.31Z</time></trkpt><trkpt lat="44.890039" lon="8.6752541"><ele>93.0</ele><time>2026-04-28T07:40:22.31Z</time></trkpt><trkpt lat="44.889934" lon="8.6753708"><ele>93.25</ele><time>2026-04-28T07:40:23.31Z</time></trkpt><trkpt lat="44.8898305" lon="8.6754881"><ele>93.5</ele><time>2026-04-28T07:40:24.31Z</time></trkpt><trkpt lat="44.8897285" lon="8.6756024"><ele>93.75</ele><time>2026-04-28T07:40:25.31Z</time></trkpt><trkpt lat="44.8896305" lon="8.6757218"><ele>94.0</ele><time>2026-04-28T07:40:26.31Z</time></trkpt><trkpt lat="44.8895301" lon="8.6758295"><ele>94.0</ele><time>2026-04-28T07:40:27.31Z</time></trkpt><trkpt lat="44.8894324" lon="8.675945"><ele>94.0</ele><time>2026-04-28T07:40:28.31Z</time></trkpt><trkpt lat="44.8893332" lon="8.676058"><ele>94.0</ele><time>2026-04-28T07:40:29.31Z</time></trkpt><trkpt lat="44.889238" lon="8.6761668"><ele>94.0</ele><time>2026-04-28T07:40:30.31Z</time></trkpt><trkpt lat="44.8891486" lon="8.6762727"><ele>94.5</ele><time>2026-04-28T07:40:31.31Z</time></trkpt><trkpt lat="44.8890566" lon="8.6763746"><ele>95.0</ele><time>2026-04-28T07:40:32.31Z</time></trkpt><trkpt lat="44.8889641" lon="8.6764773"><ele>95.5</ele><time>2026-04-28T07:40:33.309Z</time></trkpt><trkpt lat="44.8888664" lon="8.6765697"><ele>96.0</ele><time>2026-04-28T07:40:34.309Z</time></trkpt><trkpt lat="44.888768" lon="8.6766757"><ele>96.0</ele><time>2026-04-28T07:40:35.31Z</time></trkpt><trkpt lat="44.8886737" lon="8.6767889"><ele>96.0</ele><time>2026-04-28T07:40:36.31Z</time></trkpt><trkpt lat="44.8885655" lon="8.6769014"><ele>96.0</ele><time>2026-04-28T07:40:37.31Z</time></trkpt><trkpt lat="44.8884568" lon="8.6770158"><ele>96.0</ele><time>2026-04-28T07:40:38.31Z</time></trkpt><trkpt lat="44.8883598" lon="8.6771326"><ele>96.0</ele><time>2026-04-28T07:40:39.31Z</time></trkpt><trkpt lat="44.8882703" lon="8.6772389"><ele>96.0</ele><time>2026-04-28T07:40:40.31Z</time></trkpt><trkpt lat="44.8881857" lon="8.6773309"><ele>96.0</ele><time>2026-04-28T07:40:41.31Z</time></trkpt><trkpt lat="44.8881048" lon="8.6774094"><ele>96.0</ele><time>2026-04-28T07:40:42.31Z</time></trkpt><trkpt lat="44.8880338" lon="8.6774908"><ele>96.0</ele><time>2026-04-28T07:40:43.31Z</time></trkpt><trkpt lat="44.8879875" lon="8.6775622"><ele>96.0</ele><time>2026-04-28T07:40:44.31Z</time></trkpt><trkpt lat="44.8879063" lon="8.6776522"><ele>96.0</ele><time>2026-04-28T07:40:46.31Z</time></trkpt><trkpt lat="44.8878389" lon="8.6777128"><ele>96.0</ele><time>2026-04-28T07:40:48.31Z</time></trkpt><trkpt lat="44.8877496" lon="8.6777952"><ele>96.0</ele><time>2026-04-28T07:40:50.31Z</time></trkpt><trkpt lat="44.8876631" lon="8.6778528"><ele>96.0</ele><time>2026-04-28T07:40:52.31Z</time></trkpt><trkpt lat="44.8875933" lon="8.6778223"><ele>96.16666666666667</ele><time>2026-04-28T07:40:54.31Z</time></trkpt><trkpt lat="44.8875271" lon="8.6776942"><ele>96.33333333333334</ele><time>2026-04-28T07:40:56.31Z</time></trkpt><trkpt lat="44.8874849" lon="8.6776118"><ele>96.5</ele><time>2026-04-28T07:40:57.31Z</time></trkpt><trkpt lat="44.8874335" lon="8.6775331"><ele>96.66666666666667</ele><time>2026-04-28T07:40:58.31Z</time></trkpt><trkpt lat="44.8873786" lon="8.6774697"><ele>96.83333333333334</ele><time>2026-04-28T07:40:59.31Z</time></trkpt><trkpt lat="44.8873162" lon="8.677434"><ele>97.0</ele><time>2026-04-28T07:41:00.309Z</time></trkpt><trkpt lat="44.8872431" lon="8.6774211"><ele>97.0</ele><time>2026-04-28T07:41:01.31Z</time></trkpt><trkpt lat="44.8871623" lon="8.6774286"><ele>97.0</ele><time>2026-04-28T07:41:02.31Z</time></trkpt><trkpt lat="44.8870754" lon="8.677449"><ele>97.0</ele><time>2026-04-28T07:41:03.31Z</time></trkpt><trkpt lat="44.8869738" lon="8.6774843"><ele>97.0</ele><time>2026-04-28T07:41:04.31Z</time></trkpt><trkpt lat="44.886869" lon="8.6775274"><ele>97.0</ele><time>2026-04-28T07:41:05.31Z</time></trkpt><trkpt lat="44.8867659" lon="8.6775619"><ele>97.19999999999999</ele><time>2026-04-28T07:41:06.31Z</time></trkpt><trkpt lat="44.8866695" lon="8.6775901"><ele>97.4</ele><time>2026-04-28T07:41:07.31Z</time></trkpt><trkpt lat="44.8865701" lon="8.6776052"><ele>97.6</ele><time>2026-04-28T07:41:08.309Z</time></trkpt><trkpt lat="44.8864682" lon="8.6776214"><ele>97.80000000000001</ele><time>2026-04-28T07:41:09.31Z</time></trkpt><trkpt lat="44.8863677" lon="8.6776159"><ele>98.0</ele><time>2026-04-28T07:41:10.31Z</time></trkpt><trkpt lat="44.8862561" lon="8.6776291"><ele>98.0</ele><time>2026-04-28T07:41:11.309Z</time></trkpt><trkpt lat="44.8861442" lon="8.6776459"><ele>98.0</ele><time>2026-04-28T07:41:12.31Z</time></trkpt><trkpt lat="44.8860366" lon="8.677662"><ele>98.0</ele><time>2026-04-28T07:41:13.31Z</time></trkpt><trkpt lat="44.8859391" lon="8.6776681"><ele>98.0</ele><time>2026-04-28T07:41:14.31Z</time></trkpt><trkpt lat="44.8858445" lon="8.67767"><ele>98.0</ele><time>2026-04-28T07:41:15.31Z</time></trkpt><trkpt lat="44.8857502" lon="8.6776666"><ele>98.2</ele><time>2026-04-28T07:41:16.31Z</time></trkpt><trkpt lat="44.8856603" lon="8.6776677"><ele>98.4</ele><time>2026-04-28T07:41:17.31Z</time></trkpt><trkpt lat="44.8855704" lon="8.6776632"><ele>98.60000000000001</ele><time>2026-04-28T07:41:18.31Z</time></trkpt><trkpt lat="44.8854769" lon="8.6776494"><ele>98.80000000000001</ele><time>2026-04-28T07:41:19.31Z</time></trkpt><trkpt lat="44.8853849" lon="8.6776307"><ele>99.0</ele><time>2026-04-28T07:41:20.31Z</time></trkpt><trkpt lat="44.8852926" lon="8.6776074"><ele>99.0</ele><time>2026-04-28T07:41:21.31Z</time></trkpt><trkpt lat="44.8852083" lon="8.6775767"><ele>99.0</ele><time>2026-04-28T07:41:22.31Z</time></trkpt><trkpt lat="44.8851267" lon="8.6775533"><ele>99.0</ele><time>2026-04-28T07:41:23.31Z</time></trkpt><trkpt lat="44.88505" lon="8.67753"><ele>99.0</ele><time>2026-04-28T07:41:24.31Z</time></trkpt><trkpt lat="44.8849783" lon="8.6775067"><ele>99.0</ele><time>2026-04-28T07:41:25.31Z</time></trkpt><trkpt lat="44.8849167" lon="8.6774817"><ele>99.0</ele><time>2026-04-28T07:41:26.31Z</time></trkpt><trkpt lat="44.8848283" lon="8.67744"><ele>99.0</ele><time>2026-04-28T07:41:28.31Z</time></trkpt><trkpt lat="44.8847683" lon="8.67741"><ele>99.0</ele><time>2026-04-28T07:41:31.31Z</time></trkpt><trkpt lat="44.884815" lon="8.6774767"><ele>99.0</ele><time>2026-04-28T07:41:42.31Z</time></trkpt><trkpt lat="44.8848967" lon="8.6775067"><ele>99.0</ele><time>2026-04-28T07:41:44.31Z</time></trkpt><trkpt lat="44.8849633" lon="8.6775317"><ele>99.0</ele><time>2026-04-28T07:41:45.31Z</time></trkpt><trkpt lat="44.88505" lon="8.677555"><ele>99.0</ele><time>2026-04-28T07:41:46.31Z</time></trkpt><trkpt lat="44.885135" lon="8.677585"><ele>99.0</ele><time>2026-04-28T07:41:47.31Z</time></trkpt><trkpt lat="44.88522" lon="8.67761"><ele>99.0</ele><time>2026-04-28T07:41:48.309Z</time></trkpt><trkpt lat="44.8853083" lon="8.6776217"><ele>99.0</ele><time>2026-04-28T07:41:49.31Z</time></trkpt><trkpt lat="44.8854033" lon="8.6776367"><ele>99.0</ele><time>2026-04-28T07:41:50.31Z</time></trkpt><trkpt lat="44.8855" lon="8.6776483"><ele>99.0</ele><time>2026-04-28T07:41:51.31Z</time></trkpt><trkpt lat="44.8856133" lon="8.6776517"><ele>99.0</ele><time>2026-04-28T07:41:52.31Z</time></trkpt><trkpt lat="44.8857333" lon="8.6776583"><ele>99.0</ele><time>2026-04-28T07:41:53.31Z</time></trkpt><trkpt lat="44.8858517" lon="8.6776533"><ele>99.0</ele><time>2026-04-28T07:41:54.31Z</time></trkpt><trkpt lat="44.886205" lon="8.6776467"><ele>98.80000000000001</ele><time>2026-04-28T07:41:57.31Z</time></trkpt><trkpt lat="44.8863217" lon="8.6776467"><ele>98.60000000000001</ele><time>2026-04-28T07:41:58.31Z</time></trkpt><trkpt lat="44.8864417" lon="8.67764"><ele>98.4</ele><time>2026-04-28T07:41:59.31Z</time></trkpt><trkpt lat="44.886545" lon="8.6776383"><ele>98.2</ele><time>2026-04-28T07:42:00.31Z</time></trkpt><trkpt lat="44.88665" lon="8.677635"><ele>98.0</ele><time>2026-04-28T07:42:01.31Z</time></trkpt><trkpt lat="44.886745" lon="8.677615"><ele>97.80000000000001</ele><time>2026-04-28T07:42:02.309Z</time></trkpt><trkpt lat="44.8868467" lon="8.6775717"><ele>97.6</ele><time>2026-04-28T07:42:03.31Z</time></trkpt><trkpt lat="44.8869483" lon="8.6775217"><ele>97.4</ele><time>2026-04-28T07:42:04.31Z</time></trkpt><trkpt lat="44.8870483" lon="8.67749"><ele>97.19999999999999</ele><time>2026-04-28T07:42:05.31Z</time></trkpt><trkpt lat="44.8871517" lon="8.6774683"><ele>97.0</ele><time>2026-04-28T07:42:06.31Z</time></trkpt><trkpt lat="44.8872417" lon="8.6774517"><ele>97.00000000000001</ele><time>2026-04-28T07:42:07.31Z</time></trkpt><trkpt lat="44.8873183" lon="8.6774533"><ele>97.0</ele><time>2026-04-28T07:42:08.31Z</time></trkpt><trkpt lat="44.887385" lon="8.6774733"><ele>97.0</ele><time>2026-04-28T07:42:09.31Z</time></trkpt><trkpt lat="44.8874733" lon="8.67758"><ele>97.0</ele><time>2026-04-28T07:42:11.31Z</time></trkpt><trkpt lat="44.8875067" lon="8.6776567"><ele>97.00000000000001</ele><time>2026-04-28T07:42:12.31Z</time></trkpt><trkpt lat="44.8875617" lon="8.6777667"><ele>97.0</ele><time>2026-04-28T07:42:14.31Z</time></trkpt><trkpt lat="44.8876217" lon="8.6778717"><ele>97.0</ele><time>2026-04-28T07:42:22.31Z</time></trkpt><trkpt lat="44.8876883" lon="8.6778567"><ele>97.0</ele><time>2026-04-28T07:42:31.31Z</time></trkpt><trkpt lat="44.8877967" lon="8.6777567"><ele>97.0</ele><time>2026-04-28T07:42:33.31Z</time></trkpt><trkpt lat="44.887875" lon="8.6776717"><ele>97.0</ele><time>2026-04-28T07:42:34.31Z</time></trkpt><trkpt lat="44.8879717" lon="8.67759"><ele>97.0</ele><time>2026-04-28T07:42:35.309Z</time></trkpt><trkpt lat="44.88805" lon="8.6774917"><ele>96.8</ele><time>2026-04-28T07:42:36.31Z</time></trkpt><trkpt lat="44.8881333" lon="8.677385"><ele>96.6</ele><time>2026-04-28T07:42:37.31Z</time></trkpt><trkpt lat="44.888225" lon="8.6772967"><ele>96.39999999999999</ele><time>2026-04-28T07:42:38.31Z</time></trkpt><trkpt lat="44.8883017" lon="8.6771983"><ele>96.19999999999999</ele><time>2026-04-28T07:42:39.31Z</time></trkpt><trkpt lat="44.8883833" lon="8.6771083"><ele>96.0</ele><time>2026-04-28T07:42:40.31Z</time></trkpt><trkpt lat="44.8884433" lon="8.67702"><ele>96.0</ele><time>2026-04-28T07:42:41.309Z</time></trkpt><trkpt lat="44.88852" lon="8.6769383"><ele>96.0</ele><time>2026-04-28T07:42:42.31Z</time></trkpt><trkpt lat="44.8886233" lon="8.67686"><ele>96.0</ele><time>2026-04-28T07:42:43.31Z</time></trkpt><trkpt lat="44.88872" lon="8.6767633"><ele>96.0</ele><time>2026-04-28T07:42:44.309Z</time></trkpt><trkpt lat="44.8888183" lon="8.6766617"><ele>96.0</ele><time>2026-04-28T07:42:45.31Z</time></trkpt><trkpt lat="44.88891" lon="8.676565"><ele>96.0</ele><time>2026-04-28T07:42:46.31Z</time></trkpt><trkpt lat="44.8889967" lon="8.6764633"><ele>96.0</ele><time>2026-04-28T07:42:47.31Z</time></trkpt><trkpt lat="44.8890817" lon="8.676365"><ele>96.0</ele><time>2026-04-28T07:42:48.31Z</time></trkpt><trkpt lat="44.8891667" lon="8.676275"><ele>96.0</ele><time>2026-04-28T07:42:49.31Z</time></trkpt><trkpt lat="44.889255" lon="8.676175"><ele>95.6</ele><time>2026-04-28T07:42:50.309Z</time></trkpt><trkpt lat="44.8893283" lon="8.6760733"><ele>95.19999999999999</ele><time>2026-04-28T07:42:51.31Z</time></trkpt><trkpt lat="44.8893933" lon="8.6759917"><ele>94.80000000000001</ele><time>2026-04-28T07:42:52.31Z</time></trkpt><trkpt lat="44.8894683" lon="8.675915"><ele>94.4</ele><time>2026-04-28T07:42:53.31Z</time></trkpt><trkpt lat="44.8895417" lon="8.67583"><ele>94.0</ele><time>2026-04-28T07:42:54.309Z</time></trkpt><trkpt lat="44.8896333" lon="8.675745"><ele>94.0</ele><time>2026-04-28T07:42:55.308Z</time></trkpt><trkpt lat="44.889915" lon="8.6754233"><ele>94.0</ele><time>2026-04-28T07:42:58.308Z</time></trkpt><trkpt lat="44.8901983" lon="8.67509"><ele>93.5</ele><time>2026-04-28T07:43:01.309Z</time></trkpt><trkpt lat="44.89048" lon="8.6747833"><ele>93.0</ele><time>2026-04-28T07:43:04.308Z</time></trkpt><trkpt lat="44.8907533" lon="8.6744767"><ele>92.5</ele><time>2026-04-28T07:43:07.309Z</time></trkpt><trkpt lat="44.890995" lon="8.67421"><ele>92.0</ele><time>2026-04-28T07:43:10.309Z</time></trkpt><trkpt lat="44.891205" lon="8.6740017"><ele>92.0</ele><time>2026-04-28T07:43:13.309Z</time></trkpt><trkpt lat="44.89142" lon="8.6739183"><ele>92.0</ele><time>2026-04-28T07:43:16.309Z</time></trkpt><trkpt lat="44.8916383" lon="8.6739033"><ele>92.0</ele><time>2026-04-28T07:43:19.309Z</time></trkpt><trkpt lat="44.8918467" lon="8.673955"><ele>92.25</ele><time>2026-04-28T07:43:22.309Z</time></trkpt><trkpt lat="44.8920533" lon="8.6740917"><ele>92.5</ele><time>2026-04-28T07:43:25.309Z</time></trkpt><trkpt lat="44.8921267" lon="8.6741533"><ele>92.75</ele><time>2026-04-28T07:43:26.309Z</time></trkpt><trkpt lat="44.8922083" lon="8.6742183"><ele>93.0</ele><time>2026-04-28T07:43:27.309Z</time></trkpt><trkpt lat="44.8922967" lon="8.6742867"><ele>93.0</ele><time>2026-04-28T07:43:28.309Z</time></trkpt><trkpt lat="44.892385" lon="8.6743567"><ele>93.0</ele><time>2026-04-28T07:43:29.309Z</time></trkpt><trkpt lat="44.892475" lon="8.6744433"><ele>93.0</ele><time>2026-04-28T07:43:30.309Z</time></trkpt><trkpt lat="44.8925633" lon="8.674525"><ele>93.0</ele><time>2026-04-28T07:43:31.309Z</time></trkpt><trkpt lat="44.8926583" lon="8.6746033"><ele>93.0</ele><time>2026-04-28T07:43:32.308Z</time></trkpt><trkpt lat="44.892745" lon="8.674685"><ele>93.0</ele><time>2026-04-28T07:43:33.309Z</time></trkpt><trkpt lat="44.892825" lon="8.6747633"><ele>93.0</ele><time>2026-04-28T07:43:34.309Z</time></trkpt><trkpt lat="44.8929783" lon="8.6749383"><ele>93.0</ele><time>2026-04-28T07:43:38.309Z</time></trkpt><trkpt lat="44.8930133" lon="8.67503"><ele>93.0</ele><time>2026-04-28T07:43:41.309Z</time></trkpt><trkpt lat="44.8930667" lon="8.6751533"><ele>92.33333333333333</ele><time>2026-04-28T07:43:43.308Z</time></trkpt><trkpt lat="44.8931017" lon="8.6752817"><ele>91.66666666666666</ele><time>2026-04-28T07:43:45.309Z</time></trkpt><trkpt lat="44.893125" lon="8.6754"><ele>91.0</ele><time>2026-04-28T07:43:47.308Z</time></trkpt><trkpt lat="44.8932017" lon="8.6757917"><ele>91.0</ele><time>2026-04-28T07:43:51.309Z</time></trkpt><trkpt lat="44.893225" lon="8.6759183"><ele>91.0</ele><time>2026-04-28T07:43:52.309Z</time></trkpt><trkpt lat="44.8932467" lon="8.676195"><ele>91.0</ele><time>2026-04-28T07:43:54.309Z</time></trkpt><trkpt lat="44.8932317" lon="8.676335"><ele>91.0</ele><time>2026-04-28T07:43:55.309Z</time></trkpt><trkpt lat="44.8932067" lon="8.6764583"><ele>91.19999999999999</ele><time>2026-04-28T07:43:56.308Z</time></trkpt><trkpt lat="44.893185" lon="8.6765817"><ele>91.39999999999999</ele><time>2026-04-28T07:43:57.309Z</time></trkpt><trkpt lat="44.8931583" lon="8.6767033"><ele>91.6</ele><time>2026-04-28T07:43:58.309Z</time></trkpt><trkpt lat="44.8931367" lon="8.6768317"><ele>91.8</ele><time>2026-04-28T07:43:59.309Z</time></trkpt><trkpt lat="44.8931133" lon="8.6769633"><ele>92.0</ele><time>2026-04-28T07:44:00.309Z</time></trkpt><trkpt lat="44.8930933" lon="8.677105"><ele>92.19999999999999</ele><time>2026-04-28T07:44:01.309Z</time></trkpt><trkpt lat="44.89307" lon="8.6772383"><ele>92.4</ele><time>2026-04-28T07:44:02.309Z</time></trkpt><trkpt lat="44.8930483" lon="8.6773633"><ele>92.6</ele><time>2026-04-28T07:44:03.309Z</time></trkpt><trkpt lat="44.893025" lon="8.6774917"><ele>92.80000000000001</ele><time>2026-04-28T07:44:04.309Z</time></trkpt><trkpt lat="44.8930033" lon="8.677625"><ele>93.0</ele><time>2026-04-28T07:44:05.309Z</time></trkpt><trkpt lat="44.8929783" lon="8.6777683"><ele>93.66666666666667</ele><time>2026-04-28T07:44:06.309Z</time></trkpt><trkpt lat="44.8929517" lon="8.67791"><ele>94.33333333333334</ele><time>2026-04-28T07:44:07.309Z</time></trkpt><trkpt lat="44.892925" lon="8.678055"><ele>95.0</ele><time>2026-04-28T07:44:08.309Z</time></trkpt><trkpt lat="44.8928367" lon="8.6785567"><ele>94.5</ele><time>2026-04-28T07:44:11.308Z</time></trkpt><trkpt lat="44.8928017" lon="8.678725"><ele>94.0</ele><time>2026-04-28T07:44:12.309Z</time></trkpt><trkpt lat="44.8927733" lon="8.678905"><ele>93.5</ele><time>2026-04-28T07:44:13.309Z</time></trkpt><trkpt lat="44.892745" lon="8.6791033"><ele>93.0</ele><time>2026-04-28T07:44:14.309Z</time></trkpt><trkpt lat="44.89271" lon="8.679305"><ele>93.0</ele><time>2026-04-28T07:44:15.309Z</time></trkpt><trkpt lat="44.8926783" lon="8.6795083"><ele>93.0</ele><time>2026-04-28T07:44:16.309Z</time></trkpt><trkpt lat="44.8926467" lon="8.6797083"><ele>93.0</ele><time>2026-04-28T07:44:17.309Z</time></trkpt><trkpt lat="44.892615" lon="8.6799133"><ele>93.0</ele><time>2026-04-28T07:44:18.308Z</time></trkpt><trkpt lat="44.8925883" lon="8.6801167"><ele>93.5</ele><time>2026-04-28T07:44:19.309Z</time></trkpt><trkpt lat="44.8925533" lon="8.6803267"><ele>94.0</ele><time>2026-04-28T07:44:20.309Z</time></trkpt><trkpt lat="44.8925183" lon="8.680525"><ele>94.5</ele><time>2026-04-28T07:44:21.309Z</time></trkpt><trkpt lat="44.8924767" lon="8.68073"><ele>95.0</ele><time>2026-04-28T07:44:22.308Z</time></trkpt><trkpt lat="44.892435" lon="8.6809417"><ele>94.75</ele><time>2026-04-28T07:44:23.309Z</time></trkpt><trkpt lat="44.8923983" lon="8.681145"><ele>94.5</ele><time>2026-04-28T07:44:24.309Z</time></trkpt><trkpt lat="44.8923517" lon="8.68135"><ele>94.25</ele><time>2026-04-28T07:44:25.309Z</time></trkpt><trkpt lat="44.8923017" lon="8.6815467"><ele>94.0</ele><time>2026-04-28T07:44:26.309Z</time></trkpt><trkpt lat="44.892245" lon="8.6817467"><ele>94.0</ele><time>2026-04-28T07:44:27.309Z</time></trkpt><trkpt lat="44.8921867" lon="8.6819483"><ele>94.0</ele><time>2026-04-28T07:44:28.309Z</time></trkpt><trkpt lat="44.892125" lon="8.68216"><ele>94.0</ele><time>2026-04-28T07:44:29.309Z</time></trkpt><trkpt lat="44.8920633" lon="8.68236"><ele>94.0</ele><time>2026-04-28T07:44:30.309Z</time></trkpt><trkpt lat="44.8919983" lon="8.6825467"><ele>94.0</ele><time>2026-04-28T07:44:31.309Z</time></trkpt><trkpt lat="44.89194" lon="8.6827433"><ele>94.0</ele><time>2026-04-28T07:44:32.309Z</time></trkpt><trkpt lat="44.8918767" lon="8.68294"><ele>94.33333333333333</ele><time>2026-04-28T07:44:33.309Z</time></trkpt><trkpt lat="44.8918083" lon="8.6831433"><ele>94.66666666666667</ele><time>2026-04-28T07:44:34.309Z</time></trkpt><trkpt lat="44.891735" lon="8.68334"><ele>95.0</ele><time>2026-04-28T07:44:35.309Z</time></trkpt><trkpt lat="44.8916583" lon="8.6835367"><ele>95.0</ele><time>2026-04-28T07:44:36.309Z</time></trkpt><trkpt lat="44.8914967" lon="8.683915"><ele>95.0</ele><time>2026-04-28T07:44:38.309Z</time></trkpt><trkpt lat="44.8912317" lon="8.684505"><ele>95.0</ele><time>2026-04-28T07:44:41.309Z</time></trkpt><trkpt lat="44.8909483" lon="8.68509"><ele>97.0</ele><time>2026-04-28T07:44:44.309Z</time></trkpt><trkpt lat="44.890685" lon="8.6856417"><ele>97.0</ele><time>2026-04-28T07:44:47.309Z</time></trkpt><trkpt lat="44.8904433" lon="8.6861533"><ele>97.0</ele><time>2026-04-28T07:44:50.309Z</time></trkpt><trkpt lat="44.8902017" lon="8.686645"><ele>96.5</ele><time>2026-04-28T07:44:53.309Z</time></trkpt><trkpt lat="44.8900083" lon="8.6870467"><ele>96.0</ele><time>2026-04-28T07:44:56.309Z</time></trkpt><trkpt lat="44.889875" lon="8.6872567"><ele>96.0</ele><time>2026-04-28T07:44:59.309Z</time></trkpt><trkpt lat="44.8897567" lon="8.6873167"><ele>96.0</ele><time>2026-04-28T07:45:02.309Z</time></trkpt><trkpt lat="44.889665" lon="8.687385"><ele>96.0</ele><time>2026-04-28T07:45:05.309Z</time></trkpt><trkpt lat="44.8896183" lon="8.6875717"><ele>96.0</ele><time>2026-04-28T07:48:10.309Z</time></trkpt><trkpt lat="44.8896583" lon="8.6876717"><ele>96.0</ele><time>2026-04-28T07:48:13.309Z</time></trkpt><trkpt lat="44.889725" lon="8.687635"><ele>96.0</ele><time>2026-04-28T07:48:22.309Z</time></trkpt><trkpt lat="44.8897817" lon="8.68756"><ele>96.0</ele><time>2026-04-28T07:48:23.309Z</time></trkpt><trkpt lat="44.88993" lon="8.6872967"><ele>96.0</ele><time>2026-04-28T07:48:25.309Z</time></trkpt><trkpt lat="44.8900217" lon="8.6871233"><ele>96.0</ele><time>2026-04-28T07:48:26.309Z</time></trkpt><trkpt lat="44.89011" lon="8.686955"><ele>96.0</ele><time>2026-04-28T07:48:27.309Z</time></trkpt><trkpt lat="44.8901933" lon="8.6867833"><ele>96.0</ele><time>2026-04-28T07:48:28.309Z</time></trkpt><trkpt lat="44.8902733" lon="8.6865983"><ele>96.0</ele><time>2026-04-28T07:48:29.309Z</time></trkpt><trkpt lat="44.8903583" lon="8.6864167"><ele>96.33333333333334</ele><time>2026-04-28T07:48:30.309Z</time></trkpt><trkpt lat="44.8904417" lon="8.6862433"><ele>96.66666666666667</ele><time>2026-04-28T07:48:31.309Z</time></trkpt><trkpt lat="44.8905217" lon="8.68607"><ele>97.0</ele><time>2026-04-28T07:48:32.309Z</time></trkpt><trkpt lat="44.89061" lon="8.6858817"><ele>97.0</ele><time>2026-04-28T07:48:33.309Z</time></trkpt><trkpt lat="44.8907017" lon="8.6856983"><ele>97.0</ele><time>2026-04-28T07:48:34.309Z</time></trkpt><trkpt lat="44.8907917" lon="8.6855117"><ele>97.0</ele><time>2026-04-28T07:48:35.309Z</time></trkpt><trkpt lat="44.8908833" lon="8.6853183"><ele>96.33333333333334</ele><time>2026-04-28T07:48:36.309Z</time></trkpt><trkpt lat="44.890975" lon="8.685125"><ele>95.66666666666667</ele><time>2026-04-28T07:48:37.309Z</time></trkpt><trkpt lat="44.89106" lon="8.6849367"><ele>95.0</ele><time>2026-04-28T07:48:38.309Z</time></trkpt><trkpt lat="44.8911433" lon="8.6847633"><ele>95.0</ele><time>2026-04-28T07:48:39.309Z</time></trkpt><trkpt lat="44.8912183" lon="8.6846"><ele>95.0</ele><time>2026-04-28T07:48:40.309Z</time></trkpt><trkpt lat="44.891295" lon="8.6844333"><ele>95.0</ele><time>2026-04-28T07:48:41.309Z</time></trkpt><trkpt lat="44.8913717" lon="8.6842617"><ele>95.0</ele><time>2026-04-28T07:48:42.309Z</time></trkpt><trkpt lat="44.8914567" lon="8.68408"><ele>95.25</ele><time>2026-04-28T07:48:43.309Z</time></trkpt><trkpt lat="44.8915333" lon="8.6838983"><ele>95.5</ele><time>2026-04-28T07:48:44.309Z</time></trkpt><trkpt lat="44.8916" lon="8.6837367"><ele>95.75</ele><time>2026-04-28T07:48:45.309Z</time></trkpt><trkpt lat="44.89167" lon="8.6835667"><ele>96.0</ele><time>2026-04-28T07:48:46.309Z</time></trkpt><trkpt lat="44.891745" lon="8.68339"><ele>95.75</ele><time>2026-04-28T07:48:47.309Z</time></trkpt><trkpt lat="44.8918167" lon="8.68321"><ele>95.5</ele><time>2026-04-28T07:48:48.309Z</time></trkpt><trkpt lat="44.8918767" lon="8.6830333"><ele>95.25</ele><time>2026-04-28T07:48:49.308Z</time></trkpt><trkpt lat="44.8919367" lon="8.6828617"><ele>95.0</ele><time>2026-04-28T07:48:50.309Z</time></trkpt><trkpt lat="44.8919983" lon="8.6826833"><ele>94.75</ele><time>2026-04-28T07:48:51.309Z</time></trkpt><trkpt lat="44.8920583" lon="8.682505"><ele>94.5</ele><time>2026-04-28T07:48:52.309Z</time></trkpt><trkpt lat="44.892115" lon="8.682325"><ele>94.25</ele><time>2026-04-28T07:48:53.309Z</time></trkpt><trkpt lat="44.8921717" lon="8.6821433"><ele>94.0</ele><time>2026-04-28T07:48:54.309Z</time></trkpt><trkpt lat="44.8922233" lon="8.6819617"><ele>94.0</ele><time>2026-04-28T07:48:55.309Z</time></trkpt><trkpt lat="44.89227" lon="8.6817767"><ele>94.0</ele><time>2026-04-28T07:48:56.309Z</time></trkpt><trkpt lat="44.892315" lon="8.6815883"><ele>94.0</ele><time>2026-04-28T07:48:57.309Z</time></trkpt><trkpt lat="44.8923567" lon="8.6814033"><ele>94.0</ele><time>2026-04-28T07:48:58.309Z</time></trkpt><trkpt lat="44.8924" lon="8.6812133"><ele>94.25</ele><time>2026-04-28T07:48:59.309Z</time></trkpt><trkpt lat="44.8924383" lon="8.6810317"><ele>94.5</ele><time>2026-04-28T07:49:00.309Z</time></trkpt><trkpt lat="44.8924733" lon="8.6808533"><ele>94.75</ele><time>2026-04-28T07:49:01.309Z</time></trkpt><trkpt lat="44.8925083" lon="8.6806717"><ele>95.0</ele><time>2026-04-28T07:49:02.309Z</time></trkpt><trkpt lat="44.8925433" lon="8.6804833"><ele>95.0</ele><time>2026-04-28T07:49:03.309Z</time></trkpt><trkpt lat="44.892575" lon="8.68029"><ele>95.0</ele><time>2026-04-28T07:49:04.309Z</time></trkpt><trkpt lat="44.8926067" lon="8.68009"><ele>95.0</ele><time>2026-04-28T07:49:05.308Z</time></trkpt><trkpt lat="44.89264" lon="8.679855"><ele>94.33333333333334</ele><time>2026-04-28T07:49:06.308Z</time></trkpt><trkpt lat="44.8926767" lon="8.6796133"><ele>93.66666666666667</ele><time>2026-04-28T07:49:07.309Z</time></trkpt><trkpt lat="44.8927117" lon="8.6793983"><ele>93.0</ele><time>2026-04-28T07:49:08.308Z</time></trkpt><trkpt lat="44.892745" lon="8.6792083"><ele>93.0</ele><time>2026-04-28T07:49:09.309Z</time></trkpt><trkpt lat="44.89278" lon="8.6790267"><ele>93.0</ele><time>2026-04-28T07:49:10.309Z</time></trkpt><trkpt lat="44.8928117" lon="8.6788367"><ele>93.0</ele><time>2026-04-28T07:49:11.309Z</time></trkpt><trkpt lat="44.8928417" lon="8.6786483"><ele>93.0</ele><time>2026-04-28T07:49:12.308Z</time></trkpt><trkpt lat="44.8928717" lon="8.6784633"><ele>93.0</ele><time>2026-04-28T07:49:13.309Z</time></trkpt><trkpt lat="44.8929017" lon="8.6782783"><ele>93.0</ele><time>2026-04-28T07:49:14.308Z</time></trkpt><trkpt lat="44.8929317" lon="8.678095"><ele>93.0</ele><time>2026-04-28T07:49:15.309Z</time></trkpt><trkpt lat="44.8929633" lon="8.6779167"><ele>93.0</ele><time>2026-04-28T07:49:16.309Z</time></trkpt><trkpt lat="44.8929883" lon="8.67774"><ele>93.0</ele><time>2026-04-28T07:49:17.309Z</time></trkpt><trkpt lat="44.893025" lon="8.6775617"><ele>93.0</ele><time>2026-04-28T07:49:18.309Z</time></trkpt><trkpt lat="44.893055" lon="8.6773883"><ele>93.0</ele><time>2026-04-28T07:49:19.309Z</time></trkpt><trkpt lat="44.893085" lon="8.6772217"><ele>93.0</ele><time>2026-04-28T07:49:20.309Z</time></trkpt><trkpt lat="44.89311" lon="8.6770567"><ele>92.80000000000001</ele><time>2026-04-28T07:49:21.309Z</time></trkpt><trkpt lat="44.8931383" lon="8.67689"><ele>92.6</ele><time>2026-04-28T07:49:22.309Z</time></trkpt><trkpt lat="44.89317" lon="8.6767317"><ele>92.4</ele><time>2026-04-28T07:49:23.309Z</time></trkpt><trkpt lat="44.8931933" lon="8.6765867"><ele>92.19999999999999</ele><time>2026-04-28T07:49:24.309Z</time></trkpt><trkpt lat="44.8932183" lon="8.6764483"><ele>92.0</ele><time>2026-04-28T07:49:25.309Z</time></trkpt><trkpt lat="44.8932433" lon="8.6763233"><ele>92.0</ele><time>2026-04-28T07:49:26.309Z</time></trkpt><trkpt lat="44.8932633" lon="8.6762217"><ele>92.0</ele><time>2026-04-28T07:49:27.309Z</time></trkpt><trkpt lat="44.8932933" lon="8.6761383"><ele>92.0</ele><time>2026-04-28T07:49:28.309Z</time></trkpt><trkpt lat="44.893355" lon="8.6760217"><ele>92.0</ele><time>2026-04-28T07:49:30.309Z</time></trkpt><trkpt lat="44.8934117" lon="8.6759667"><ele>92.0</ele><time>2026-04-28T07:49:32.309Z</time></trkpt><trkpt lat="44.8934883" lon="8.675855"><ele>92.0</ele><time>2026-04-28T07:49:35.309Z</time></trkpt><trkpt lat="44.89355" lon="8.6757833"><ele>92.0</ele><time>2026-04-28T07:49:36.308Z</time></trkpt><trkpt lat="44.89361" lon="8.6757083"><ele>92.0</ele><time>2026-04-28T07:49:37.309Z</time></trkpt><trkpt lat="44.8936633" lon="8.6756233"><ele>92.0</ele><time>2026-04-28T07:49:38.309Z</time></trkpt><trkpt lat="44.8936983" lon="8.6755233"><ele>92.0</ele><time>2026-04-28T07:49:39.309Z</time></trkpt><trkpt lat="44.8937067" lon="8.6754217"><ele>92.0</ele><time>2026-04-28T07:49:40.308Z</time></trkpt><trkpt lat="44.89369" lon="8.6753117"><ele>92.0</ele><time>2026-04-28T07:49:41.309Z</time></trkpt><trkpt lat="44.89365" lon="8.6752133"><ele>92.0</ele><time>2026-04-28T07:49:42.309Z</time></trkpt><trkpt lat="44.8935917" lon="8.675145"><ele>92.0</ele><time>2026-04-28T07:49:43.309Z</time></trkpt><trkpt lat="44.8935183" lon="8.6750917"><ele>92.0</ele><time>2026-04-28T07:49:44.309Z</time></trkpt><trkpt lat="44.8934383" lon="8.6750583"><ele>92.0</ele><time>2026-04-28T07:49:45.309Z</time></trkpt><trkpt lat="44.8933533" lon="8.675045"><ele>92.0</ele><time>2026-04-28T07:49:46.309Z</time></trkpt><trkpt lat="44.8932717" lon="8.6750367"><ele>92.0</ele><time>2026-04-28T07:49:47.309Z</time></trkpt><trkpt lat="44.8931933" lon="8.6750317"><ele>92.19999999999999</ele><time>2026-04-28T07:49:48.308Z</time></trkpt><trkpt lat="44.89312" lon="8.6750117"><ele>92.4</ele><time>2026-04-28T07:49:49.309Z</time></trkpt><trkpt lat="44.892975" lon="8.6748983"><ele>92.6</ele><time>2026-04-28T07:49:51.309Z</time></trkpt><trkpt lat="44.8929067" lon="8.6748283"><ele>92.80000000000001</ele><time>2026-04-28T07:49:52.309Z</time></trkpt><trkpt lat="44.8928367" lon="8.6747517"><ele>93.0</ele><time>2026-04-28T07:49:53.309Z</time></trkpt><trkpt lat="44.892755" lon="8.6746717"><ele>93.0</ele><time>2026-04-28T07:49:54.309Z</time></trkpt><trkpt lat="44.89266" lon="8.6745933"><ele>93.0</ele><time>2026-04-28T07:49:55.309Z</time></trkpt><trkpt lat="44.89256" lon="8.6745067"><ele>93.0</ele><time>2026-04-28T07:49:56.309Z</time></trkpt><trkpt lat="44.8923817" lon="8.6743433"><ele>93.0</ele><time>2026-04-28T07:49:58.308Z</time></trkpt><trkpt lat="44.8923017" lon="8.6742783"><ele>93.0</ele><time>2026-04-28T07:49:59.309Z</time></trkpt><trkpt lat="44.8922317" lon="8.67421"><ele>93.0</ele><time>2026-04-28T07:50:00.309Z</time></trkpt><trkpt lat="44.892085" lon="8.6740817"><ele>93.0</ele><time>2026-04-28T07:50:02.309Z</time></trkpt><trkpt lat="44.8920083" lon="8.6740217"><ele>93.0</ele><time>2026-04-28T07:50:03.309Z</time></trkpt><trkpt lat="44.891945" lon="8.67396"><ele>93.0</ele><time>2026-04-28T07:50:04.309Z</time></trkpt><trkpt lat="44.89188" lon="8.6738917"><ele>93.0</ele><time>2026-04-28T07:50:05.309Z</time></trkpt><trkpt lat="44.8918283" lon="8.67382"><ele>93.0</ele><time>2026-04-28T07:50:06.309Z</time></trkpt><trkpt lat="44.8917683" lon="8.6736733"><ele>93.0</ele><time>2026-04-28T07:50:08.308Z</time></trkpt><trkpt lat="44.8917483" lon="8.6735867"><ele>93.0</ele><time>2026-04-28T07:50:09.309Z</time></trkpt><trkpt lat="44.891725" lon="8.6734983"><ele>93.0</ele><time>2026-04-28T07:50:10.309Z</time></trkpt><trkpt lat="44.8916867" lon="8.6734083"><ele>93.0</ele><time>2026-04-28T07:50:11.309Z</time></trkpt><trkpt lat="44.89157" lon="8.6732967"><ele>92.85714285714286</ele><time>2026-04-28T07:50:13.309Z</time></trkpt><trkpt lat="44.8915" lon="8.67327"><ele>92.71428571428572</ele><time>2026-04-28T07:50:14.309Z</time></trkpt><trkpt lat="44.8914267" lon="8.6732667"><ele>92.57142857142858</ele><time>2026-04-28T07:50:15.308Z</time></trkpt><trkpt lat="44.891365" lon="8.6733133"><ele>92.42857142857143</ele><time>2026-04-28T07:50:16.309Z</time></trkpt><trkpt lat="44.8913183" lon="8.6733933"><ele>92.28571428571428</ele><time>2026-04-28T07:50:17.309Z</time></trkpt><trkpt lat="44.8912783" lon="8.6734867"><ele>92.14285714285715</ele><time>2026-04-28T07:50:18.308Z</time></trkpt><trkpt lat="44.891255" lon="8.67359"><ele>92.0</ele><time>2026-04-28T07:50:19.309Z</time></trkpt><trkpt lat="44.8912233" lon="8.6737067"><ele>92.0</ele><time>2026-04-28T07:50:20.309Z</time></trkpt><trkpt lat="44.891185" lon="8.673815"><ele>92.0</ele><time>2026-04-28T07:50:21.309Z</time></trkpt><trkpt lat="44.8911383" lon="8.673925"><ele>92.0</ele><time>2026-04-28T07:50:22.309Z</time></trkpt><trkpt lat="44.891085" lon="8.6740317"><ele>92.0</ele><time>2026-04-28T07:50:23.309Z</time></trkpt><trkpt lat="44.8910233" lon="8.674125"><ele>92.0</ele><time>2026-04-28T07:50:24.309Z</time></trkpt><trkpt lat="44.8909467" lon="8.6742167"><ele>92.19999999999999</ele><time>2026-04-28T07:50:25.309Z</time></trkpt><trkpt lat="44.8908683" lon="8.6743017"><ele>92.4</ele><time>2026-04-28T07:50:26.309Z</time></trkpt><trkpt lat="44.890795" lon="8.6743867"><ele>92.6</ele><time>2026-04-28T07:50:27.309Z</time></trkpt><trkpt lat="44.8907233" lon="8.6744633"><ele>92.80000000000001</ele><time>2026-04-28T07:50:28.308Z</time></trkpt><trkpt lat="44.890655" lon="8.6745333"><ele>93.0</ele><time>2026-04-28T07:50:29.309Z</time></trkpt><trkpt lat="44.8905883" lon="8.67461"><ele>93.0</ele><time>2026-04-28T07:50:30.309Z</time></trkpt><trkpt lat="44.8905183" lon="8.6746933"><ele>93.0</ele><time>2026-04-28T07:50:31.308Z</time></trkpt><trkpt lat="44.8904517" lon="8.6747817"><ele>93.0</ele><time>2026-04-28T07:50:32.309Z</time></trkpt><trkpt lat="44.8903667" lon="8.6748817"><ele>93.0</ele><time>2026-04-28T07:50:33.309Z</time></trkpt><trkpt lat="44.890275" lon="8.6749767"><ele>93.0</ele><time>2026-04-28T07:50:34.308Z</time></trkpt><trkpt lat="44.8901967" lon="8.675055"><ele>93.0</ele><time>2026-04-28T07:50:35.309Z</time></trkpt><trkpt lat="44.89012" lon="8.6751267"><ele>93.0</ele><time>2026-04-28T07:50:36.308Z</time></trkpt><trkpt lat="44.8900583" lon="8.6751983"><ele>93.0</ele><time>2026-04-28T07:50:37.309Z</time></trkpt><trkpt lat="44.8899933" lon="8.6752733"><ele>93.0</ele><time>2026-04-28T07:50:38.309Z</time></trkpt><trkpt lat="44.8899317" lon="8.6753317"><ele>93.0</ele><time>2026-04-28T07:50:39.309Z</time></trkpt><trkpt lat="44.8898767" lon="8.675405"><ele>93.0</ele><time>2026-04-28T07:50:40.309Z</time></trkpt><trkpt lat="44.889815" lon="8.6754733"><ele>93.2</ele><time>2026-04-28T07:50:41.309Z</time></trkpt><trkpt lat="44.8897517" lon="8.675545"><ele>93.4</ele><time>2026-04-28T07:50:42.309Z</time></trkpt><trkpt lat="44.8896867" lon="8.6756167"><ele>93.60000000000001</ele><time>2026-04-28T07:50:43.309Z</time></trkpt><trkpt lat="44.889625" lon="8.6756933"><ele>93.80000000000001</ele><time>2026-04-28T07:50:44.309Z</time></trkpt><trkpt lat="44.889545" lon="8.6757833"><ele>94.0</ele><time>2026-04-28T07:50:45.309Z</time></trkpt><trkpt lat="44.8894617" lon="8.6758733"><ele>94.0</ele><time>2026-04-28T07:50:46.309Z</time></trkpt><trkpt lat="44.88939" lon="8.6759617"><ele>94.0</ele><time>2026-04-28T07:50:47.309Z</time></trkpt><trkpt lat="44.8893167" lon="8.67605"><ele>94.0</ele><time>2026-04-28T07:50:48.309Z</time></trkpt><trkpt lat="44.8892483" lon="8.6761367"><ele>94.0</ele><time>2026-04-28T07:50:49.308Z</time></trkpt><trkpt lat="44.8891833" lon="8.6762267"><ele>94.0</ele><time>2026-04-28T07:50:50.309Z</time></trkpt><trkpt lat="44.8891117" lon="8.676295"><ele>94.4</ele><time>2026-04-28T07:50:51.309Z</time></trkpt><trkpt lat="44.8890367" lon="8.676365"><ele>94.80000000000001</ele><time>2026-04-28T07:50:52.309Z</time></trkpt><trkpt lat="44.88896" lon="8.6764467"><ele>95.19999999999999</ele><time>2026-04-28T07:50:53.309Z</time></trkpt><trkpt lat="44.8888733" lon="8.6765333"><ele>95.6</ele><time>2026-04-28T07:50:54.309Z</time></trkpt><trkpt lat="44.8887883" lon="8.6766167"><ele>96.0</ele><time>2026-04-28T07:50:55.308Z</time></trkpt><trkpt lat="44.8887117" lon="8.676705"><ele>96.0</ele><time>2026-04-28T07:50:56.309Z</time></trkpt><trkpt lat="44.8886367" lon="8.6767983"><ele>96.0</ele><time>2026-04-28T07:50:57.309Z</time></trkpt><trkpt lat="44.8885633" lon="8.67688"><ele>96.0</ele><time>2026-04-28T07:50:58.309Z</time></trkpt><trkpt lat="44.8884883" lon="8.6769667"><ele>96.0</ele><time>2026-04-28T07:50:59.309Z</time></trkpt><trkpt lat="44.8884067" lon="8.6770567"><ele>96.0</ele><time>2026-04-28T07:51:00.309Z</time></trkpt><trkpt lat="44.8883267" lon="8.677155"><ele>96.0</ele><time>2026-04-28T07:51:01.309Z</time></trkpt><trkpt lat="44.8882433" lon="8.677255"><ele>96.0</ele><time>2026-04-28T07:51:02.309Z</time></trkpt><trkpt lat="44.8881583" lon="8.6773517"><ele>96.0</ele><time>2026-04-28T07:51:03.309Z</time></trkpt><trkpt lat="44.8880717" lon="8.67744"><ele>96.0</ele><time>2026-04-28T07:51:04.309Z</time></trkpt><trkpt lat="44.8880033" lon="8.6775283"><ele>96.0</ele><time>2026-04-28T07:51:05.309Z</time></trkpt><trkpt lat="44.88793" lon="8.6775983"><ele>96.0</ele><time>2026-04-28T07:51:06.309Z</time></trkpt><trkpt lat="44.887865" lon="8.677655"><ele>96.0</ele><time>2026-04-28T07:51:07.309Z</time></trkpt><trkpt lat="44.887805" lon="8.6777083"><ele>96.0</ele><time>2026-04-28T07:51:08.309Z</time></trkpt><trkpt lat="44.8877283" lon="8.6777933"><ele>96.0</ele><time>2026-04-28T07:51:10.309Z</time></trkpt><trkpt lat="44.8876533" lon="8.6778217"><ele>96.0</ele><time>2026-04-28T07:51:12.309Z</time></trkpt><trkpt lat="44.8875633" lon="8.67774"><ele>96.0</ele><time>2026-04-28T07:51:14.309Z</time></trkpt><trkpt lat="44.8875083" lon="8.677645"><ele>96.16666666666667</ele><time>2026-04-28T07:51:15.309Z</time></trkpt><trkpt lat="44.887445" lon="8.677545"><ele>96.33333333333334</ele><time>2026-04-28T07:51:16.309Z</time></trkpt><trkpt lat="44.8873733" lon="8.6774667"><ele>96.5</ele><time>2026-04-28T07:51:17.308Z</time></trkpt><trkpt lat="44.8873017" lon="8.6774133"><ele>96.66666666666667</ele><time>2026-04-28T07:51:18.308Z</time></trkpt><trkpt lat="44.8872217" lon="8.6774117"><ele>96.83333333333334</ele><time>2026-04-28T07:51:19.309Z</time></trkpt><trkpt lat="44.8871483" lon="8.6774233"><ele>97.0</ele><time>2026-04-28T07:51:20.309Z</time></trkpt><trkpt lat="44.887085" lon="8.6774483"><ele>97.0</ele><time>2026-04-28T07:51:21.309Z</time></trkpt><trkpt lat="44.88701" lon="8.6774817"><ele>97.0</ele><time>2026-04-28T07:51:22.309Z</time></trkpt><trkpt lat="44.8869283" lon="8.6775183"><ele>97.0</ele><time>2026-04-28T07:51:23.309Z</time></trkpt><trkpt lat="44.886845" lon="8.6775517"><ele>97.0</ele><time>2026-04-28T07:51:24.309Z</time></trkpt><trkpt lat="44.886745" lon="8.6775667"><ele>97.0</ele><time>2026-04-28T07:51:25.309Z</time></trkpt><trkpt lat="44.8866267" lon="8.6776067"><ele>97.25</ele><time>2026-04-28T07:51:26.309Z</time></trkpt><trkpt lat="44.8864983" lon="8.6776217"><ele>97.5</ele><time>2026-04-28T07:51:27.309Z</time></trkpt><trkpt lat="44.886385" lon="8.67762"><ele>97.75</ele><time>2026-04-28T07:51:28.309Z</time></trkpt><trkpt lat="44.8862517" lon="8.6776367"><ele>98.0</ele><time>2026-04-28T07:51:29.309Z</time></trkpt><trkpt lat="44.886115" lon="8.6776483"><ele>98.0</ele><time>2026-04-28T07:51:30.309Z</time></trkpt><trkpt lat="44.8859867" lon="8.67766"><ele>98.0</ele><time>2026-04-28T07:51:31.309Z</time></trkpt><trkpt lat="44.8858633" lon="8.67766"><ele>98.0</ele><time>2026-04-28T07:51:32.309Z</time></trkpt><trkpt lat="44.885755" lon="8.6776567"><ele>98.0</ele><time>2026-04-28T07:51:33.309Z</time></trkpt><trkpt lat="44.8856517" lon="8.6776617"><ele>98.25</ele><time>2026-04-28T07:51:34.309Z</time></trkpt><trkpt lat="44.88555" lon="8.6776483"><ele>98.5</ele><time>2026-04-28T07:51:35.309Z</time></trkpt><trkpt lat="44.8854333" lon="8.677635"><ele>98.75</ele><time>2026-04-28T07:51:36.309Z</time></trkpt><trkpt lat="44.8853133" lon="8.6776183"><ele>99.0</ele><time>2026-04-28T07:51:37.309Z</time></trkpt><trkpt lat="44.8851983" lon="8.6775967"><ele>98.4</ele><time>2026-04-28T07:51:38.309Z</time></trkpt><trkpt lat="44.8850917" lon="8.67757"><ele>97.80000000000001</ele><time>2026-04-28T07:51:39.308Z</time></trkpt><trkpt lat="44.8849933" lon="8.6775383"><ele>97.19999999999999</ele><time>2026-04-28T07:51:40.309Z</time></trkpt><trkpt lat="44.8849083" lon="8.6775167"><ele>96.6</ele><time>2026-04-28T07:51:41.309Z</time></trkpt><trkpt lat="44.8848117" lon="8.6774717"><ele>96.0</ele><time>2026-04-28T07:51:42.309Z</time></trkpt><trkpt lat="44.8847217" lon="8.6774433"><ele>96.0</ele><time>2026-04-28T07:51:43.309Z</time></trkpt><trkpt lat="44.8846167" lon="8.6774"><ele>96.0</ele><time>2026-04-28T07:51:44.309Z</time></trkpt><trkpt lat="44.88451" lon="8.677365"><ele>96.0</ele><time>2026-04-28T07:51:45.309Z</time></trkpt><trkpt lat="44.884415" lon="8.6773217"><ele>96.0</ele><time>2026-04-28T07:51:46.308Z</time></trkpt><trkpt lat="44.8843233" lon="8.677295"><ele>96.0</ele><time>2026-04-28T07:51:47.309Z</time></trkpt><trkpt lat="44.8842417" lon="8.6772733"><ele>96.19999999999999</ele><time>2026-04-28T07:51:48.308Z</time></trkpt><trkpt lat="44.8841217" lon="8.6772417"><ele>96.39999999999999</ele><time>2026-04-28T07:51:50.308Z</time></trkpt><trkpt lat="44.8840517" lon="8.6772117"><ele>96.6</ele><time>2026-04-28T07:51:51.309Z</time></trkpt><trkpt lat="44.883965" lon="8.677205"><ele>96.8</ele><time>2026-04-28T07:51:52.308Z</time></trkpt><trkpt lat="44.8838683" lon="8.677175"><ele>97.0</ele><time>2026-04-28T07:51:53.309Z</time></trkpt><trkpt lat="44.8837533" lon="8.6771367"><ele>97.0</ele><time>2026-04-28T07:51:54.309Z</time></trkpt><trkpt lat="44.8836167" lon="8.6770967"><ele>97.0</ele><time>2026-04-28T07:51:55.309Z</time></trkpt><trkpt lat="44.8834567" lon="8.6770433"><ele>97.0</ele><time>2026-04-28T07:51:56.309Z</time></trkpt><trkpt lat="44.8832933" lon="8.677"><ele>97.33333333333334</ele><time>2026-04-28T07:51:57.309Z</time></trkpt><trkpt lat="44.883125" lon="8.6769533"><ele>97.66666666666666</ele><time>2026-04-28T07:51:58.309Z</time></trkpt><trkpt lat="44.882985" lon="8.6769133"><ele>98.0</ele><time>2026-04-28T07:51:59.309Z</time></trkpt><trkpt lat="44.88285" lon="8.6768867"><ele>98.0</ele><time>2026-04-28T07:52:00.309Z</time></trkpt><trkpt lat="44.8827433" lon="8.6768483"><ele>98.0</ele><time>2026-04-28T07:52:01.309Z</time></trkpt><trkpt lat="44.8826233" lon="8.67681"><ele>98.0</ele><time>2026-04-28T07:52:02.309Z</time></trkpt><trkpt lat="44.88251" lon="8.6767617"><ele>98.0</ele><time>2026-04-28T07:52:03.309Z</time></trkpt><trkpt lat="44.882405" lon="8.67673"><ele>98.0</ele><time>2026-04-28T07:52:04.309Z</time></trkpt><trkpt lat="44.8822867" lon="8.676695"><ele>98.0</ele><time>2026-04-28T07:52:05.309Z</time></trkpt><trkpt lat="44.88217" lon="8.6766717"><ele>98.0</ele><time>2026-04-28T07:52:06.309Z</time></trkpt><trkpt lat="44.88207" lon="8.6766333"><ele>98.0</ele><time>2026-04-28T07:52:07.309Z</time></trkpt><trkpt lat="44.88199" lon="8.6766033"><ele>98.0</ele><time>2026-04-28T07:52:08.308Z</time></trkpt><trkpt lat="44.8819267" lon="8.6765883"><ele>97.99999999999999</ele><time>2026-04-28T07:52:09.309Z</time></trkpt><trkpt lat="44.8818583" lon="8.676575"><ele>98.0</ele><time>2026-04-28T07:52:11.309Z</time></trkpt><trkpt lat="44.8817983" lon="8.6765367"><ele>98.0</ele><time>2026-04-28T07:52:14.309Z</time></trkpt><trkpt lat="44.881715" lon="8.6765017"><ele>98.0</ele><time>2026-04-28T07:52:17.309Z</time></trkpt><trkpt lat="44.8816467" lon="8.6765017"><ele>97.99999999999999</ele><time>2026-04-28T07:52:19.309Z</time></trkpt><trkpt lat="44.881565" lon="8.67649"><ele>98.0</ele><time>2026-04-28T07:52:21.309Z</time></trkpt><trkpt lat="44.881445" lon="8.6764983"><ele>98.0</ele><time>2026-04-28T07:52:23.309Z</time></trkpt><trkpt lat="44.8813617" lon="8.676495"><ele>98.0</ele><time>2026-04-28T07:52:24.309Z</time></trkpt><trkpt lat="44.881255" lon="8.6764583"><ele>98.0</ele><time>2026-04-28T07:52:25.308Z</time></trkpt><trkpt lat="44.88113" lon="8.676425"><ele>98.0</ele><time>2026-04-28T07:52:26.309Z</time></trkpt><trkpt lat="44.8809983" lon="8.67639"><ele>97.75</ele><time>2026-04-28T07:52:27.309Z</time></trkpt><trkpt lat="44.88088" lon="8.6763567"><ele>97.5</ele><time>2026-04-28T07:52:28.309Z</time></trkpt><trkpt lat="44.88076" lon="8.676325"><ele>97.25</ele><time>2026-04-28T07:52:29.309Z</time></trkpt><trkpt lat="44.880645" lon="8.6762817"><ele>97.0</ele><time>2026-04-28T07:52:30.309Z</time></trkpt><trkpt lat="44.880515" lon="8.6762367"><ele>97.0</ele><time>2026-04-28T07:52:31.309Z</time></trkpt><trkpt lat="44.8803817" lon="8.6761983"><ele>97.0</ele><time>2026-04-28T07:52:32.309Z</time></trkpt><trkpt lat="44.8802433" lon="8.6761533"><ele>97.0</ele><time>2026-04-28T07:52:33.309Z</time></trkpt><trkpt lat="44.880095" lon="8.6761133"><ele>97.0</ele><time>2026-04-28T07:52:34.309Z</time></trkpt><trkpt lat="44.8799383" lon="8.6760667"><ele>96.75</ele><time>2026-04-28T07:52:35.308Z</time></trkpt><trkpt lat="44.8798" lon="8.6760167"><ele>96.5</ele><time>2026-04-28T07:52:36.309Z</time></trkpt><trkpt lat="44.8796683" lon="8.6759717"><ele>96.25</ele><time>2026-04-28T07:52:37.309Z</time></trkpt><trkpt lat="44.87955" lon="8.6759167"><ele>96.0</ele><time>2026-04-28T07:52:38.308Z</time></trkpt><trkpt lat="44.87942" lon="8.6758767"><ele>96.0</ele><time>2026-04-28T07:52:39.309Z</time></trkpt><trkpt lat="44.87929" lon="8.6758367"><ele>96.0</ele><time>2026-04-28T07:52:40.308Z</time></trkpt><trkpt lat="44.8791467" lon="8.675795"><ele>96.0</ele><time>2026-04-28T07:52:41.309Z</time></trkpt><trkpt lat="44.879005" lon="8.6757517"><ele>96.0</ele><time>2026-04-28T07:52:42.309Z</time></trkpt><trkpt lat="44.8788517" lon="8.675705"><ele>95.75</ele><time>2026-04-28T07:52:43.309Z</time></trkpt><trkpt lat="44.8787167" lon="8.6756667"><ele>95.5</ele><time>2026-04-28T07:52:44.309Z</time></trkpt><trkpt lat="44.87858" lon="8.67563"><ele>95.25</ele><time>2026-04-28T07:52:45.309Z</time></trkpt><trkpt lat="44.878455" lon="8.6755867"><ele>95.0</ele><time>2026-04-28T07:52:46.309Z</time></trkpt><trkpt lat="44.87833" lon="8.6755367"><ele>95.5</ele><time>2026-04-28T07:52:47.309Z</time></trkpt><trkpt lat="44.8782" lon="8.6755017"><ele>96.0</ele><time>2026-04-28T07:52:48.309Z</time></trkpt><trkpt lat="44.878075" lon="8.6754533"><ele>96.5</ele><time>2026-04-28T07:52:49.309Z</time></trkpt><trkpt lat="44.8779417" lon="8.6754133"><ele>97.0</ele><time>2026-04-28T07:52:50.309Z</time></trkpt><trkpt lat="44.8778083" lon="8.67537"><ele>97.0</ele><time>2026-04-28T07:52:51.309Z</time></trkpt><trkpt lat="44.87767" lon="8.67533"><ele>97.0</ele><time>2026-04-28T07:52:52.309Z</time></trkpt><trkpt lat="44.8775267" lon="8.6752883"><ele>97.0</ele><time>2026-04-28T07:52:53.309Z</time></trkpt><trkpt lat="44.8773933" lon="8.6752467"><ele>97.0</ele><time>2026-04-28T07:52:54.309Z</time></trkpt><trkpt lat="44.8772567" lon="8.6752033"><ele>96.75</ele><time>2026-04-28T07:52:55.309Z</time></trkpt><trkpt lat="44.8771233" lon="8.6751683"><ele>96.5</ele><time>2026-04-28T07:52:56.309Z</time></trkpt><trkpt lat="44.876985" lon="8.67514"><ele>96.25</ele><time>2026-04-28T07:52:57.309Z</time></trkpt><trkpt lat="44.8768367" lon="8.6751083"><ele>96.0</ele><time>2026-04-28T07:52:58.309Z</time></trkpt><trkpt lat="44.8766683" lon="8.6750767"><ele>96.0</ele><time>2026-04-28T07:52:59.309Z</time></trkpt><trkpt lat="44.87648" lon="8.6750367"><ele>96.0</ele><time>2026-04-28T07:53:00.309Z</time></trkpt><trkpt lat="44.876265" lon="8.6749883"><ele>96.0</ele><time>2026-04-28T07:53:01.309Z</time></trkpt><trkpt lat="44.8760283" lon="8.674945"><ele>96.5</ele><time>2026-04-28T07:53:02.309Z</time></trkpt><trkpt lat="44.8757717" lon="8.6748917"><ele>97.0</ele><time>2026-04-28T07:53:03.308Z</time></trkpt><trkpt lat="44.8755167" lon="8.6748317"><ele>97.0</ele><time>2026-04-28T07:53:04.309Z</time></trkpt><trkpt lat="44.87527" lon="8.67477"><ele>97.0</ele><time>2026-04-28T07:53:05.309Z</time></trkpt><trkpt lat="44.8750467" lon="8.674715"><ele>97.33333333333334</ele><time>2026-04-28T07:53:06.309Z</time></trkpt><trkpt lat="44.8748283" lon="8.67466"><ele>97.66666666666666</ele><time>2026-04-28T07:53:07.309Z</time></trkpt><trkpt lat="44.8746167" lon="8.6745967"><ele>98.0</ele><time>2026-04-28T07:53:08.309Z</time></trkpt><trkpt lat="44.8744033" lon="8.67454"><ele>98.0</ele><time>2026-04-28T07:53:09.309Z</time></trkpt><trkpt lat="44.8741917" lon="8.67448"><ele>98.0</ele><time>2026-04-28T07:53:10.309Z</time></trkpt><trkpt lat="44.8739833" lon="8.67441"><ele>98.0</ele><time>2026-04-28T07:53:11.309Z</time></trkpt><trkpt lat="44.873775" lon="8.674345"><ele>98.0</ele><time>2026-04-28T07:53:12.309Z</time></trkpt><trkpt lat="44.873565" lon="8.6742733"><ele>98.0</ele><time>2026-04-28T07:53:13.309Z</time></trkpt><trkpt lat="44.87335" lon="8.6741967"><ele>98.0</ele><time>2026-04-28T07:53:14.309Z</time></trkpt><trkpt lat="44.8731333" lon="8.674115"><ele>97.5</ele><time>2026-04-28T07:53:15.309Z</time></trkpt><trkpt lat="44.8729067" lon="8.67404"><ele>97.0</ele><time>2026-04-28T07:53:16.309Z</time></trkpt><trkpt lat="44.8726833" lon="8.67396"><ele>97.5</ele><time>2026-04-28T07:53:17.309Z</time></trkpt><trkpt lat="44.8724617" lon="8.6738767"><ele>98.0</ele><time>2026-04-28T07:53:18.309Z</time></trkpt><trkpt lat="44.8722317" lon="8.6737933"><ele>98.0</ele><time>2026-04-28T07:53:19.309Z</time></trkpt><trkpt lat="44.8720033" lon="8.67371"><ele>98.0</ele><time>2026-04-28T07:53:20.309Z</time></trkpt><trkpt lat="44.8717817" lon="8.6736217"><ele>98.33333333333333</ele><time>2026-04-28T07:53:21.309Z</time></trkpt><trkpt lat="44.871565" lon="8.6735433"><ele>98.66666666666666</ele><time>2026-04-28T07:53:22.309Z</time></trkpt><trkpt lat="44.8713583" lon="8.6734683"><ele>99.0</ele><time>2026-04-28T07:53:23.309Z</time></trkpt><trkpt lat="44.87116" lon="8.6733933"><ele>99.0</ele><time>2026-04-28T07:53:24.309Z</time></trkpt><trkpt lat="44.8709583" lon="8.6733267"><ele>99.0</ele><time>2026-04-28T07:53:25.309Z</time></trkpt><trkpt lat="44.87075" lon="8.6732583"><ele>99.0</ele><time>2026-04-28T07:53:26.309Z</time></trkpt><trkpt lat="44.8705383" lon="8.6731983"><ele>98.66666666666666</ele><time>2026-04-28T07:53:27.309Z</time></trkpt><trkpt lat="44.8703317" lon="8.6731333"><ele>98.33333333333333</ele><time>2026-04-28T07:53:28.309Z</time></trkpt><trkpt lat="44.870125" lon="8.6730817"><ele>98.0</ele><time>2026-04-28T07:53:29.309Z</time></trkpt><trkpt lat="44.86992" lon="8.6730167"><ele>98.0</ele><time>2026-04-28T07:53:30.309Z</time></trkpt><trkpt lat="44.8697117" lon="8.672945"><ele>98.0</ele><time>2026-04-28T07:53:31.309Z</time></trkpt><trkpt lat="44.8695017" lon="8.6728767"><ele>98.0</ele><time>2026-04-28T07:53:32.309Z</time></trkpt><trkpt lat="44.86929" lon="8.67281"><ele>98.0</ele><time>2026-04-28T07:53:33.309Z</time></trkpt><trkpt lat="44.8690783" lon="8.6727417"><ele>98.0</ele><time>2026-04-28T07:53:34.309Z</time></trkpt><trkpt lat="44.8688667" lon="8.6726717"><ele>98.0</ele><time>2026-04-28T07:53:35.309Z</time></trkpt><trkpt lat="44.8686467" lon="8.67261"><ele>98.5</ele><time>2026-04-28T07:53:36.309Z</time></trkpt><trkpt lat="44.86842" lon="8.6725483"><ele>99.0</ele><time>2026-04-28T07:53:37.309Z</time></trkpt><trkpt lat="44.86819" lon="8.672485"><ele>99.0</ele><time>2026-04-28T07:53:38.309Z</time></trkpt><trkpt lat="44.8679517" lon="8.6724217"><ele>99.0</ele><time>2026-04-28T07:53:39.309Z</time></trkpt><trkpt lat="44.8676983" lon="8.67236"><ele>99.0</ele><time>2026-04-28T07:53:40.309Z</time></trkpt><trkpt lat="44.8674333" lon="8.672295"><ele>99.0</ele><time>2026-04-28T07:53:41.309Z</time></trkpt><trkpt lat="44.8671533" lon="8.6722267"><ele>99.0</ele><time>2026-04-28T07:53:42.309Z</time></trkpt><trkpt lat="44.866875" lon="8.6721667"><ele>99.0</ele><time>2026-04-28T07:53:43.308Z</time></trkpt><trkpt lat="44.8666117" lon="8.6721083"><ele>99.0</ele><time>2026-04-28T07:53:44.309Z</time></trkpt><trkpt lat="44.86637" lon="8.6720567"><ele>99.0</ele><time>2026-04-28T07:53:45.309Z</time></trkpt><trkpt lat="44.866145" lon="8.67201"><ele>99.33333333333334</ele><time>2026-04-28T07:53:46.309Z</time></trkpt><trkpt lat="44.8659333" lon="8.6719733"><ele>99.66666666666667</ele><time>2026-04-28T07:53:47.309Z</time></trkpt><trkpt lat="44.8657267" lon="8.6719583"><ele>100.0</ele><time>2026-04-28T07:53:48.309Z</time></trkpt><trkpt lat="44.8655233" lon="8.67197"><ele>100.0</ele><time>2026-04-28T07:53:49.309Z</time></trkpt><trkpt lat="44.865325" lon="8.672"><ele>100.0</ele><time>2026-04-28T07:53:50.309Z</time></trkpt><trkpt lat="44.8651267" lon="8.6720367"><ele>100.0</ele><time>2026-04-28T07:53:51.309Z</time></trkpt><trkpt lat="44.8649417" lon="8.6720667"><ele>100.33333333333334</ele><time>2026-04-28T07:53:52.309Z</time></trkpt><trkpt lat="44.8647567" lon="8.67211"><ele>100.66666666666666</ele><time>2026-04-28T07:53:53.309Z</time></trkpt><trkpt lat="44.8645733" lon="8.6721683"><ele>101.0</ele><time>2026-04-28T07:53:54.309Z</time></trkpt><trkpt lat="44.8643933" lon="8.6722433"><ele>100.33333333333333</ele><time>2026-04-28T07:53:55.308Z</time></trkpt><trkpt lat="44.8642067" lon="8.6723417"><ele>99.66666666666666</ele><time>2026-04-28T07:53:56.309Z</time></trkpt><trkpt lat="44.8640183" lon="8.6724417"><ele>99.0</ele><time>2026-04-28T07:53:57.309Z</time></trkpt><trkpt lat="44.8638283" lon="8.6725267"><ele>99.0</ele><time>2026-04-28T07:53:58.308Z</time></trkpt><trkpt lat="44.8636433" lon="8.6726217"><ele>99.0</ele><time>2026-04-28T07:53:59.309Z</time></trkpt><trkpt lat="44.8634583" lon="8.6727267"><ele>99.0</ele><time>2026-04-28T07:54:00.309Z</time></trkpt><trkpt lat="44.863265" lon="8.6728367"><ele>99.33333333333334</ele><time>2026-04-28T07:54:01.309Z</time></trkpt><trkpt lat="44.8630717" lon="8.67294"><ele>99.66666666666667</ele><time>2026-04-28T07:54:02.309Z</time></trkpt><trkpt lat="44.86287" lon="8.6730517"><ele>100.0</ele><time>2026-04-28T07:54:03.309Z</time></trkpt><trkpt lat="44.8626683" lon="8.6731583"><ele>99.66666666666667</ele><time>2026-04-28T07:54:04.309Z</time></trkpt><trkpt lat="44.8624633" lon="8.6732683"><ele>99.33333333333334</ele><time>2026-04-28T07:54:05.309Z</time></trkpt><trkpt lat="44.86225" lon="8.67339"><ele>99.0</ele><time>2026-04-28T07:54:06.309Z</time></trkpt><trkpt lat="44.862035" lon="8.6735017"><ele>99.5</ele><time>2026-04-28T07:54:07.309Z</time></trkpt><trkpt lat="44.8618117" lon="8.673615"><ele>100.0</ele><time>2026-04-28T07:54:08.309Z</time></trkpt><trkpt lat="44.8615783" lon="8.6737333"><ele>100.0</ele><time>2026-04-28T07:54:09.309Z</time></trkpt><trkpt lat="44.86134" lon="8.6738567"><ele>100.0</ele><time>2026-04-28T07:54:10.309Z</time></trkpt><trkpt lat="44.8610783" lon="8.673995"><ele>100.5</ele><time>2026-04-28T07:54:11.309Z</time></trkpt><trkpt lat="44.8608067" lon="8.674135"><ele>101.0</ele><time>2026-04-28T07:54:12.308Z</time></trkpt><trkpt lat="44.8605533" lon="8.6742783"><ele>101.0</ele><time>2026-04-28T07:54:13.308Z</time></trkpt><trkpt lat="44.8603083" lon="8.67441"><ele>101.0</ele><time>2026-04-28T07:54:14.309Z</time></trkpt><trkpt lat="44.8600783" lon="8.67453"><ele>101.0</ele><time>2026-04-28T07:54:15.309Z</time></trkpt><trkpt lat="44.8598633" lon="8.6746483"><ele>101.0</ele><time>2026-04-28T07:54:16.308Z</time></trkpt><trkpt lat="44.859665" lon="8.6747617"><ele>101.0</ele><time>2026-04-28T07:54:17.309Z</time></trkpt><trkpt lat="44.8594733" lon="8.67486"><ele>101.0</ele><time>2026-04-28T07:54:18.309Z</time></trkpt><trkpt lat="44.85929" lon="8.6749617"><ele>101.0</ele><time>2026-04-28T07:54:19.309Z</time></trkpt><trkpt lat="44.8591033" lon="8.6750633"><ele>101.0</ele><time>2026-04-28T07:54:20.309Z</time></trkpt><trkpt lat="44.85892" lon="8.6751667"><ele>101.0</ele><time>2026-04-28T07:54:21.309Z</time></trkpt><trkpt lat="44.8587383" lon="8.67526"><ele>101.0</ele><time>2026-04-28T07:54:22.309Z</time></trkpt><trkpt lat="44.8585467" lon="8.6753517"><ele>101.0</ele><time>2026-04-28T07:54:23.308Z</time></trkpt><trkpt lat="44.8583583" lon="8.6754467"><ele>101.33333333333333</ele><time>2026-04-28T07:54:24.309Z</time></trkpt><trkpt lat="44.858175" lon="8.67555"><ele>101.66666666666666</ele><time>2026-04-28T07:54:25.309Z</time></trkpt><trkpt lat="44.8579833" lon="8.6756467"><ele>102.0</ele><time>2026-04-28T07:54:26.309Z</time></trkpt><trkpt lat="44.8578017" lon="8.6757467"><ele>102.0</ele><time>2026-04-28T07:54:27.309Z</time></trkpt><trkpt lat="44.857615" lon="8.67584"><ele>102.0</ele><time>2026-04-28T07:54:28.309Z</time></trkpt><trkpt lat="44.85743" lon="8.67592"><ele>102.0</ele><time>2026-04-28T07:54:29.309Z</time></trkpt><trkpt lat="44.857235" lon="8.675985"><ele>102.0</ele><time>2026-04-28T07:54:30.309Z</time></trkpt><trkpt lat="44.8570283" lon="8.6760283"><ele>102.0</ele><time>2026-04-28T07:54:31.309Z</time></trkpt><trkpt lat="44.8568133" lon="8.6760667"><ele>102.0</ele><time>2026-04-28T07:54:32.309Z</time></trkpt><trkpt lat="44.856595" lon="8.6761117"><ele>102.33333333333334</ele><time>2026-04-28T07:54:33.309Z</time></trkpt><trkpt lat="44.8563767" lon="8.6761667"><ele>102.66666666666667</ele><time>2026-04-28T07:54:34.309Z</time></trkpt><trkpt lat="44.8561583" lon="8.67622"><ele>103.0</ele><time>2026-04-28T07:54:35.309Z</time></trkpt><trkpt lat="44.8559267" lon="8.6762683"><ele>103.5</ele><time>2026-04-28T07:54:36.309Z</time></trkpt><trkpt lat="44.855695" lon="8.6763183"><ele>104.0</ele><time>2026-04-28T07:54:37.309Z</time></trkpt><trkpt lat="44.8554567" lon="8.67637"><ele>104.0</ele><time>2026-04-28T07:54:38.309Z</time></trkpt><trkpt lat="44.85522" lon="8.6764283"><ele>104.0</ele><time>2026-04-28T07:54:39.309Z</time></trkpt><trkpt lat="44.854985" lon="8.6764717"><ele>104.33333333333333</ele><time>2026-04-28T07:54:40.309Z</time></trkpt><trkpt lat="44.8547567" lon="8.67652"><ele>104.66666666666666</ele><time>2026-04-28T07:54:41.309Z</time></trkpt><trkpt lat="44.8545433" lon="8.6765717"><ele>105.0</ele><time>2026-04-28T07:54:42.309Z</time></trkpt><trkpt lat="44.8543417" lon="8.676625"><ele>105.66666666666666</ele><time>2026-04-28T07:54:43.309Z</time></trkpt><trkpt lat="44.8541383" lon="8.676665"><ele>106.33333333333333</ele><time>2026-04-28T07:54:44.309Z</time></trkpt><trkpt lat="44.8539467" lon="8.6767167"><ele>107.0</ele><time>2026-04-28T07:54:45.308Z</time></trkpt><trkpt lat="44.85375" lon="8.6767683"><ele>107.0</ele><time>2026-04-28T07:54:46.309Z</time></trkpt><trkpt lat="44.8535483" lon="8.6768317"><ele>107.0</ele><time>2026-04-28T07:54:47.309Z</time></trkpt><trkpt lat="44.8533467" lon="8.6769"><ele>107.0</ele><time>2026-04-28T07:54:48.309Z</time></trkpt><trkpt lat="44.8531283" lon="8.676975"><ele>106.0</ele><time>2026-04-28T07:54:49.309Z</time></trkpt><trkpt lat="44.8529017" lon="8.6770467"><ele>105.0</ele><time>2026-04-28T07:54:50.309Z</time></trkpt><trkpt lat="44.8526867" lon="8.6771117"><ele>105.0</ele><time>2026-04-28T07:54:51.309Z</time></trkpt><trkpt lat="44.8525" lon="8.67716"><ele>105.0</ele><time>2026-04-28T07:54:52.309Z</time></trkpt><trkpt lat="44.852315" lon="8.6771767"><ele>105.0</ele><time>2026-04-28T07:54:53.309Z</time></trkpt><trkpt lat="44.85213" lon="8.6771717"><ele>105.0</ele><time>2026-04-28T07:54:54.309Z</time></trkpt><trkpt lat="44.8519533" lon="8.6771517"><ele>105.0</ele><time>2026-04-28T07:54:55.309Z</time></trkpt><trkpt lat="44.851775" lon="8.677115"><ele>105.0</ele><time>2026-04-28T07:54:56.309Z</time></trkpt><trkpt lat="44.8516033" lon="8.6770717"><ele>105.0</ele><time>2026-04-28T07:54:57.309Z</time></trkpt><trkpt lat="44.8514267" lon="8.6770017"><ele>105.0</ele><time>2026-04-28T07:54:58.309Z</time></trkpt><trkpt lat="44.8512667" lon="8.67692"><ele>105.0</ele><time>2026-04-28T07:54:59.309Z</time></trkpt><trkpt lat="44.851095" lon="8.6768367"><ele>105.0</ele><time>2026-04-28T07:55:00.308Z</time></trkpt><trkpt lat="44.850935" lon="8.6767633"><ele>105.0</ele><time>2026-04-28T07:55:01.308Z</time></trkpt><trkpt lat="44.8507833" lon="8.6767083"><ele>105.0</ele><time>2026-04-28T07:55:02.309Z</time></trkpt><trkpt lat="44.8506183" lon="8.6766867"><ele>105.0</ele><time>2026-04-28T07:55:03.309Z</time></trkpt><trkpt lat="44.8504283" lon="8.6767083"><ele>105.0</ele><time>2026-04-28T07:55:04.309Z</time></trkpt><trkpt lat="44.850235" lon="8.6767533"><ele>105.0</ele><time>2026-04-28T07:55:05.309Z</time></trkpt><trkpt lat="44.8500483" lon="8.676805"><ele>106.0</ele><time>2026-04-28T07:55:06.309Z</time></trkpt><trkpt lat="44.8498533" lon="8.676865"><ele>107.0</ele><time>2026-04-28T07:55:07.309Z</time></trkpt><trkpt lat="44.849655" lon="8.6769317"><ele>108.0</ele><time>2026-04-28T07:55:08.309Z</time></trkpt><trkpt lat="44.8494433" lon="8.6770083"><ele>108.0</ele><time>2026-04-28T07:55:09.309Z</time></trkpt><trkpt lat="44.8492133" lon="8.6770983"><ele>108.0</ele><time>2026-04-28T07:55:10.309Z</time></trkpt><trkpt lat="44.8489933" lon="8.6771867"><ele>108.0</ele><time>2026-04-28T07:55:11.309Z</time></trkpt><trkpt lat="44.848795" lon="8.6772667"><ele>108.0</ele><time>2026-04-28T07:55:12.309Z</time></trkpt><trkpt lat="44.848625" lon="8.6773383"><ele>108.0</ele><time>2026-04-28T07:55:13.309Z</time></trkpt><trkpt lat="44.8484917" lon="8.6773867"><ele>108.0</ele><time>2026-04-28T07:55:14.309Z</time></trkpt><trkpt lat="44.8483717" lon="8.67742"><ele>108.00000000000001</ele><time>2026-04-28T07:55:15.309Z</time></trkpt><trkpt lat="44.8482633" lon="8.6774583"><ele>108.00000000000001</ele><time>2026-04-28T07:55:16.309Z</time></trkpt><trkpt lat="44.84817" lon="8.67747"><ele>108.0</ele><time>2026-04-28T07:55:17.309Z</time></trkpt><trkpt lat="44.8480783" lon="8.67746"><ele>108.0</ele><time>2026-04-28T07:55:18.309Z</time></trkpt><trkpt lat="44.8479983" lon="8.67744"><ele>108.0</ele><time>2026-04-28T07:55:19.308Z</time></trkpt><trkpt lat="44.847935" lon="8.6774433"><ele>108.00000000000001</ele><time>2026-04-28T07:55:20.309Z</time></trkpt><trkpt lat="44.8478633" lon="8.677575"><ele>108.00000000000001</ele><time>2026-04-28T07:55:22.309Z</time></trkpt><trkpt lat="44.8478683" lon="8.677675"><ele>108.0</ele><time>2026-04-28T07:55:23.309Z</time></trkpt><trkpt lat="44.847895" lon="8.67781"><ele>108.0</ele><time>2026-04-28T07:55:24.309Z</time></trkpt><trkpt lat="44.847905" lon="8.677965"><ele>108.0</ele><time>2026-04-28T07:55:25.309Z</time></trkpt><trkpt lat="44.84788" lon="8.678165"><ele>108.0</ele><time>2026-04-28T07:55:26.309Z</time></trkpt><trkpt lat="44.8478467" lon="8.6784033"><ele>108.0</ele><time>2026-04-28T07:55:27.309Z</time></trkpt><trkpt lat="44.8478067" lon="8.6786633"><ele>108.33333333333334</ele><time>2026-04-28T07:55:28.309Z</time></trkpt><trkpt lat="44.84776" lon="8.67896"><ele>108.66666666666667</ele><time>2026-04-28T07:55:29.309Z</time></trkpt><trkpt lat="44.8477067" lon="8.6792767"><ele>109.0</ele><time>2026-04-28T07:55:30.309Z</time></trkpt><trkpt lat="44.8476533" lon="8.679605"><ele>109.0</ele><time>2026-04-28T07:55:31.309Z</time></trkpt><trkpt lat="44.8475917" lon="8.6799267"><ele>109.0</ele><time>2026-04-28T07:55:32.309Z</time></trkpt><trkpt lat="44.8475383" lon="8.680225"><ele>109.0</ele><time>2026-04-28T07:55:33.309Z</time></trkpt><trkpt lat="44.8474883" lon="8.6805017"><ele>109.0</ele><time>2026-04-28T07:55:34.309Z</time></trkpt><trkpt lat="44.847445" lon="8.6807733"><ele>109.0</ele><time>2026-04-28T07:55:35.309Z</time></trkpt><trkpt lat="44.8474017" lon="8.6810367"><ele>108.66666666666667</ele><time>2026-04-28T07:55:36.309Z</time></trkpt><trkpt lat="44.8473667" lon="8.6812867"><ele>108.33333333333334</ele><time>2026-04-28T07:55:37.309Z</time></trkpt><trkpt lat="44.847315" lon="8.681525"><ele>108.0</ele><time>2026-04-28T07:55:38.309Z</time></trkpt><trkpt lat="44.8472667" lon="8.6817367"><ele>108.0</ele><time>2026-04-28T07:55:39.308Z</time></trkpt><trkpt lat="44.8472233" lon="8.6819283"><ele>108.0</ele><time>2026-04-28T07:55:40.308Z</time></trkpt><trkpt lat="44.8471617" lon="8.682095"><ele>108.0</ele><time>2026-04-28T07:55:41.309Z</time></trkpt><trkpt lat="44.847095" lon="8.6822233"><ele>108.0</ele><time>2026-04-28T07:55:42.309Z</time></trkpt><trkpt lat="44.8470233" lon="8.6823117"><ele>108.0</ele><time>2026-04-28T07:55:43.309Z</time></trkpt><trkpt lat="44.846945" lon="8.6823783"><ele>108.00000000000001</ele><time>2026-04-28T07:55:44.309Z</time></trkpt><trkpt lat="44.84686" lon="8.6824417"><ele>108.00000000000001</ele><time>2026-04-28T07:55:45.309Z</time></trkpt><trkpt lat="44.846795" lon="8.6825333"><ele>108.0</ele><time>2026-04-28T07:55:46.309Z</time></trkpt><trkpt lat="44.8467417" lon="8.68266"><ele>108.0</ele><time>2026-04-28T07:55:47.309Z</time></trkpt><trkpt lat="44.8466917" lon="8.6828017"><ele>108.66666666666666</ele><time>2026-04-28T07:55:48.309Z</time></trkpt><trkpt lat="44.8466067" lon="8.6829517"><ele>109.33333333333333</ele><time>2026-04-28T07:55:49.308Z</time></trkpt><trkpt lat="44.8464933" lon="8.6831133"><ele>110.0</ele><time>2026-04-28T07:55:50.309Z</time></trkpt><trkpt lat="44.846365" lon="8.6832833"><ele>110.0</ele><time>2026-04-28T07:55:51.309Z</time></trkpt><trkpt lat="44.8462267" lon="8.6834733"><ele>110.0</ele><time>2026-04-28T07:55:52.309Z</time></trkpt><trkpt lat="44.84608" lon="8.6836783"><ele>110.0</ele><time>2026-04-28T07:55:53.309Z</time></trkpt><trkpt lat="44.8459167" lon="8.6839017"><ele>110.5</ele><time>2026-04-28T07:55:54.309Z</time></trkpt><trkpt lat="44.84574" lon="8.684135"><ele>111.0</ele><time>2026-04-28T07:55:55.309Z</time></trkpt><trkpt lat="44.845565" lon="8.684365"><ele>112.5</ele><time>2026-04-28T07:55:56.309Z</time></trkpt><trkpt lat="44.84539" lon="8.6846033"><ele>114.0</ele><time>2026-04-28T07:55:57.309Z</time></trkpt><trkpt lat="44.8452167" lon="8.6848233"><ele>113.0</ele><time>2026-04-28T07:55:58.308Z</time></trkpt><trkpt lat="44.8450633" lon="8.6850333"><ele>112.0</ele><time>2026-04-28T07:55:59.309Z</time></trkpt><trkpt lat="44.8449083" lon="8.6852333"><ele>111.0</ele><time>2026-04-28T07:56:00.309Z</time></trkpt><trkpt lat="44.8447667" lon="8.6854383"><ele>111.0</ele><time>2026-04-28T07:56:01.309Z</time></trkpt><trkpt lat="44.844625" lon="8.685635"><ele>111.0</ele><time>2026-04-28T07:56:02.309Z</time></trkpt><trkpt lat="44.844485" lon="8.685835"><ele>111.0</ele><time>2026-04-28T07:56:03.309Z</time></trkpt><trkpt lat="44.844345" lon="8.6860383"><ele>111.66666666666666</ele><time>2026-04-28T07:56:04.309Z</time></trkpt><trkpt lat="44.8442" lon="8.6862267"><ele>112.33333333333333</ele><time>2026-04-28T07:56:05.309Z</time></trkpt><trkpt lat="44.8440717" lon="8.686395"><ele>113.0</ele><time>2026-04-28T07:56:06.309Z</time></trkpt><trkpt lat="44.8439567" lon="8.686545"><ele>113.0</ele><time>2026-04-28T07:56:07.309Z</time></trkpt><trkpt lat="44.8438583" lon="8.6866717"><ele>113.00000000000001</ele><time>2026-04-28T07:56:08.309Z</time></trkpt><trkpt lat="44.843775" lon="8.6867667"><ele>113.00000000000001</ele><time>2026-04-28T07:56:09.309Z</time></trkpt><trkpt lat="44.84371" lon="8.6868333"><ele>113.0</ele><time>2026-04-28T07:56:10.309Z</time></trkpt><trkpt lat="44.8436317" lon="8.6868667"><ele>113.0</ele><time>2026-04-28T07:56:11.309Z</time></trkpt><trkpt lat="44.8435517" lon="8.686885"><ele>113.0</ele><time>2026-04-28T07:56:12.309Z</time></trkpt><trkpt lat="44.8434733" lon="8.6869083"><ele>113.00000000000001</ele><time>2026-04-28T07:56:13.309Z</time></trkpt><trkpt lat="44.84341" lon="8.686955"><ele>113.00000000000001</ele><time>2026-04-28T07:56:14.309Z</time></trkpt><trkpt lat="44.843375" lon="8.6870483"><ele>113.0</ele><time>2026-04-28T07:56:15.309Z</time></trkpt><trkpt lat="44.8433483" lon="8.6871783"><ele>113.0</ele><time>2026-04-28T07:56:16.308Z</time></trkpt><trkpt lat="44.84332" lon="8.687355"><ele>113.33333333333333</ele><time>2026-04-28T07:56:17.308Z</time></trkpt><trkpt lat="44.8432417" lon="8.68756"><ele>113.66666666666666</ele><time>2026-04-28T07:56:18.309Z</time></trkpt><trkpt lat="44.8431133" lon="8.687795"><ele>114.0</ele><time>2026-04-28T07:56:19.309Z</time></trkpt><trkpt lat="44.8429667" lon="8.688055"><ele>114.5</ele><time>2026-04-28T07:56:20.309Z</time></trkpt><trkpt lat="44.84282" lon="8.6883267"><ele>115.0</ele><time>2026-04-28T07:56:21.309Z</time></trkpt><trkpt lat="44.8426883" lon="8.6885683"><ele>115.0</ele><time>2026-04-28T07:56:22.309Z</time></trkpt><trkpt lat="44.8425617" lon="8.6887867"><ele>115.0</ele><time>2026-04-28T07:56:23.309Z</time></trkpt><trkpt lat="44.842435" lon="8.6889933"><ele>115.0</ele><time>2026-04-28T07:56:24.309Z</time></trkpt><trkpt lat="44.842315" lon="8.6892"><ele>115.0</ele><time>2026-04-28T07:56:25.309Z</time></trkpt><trkpt lat="44.8421967" lon="8.6894067"><ele>115.0</ele><time>2026-04-28T07:56:26.308Z</time></trkpt><trkpt lat="44.8420683" lon="8.6896183"><ele>115.0</ele><time>2026-04-28T07:56:27.309Z</time></trkpt><trkpt lat="44.8419183" lon="8.68983"><ele>115.0</ele><time>2026-04-28T07:56:28.309Z</time></trkpt><trkpt lat="44.84176" lon="8.690025"><ele>115.0</ele><time>2026-04-28T07:56:29.309Z</time></trkpt><trkpt lat="44.8416083" lon="8.6901983"><ele>115.0</ele><time>2026-04-28T07:56:30.308Z</time></trkpt><trkpt lat="44.8414683" lon="8.6903567"><ele>115.0</ele><time>2026-04-28T07:56:31.309Z</time></trkpt><trkpt lat="44.8413267" lon="8.6904983"><ele>115.0</ele><time>2026-04-28T07:56:32.309Z</time></trkpt><trkpt lat="44.8412" lon="8.6906217"><ele>115.0</ele><time>2026-04-28T07:56:33.309Z</time></trkpt><trkpt lat="44.841075" lon="8.6907317"><ele>115.0</ele><time>2026-04-28T07:56:34.308Z</time></trkpt><trkpt lat="44.8409483" lon="8.6908367"><ele>115.0</ele><time>2026-04-28T07:56:35.309Z</time></trkpt><trkpt lat="44.8408367" lon="8.6909117"><ele>115.0</ele><time>2026-04-28T07:56:36.309Z</time></trkpt><trkpt lat="44.840735" lon="8.6909633"><ele>115.0</ele><time>2026-04-28T07:56:37.309Z</time></trkpt><trkpt lat="44.840645" lon="8.6909883"><ele>115.0</ele><time>2026-04-28T07:56:38.308Z</time></trkpt><trkpt lat="44.840565" lon="8.69099"><ele>115.0</ele><time>2026-04-28T07:56:39.309Z</time></trkpt><trkpt lat="44.8404817" lon="8.691"><ele>115.0</ele><time>2026-04-28T07:56:40.309Z</time></trkpt><trkpt lat="44.8404167" lon="8.69105"><ele>115.0</ele><time>2026-04-28T07:56:41.309Z</time></trkpt><trkpt lat="44.840325" lon="8.6911383"><ele>115.0</ele><time>2026-04-28T07:56:42.309Z</time></trkpt><trkpt lat="44.840205" lon="8.69123"><ele>115.33333333333334</ele><time>2026-04-28T07:56:43.308Z</time></trkpt><trkpt lat="44.8400467" lon="8.6913067"><ele>115.66666666666666</ele><time>2026-04-28T07:56:44.309Z</time></trkpt><trkpt lat="44.8398833" lon="8.6913483"><ele>116.0</ele><time>2026-04-28T07:56:45.308Z</time></trkpt><trkpt lat="44.8397033" lon="8.6913767"><ele>116.0</ele><time>2026-04-28T07:56:46.309Z</time></trkpt><trkpt lat="44.8394917" lon="8.6914017"><ele>116.0</ele><time>2026-04-28T07:56:47.309Z</time></trkpt><trkpt lat="44.8392583" lon="8.6914317"><ele>116.0</ele><time>2026-04-28T07:56:48.309Z</time></trkpt><trkpt lat="44.8390367" lon="8.69145"><ele>116.33333333333333</ele><time>2026-04-28T07:56:49.308Z</time></trkpt><trkpt lat="44.8388317" lon="8.6914567"><ele>116.66666666666666</ele><time>2026-04-28T07:56:50.309Z</time></trkpt><trkpt lat="44.838625" lon="8.6914667"><ele>117.0</ele><time>2026-04-28T07:56:51.309Z</time></trkpt><trkpt lat="44.838425" lon="8.6914733"><ele>117.33333333333334</ele><time>2026-04-28T07:56:52.309Z</time></trkpt><trkpt lat="44.838235" lon="8.6914867"><ele>117.66666666666667</ele><time>2026-04-28T07:56:53.309Z</time></trkpt><trkpt lat="44.838045" lon="8.6914933"><ele>118.0</ele><time>2026-04-28T07:56:54.309Z</time></trkpt><trkpt lat="44.83785" lon="8.6915"><ele>118.0</ele><time>2026-04-28T07:56:55.309Z</time></trkpt><trkpt lat="44.83765" lon="8.691515"><ele>118.0</ele><time>2026-04-28T07:56:56.309Z</time></trkpt><trkpt lat="44.83745" lon="8.691525"><ele>118.0</ele><time>2026-04-28T07:56:57.309Z</time></trkpt><trkpt lat="44.8372567" lon="8.6915283"><ele>117.66666666666667</ele><time>2026-04-28T07:56:58.309Z</time></trkpt><trkpt lat="44.8370633" lon="8.6915483"><ele>117.33333333333334</ele><time>2026-04-28T07:56:59.309Z</time></trkpt><trkpt lat="44.836865" lon="8.6915567"><ele>117.0</ele><time>2026-04-28T07:57:00.308Z</time></trkpt><trkpt lat="44.8366667" lon="8.6915683"><ele>117.0</ele><time>2026-04-28T07:57:01.309Z</time></trkpt><trkpt lat="44.836465" lon="8.69158"><ele>117.0</ele><time>2026-04-28T07:57:02.309Z</time></trkpt><trkpt lat="44.83627" lon="8.6915883"><ele>117.0</ele><time>2026-04-28T07:57:03.309Z</time></trkpt><trkpt lat="44.8360867" lon="8.6916"><ele>117.66666666666666</ele><time>2026-04-28T07:57:04.309Z</time></trkpt><trkpt lat="44.8359117" lon="8.6916033"><ele>118.33333333333333</ele><time>2026-04-28T07:57:05.309Z</time></trkpt><trkpt lat="44.8357433" lon="8.6916067"><ele>119.0</ele><time>2026-04-28T07:57:06.308Z</time></trkpt><trkpt lat="44.835585" lon="8.691605"><ele>119.0</ele><time>2026-04-28T07:57:07.309Z</time></trkpt><trkpt lat="44.8354367" lon="8.6915917"><ele>119.0</ele><time>2026-04-28T07:57:08.309Z</time></trkpt><trkpt lat="44.83529" lon="8.6915617"><ele>119.0</ele><time>2026-04-28T07:57:09.308Z</time></trkpt><trkpt lat="44.835155" lon="8.6915117"><ele>119.0</ele><time>2026-04-28T07:57:10.309Z</time></trkpt><trkpt lat="44.8350267" lon="8.6914417"><ele>119.5</ele><time>2026-04-28T07:57:11.309Z</time></trkpt><trkpt lat="44.8348967" lon="8.6913517"><ele>120.0</ele><time>2026-04-28T07:57:12.309Z</time></trkpt><trkpt lat="44.83477" lon="8.6912433"><ele>120.5</ele><time>2026-04-28T07:57:13.309Z</time></trkpt><trkpt lat="44.8346517" lon="8.6911283"><ele>121.0</ele><time>2026-04-28T07:57:14.309Z</time></trkpt><trkpt lat="44.8345217" lon="8.690995"><ele>121.33333333333334</ele><time>2026-04-28T07:57:15.309Z</time></trkpt><trkpt lat="44.8343917" lon="8.6908617"><ele>121.66666666666666</ele><time>2026-04-28T07:57:16.309Z</time></trkpt><trkpt lat="44.8342567" lon="8.6907217"><ele>122.0</ele><time>2026-04-28T07:57:17.309Z</time></trkpt><trkpt lat="44.8341167" lon="8.690575"><ele>121.66666666666666</ele><time>2026-04-28T07:57:18.309Z</time></trkpt><trkpt lat="44.8339817" lon="8.6904283"><ele>121.33333333333334</ele><time>2026-04-28T07:57:19.309Z</time></trkpt><trkpt lat="44.833855" lon="8.6902933"><ele>121.0</ele><time>2026-04-28T07:57:20.309Z</time></trkpt><trkpt lat="44.8337317" lon="8.6901567"><ele>121.0</ele><time>2026-04-28T07:57:21.309Z</time></trkpt><trkpt lat="44.83362" lon="8.6900133"><ele>121.0</ele><time>2026-04-28T07:57:22.309Z</time></trkpt><trkpt lat="44.8335183" lon="8.68985"><ele>121.0</ele><time>2026-04-28T07:57:23.309Z</time></trkpt><trkpt lat="44.83343" lon="8.6896633"><ele>121.0</ele><time>2026-04-28T07:57:24.308Z</time></trkpt><trkpt lat="44.83336" lon="8.68946"><ele>121.0</ele><time>2026-04-28T07:57:25.309Z</time></trkpt><trkpt lat="44.83329" lon="8.6892283"><ele>121.0</ele><time>2026-04-28T07:57:26.309Z</time></trkpt><trkpt lat="44.8332333" lon="8.68897"><ele>121.0</ele><time>2026-04-28T07:57:27.309Z</time></trkpt><trkpt lat="44.83318" lon="8.68869"><ele>121.0</ele><time>2026-04-28T07:57:28.309Z</time></trkpt><trkpt lat="44.833125" lon="8.688385"><ele>121.0</ele><time>2026-04-28T07:57:29.309Z</time></trkpt><trkpt lat="44.8330467" lon="8.6880583"><ele>120.5</ele><time>2026-04-28T07:57:30.309Z</time></trkpt><trkpt lat="44.83298" lon="8.6877283"><ele>120.0</ele><time>2026-04-28T07:57:31.309Z</time></trkpt><trkpt lat="44.83292" lon="8.687425"><ele>120.0</ele><time>2026-04-28T07:57:32.308Z</time></trkpt><trkpt lat="44.8328633" lon="8.6871467"><ele>120.0</ele><time>2026-04-28T07:57:33.309Z</time></trkpt><trkpt lat="44.8328067" lon="8.6868733"><ele>120.0</ele><time>2026-04-28T07:57:34.308Z</time></trkpt><trkpt lat="44.832755" lon="8.6866"><ele>119.66666666666666</ele><time>2026-04-28T07:57:35.308Z</time></trkpt><trkpt lat="44.8327017" lon="8.6863317"><ele>119.33333333333333</ele><time>2026-04-28T07:57:36.309Z</time></trkpt><trkpt lat="44.8326467" lon="8.6860783"><ele>119.0</ele><time>2026-04-28T07:57:37.309Z</time></trkpt><trkpt lat="44.8326017" lon="8.685845"><ele>119.0</ele><time>2026-04-28T07:57:38.309Z</time></trkpt><trkpt lat="44.8325517" lon="8.68562"><ele>119.0</ele><time>2026-04-28T07:57:39.309Z</time></trkpt><trkpt lat="44.8324983" lon="8.6854017"><ele>119.0</ele><time>2026-04-28T07:57:40.309Z</time></trkpt><trkpt lat="44.8324417" lon="8.6851933"><ele>118.66666666666666</ele><time>2026-04-28T07:57:41.308Z</time></trkpt><trkpt lat="44.8323617" lon="8.68501"><ele>118.33333333333334</ele><time>2026-04-28T07:57:42.309Z</time></trkpt><trkpt lat="44.8322683" lon="8.68484"><ele>118.0</ele><time>2026-04-28T07:57:43.308Z</time></trkpt><trkpt lat="44.83216" lon="8.68469"><ele>118.0</ele><time>2026-04-28T07:57:44.309Z</time></trkpt><trkpt lat="44.832045" lon="8.684545"><ele>118.0</ele><time>2026-04-28T07:57:45.309Z</time></trkpt><trkpt lat="44.8319167" lon="8.684405"><ele>118.0</ele><time>2026-04-28T07:57:46.309Z</time></trkpt><trkpt lat="44.8317783" lon="8.68429"><ele>118.5</ele><time>2026-04-28T07:57:47.309Z</time></trkpt><trkpt lat="44.831485" lon="8.6841133"><ele>119.0</ele><time>2026-04-28T07:57:49.309Z</time></trkpt><trkpt lat="44.8313367" lon="8.6840517"><ele>119.0</ele><time>2026-04-28T07:57:50.309Z</time></trkpt><trkpt lat="44.83104" lon="8.68397"><ele>119.0</ele><time>2026-04-28T07:57:52.309Z</time></trkpt><trkpt lat="44.83089" lon="8.683955"><ele>118.66666666666666</ele><time>2026-04-28T07:57:53.309Z</time></trkpt><trkpt lat="44.83073" lon="8.6839383"><ele>118.33333333333334</ele><time>2026-04-28T07:57:54.309Z</time></trkpt><trkpt lat="44.830565" lon="8.6839233"><ele>118.0</ele><time>2026-04-28T07:57:55.309Z</time></trkpt><trkpt lat="44.8304017" lon="8.6839083"><ele>118.0</ele><time>2026-04-28T07:57:56.309Z</time></trkpt><trkpt lat="44.83024" lon="8.6839117"><ele>118.0</ele><time>2026-04-28T07:57:57.309Z</time></trkpt><trkpt lat="44.830055" lon="8.6838983"><ele>118.0</ele><time>2026-04-28T07:57:58.309Z</time></trkpt><trkpt lat="44.8296917" lon="8.6838717"><ele>118.33333333333334</ele><time>2026-04-28T07:58:00.309Z</time></trkpt><trkpt lat="44.8295083" lon="8.68386"><ele>118.66666666666666</ele><time>2026-04-28T07:58:01.309Z</time></trkpt><trkpt lat="44.8293333" lon="8.6838467"><ele>119.0</ele><time>2026-04-28T07:58:02.309Z</time></trkpt><trkpt lat="44.829155" lon="8.6838383"><ele>120.0</ele><time>2026-04-28T07:58:03.309Z</time></trkpt><trkpt lat="44.8289933" lon="8.68382"><ele>121.0</ele><time>2026-04-28T07:58:04.309Z</time></trkpt><trkpt lat="44.8286633" lon="8.6837483"><ele>121.0</ele><time>2026-04-28T07:58:06.309Z</time></trkpt><trkpt lat="44.8285117" lon="8.68369"><ele>121.0</ele><time>2026-04-28T07:58:07.309Z</time></trkpt><trkpt lat="44.82836" lon="8.6836183"><ele>121.0</ele><time>2026-04-28T07:58:08.309Z</time></trkpt><trkpt lat="44.8282133" lon="8.683535"><ele>122.0</ele><time>2026-04-28T07:58:09.309Z</time></trkpt><trkpt lat="44.827925" lon="8.6833433"><ele>123.0</ele><time>2026-04-28T07:58:11.309Z</time></trkpt><trkpt lat="44.8277833" lon="8.6832333"><ele>123.0</ele><time>2026-04-28T07:58:12.308Z</time></trkpt><trkpt lat="44.82764" lon="8.6831067"><ele>123.0</ele><time>2026-04-28T07:58:13.309Z</time></trkpt><trkpt lat="44.8274917" lon="8.682985"><ele>123.0</ele><time>2026-04-28T07:58:14.309Z</time></trkpt><trkpt lat="44.8273483" lon="8.6828583"><ele>123.33333333333334</ele><time>2026-04-28T07:58:15.309Z</time></trkpt><trkpt lat="44.8271983" lon="8.682725"><ele>123.66666666666667</ele><time>2026-04-28T07:58:16.309Z</time></trkpt><trkpt lat="44.8270533" lon="8.68259"><ele>124.0</ele><time>2026-04-28T07:58:17.309Z</time></trkpt><trkpt lat="44.826915" lon="8.682465"><ele>123.33333333333334</ele><time>2026-04-28T07:58:18.309Z</time></trkpt><trkpt lat="44.8267717" lon="8.6823417"><ele>122.66666666666666</ele><time>2026-04-28T07:58:19.308Z</time></trkpt><trkpt lat="44.8266367" lon="8.682215"><ele>122.0</ele><time>2026-04-28T07:58:20.309Z</time></trkpt><trkpt lat="44.8265133" lon="8.6820983"><ele>121.99999999999999</ele><time>2026-04-28T07:58:21.309Z</time></trkpt><trkpt lat="44.82641" lon="8.682"><ele>122.0</ele><time>2026-04-28T07:58:22.309Z</time></trkpt><trkpt lat="44.8263217" lon="8.6819133"><ele>122.0</ele><time>2026-04-28T07:58:23.309Z</time></trkpt><trkpt lat="44.8262617" lon="8.6818517"><ele>122.0</ele><time>2026-04-28T07:58:24.309Z</time></trkpt><trkpt lat="44.8262083" lon="8.68179"><ele>121.99999999999999</ele><time>2026-04-28T07:58:25.309Z</time></trkpt><trkpt lat="44.8261683" lon="8.6817033"><ele>122.0</ele><time>2026-04-28T07:58:26.309Z</time></trkpt><trkpt lat="44.8261283" lon="8.6816083"><ele>122.0</ele><time>2026-04-28T07:58:27.309Z</time></trkpt><trkpt lat="44.8260567" lon="8.6815517"><ele>122.0</ele><time>2026-04-28T07:58:28.309Z</time></trkpt><trkpt lat="44.825965" lon="8.68152"><ele>122.0</ele><time>2026-04-28T07:58:29.309Z</time></trkpt><trkpt lat="44.8258533" lon="8.68148"><ele>122.0</ele><time>2026-04-28T07:58:30.309Z</time></trkpt><trkpt lat="44.825705" lon="8.6813883"><ele>122.0</ele><time>2026-04-28T07:58:31.309Z</time></trkpt><trkpt lat="44.8255617" lon="8.68127"><ele>122.0</ele><time>2026-04-28T07:58:32.309Z</time></trkpt><trkpt lat="44.8254033" lon="8.6811267"><ele>122.0</ele><time>2026-04-28T07:58:33.308Z</time></trkpt><trkpt lat="44.8252533" lon="8.681"><ele>122.5</ele><time>2026-04-28T07:58:34.309Z</time></trkpt><trkpt lat="44.8251167" lon="8.6808883"><ele>123.0</ele><time>2026-04-28T07:58:35.309Z</time></trkpt><trkpt lat="44.8249933" lon="8.6807883"><ele>123.5</ele><time>2026-04-28T07:58:36.309Z</time></trkpt><trkpt lat="44.8248667" lon="8.6807"><ele>124.0</ele><time>2026-04-28T07:58:37.309Z</time></trkpt><trkpt lat="44.8247367" lon="8.68062"><ele>124.0</ele><time>2026-04-28T07:58:38.309Z</time></trkpt><trkpt lat="44.8246083" lon="8.68055"><ele>124.0</ele><time>2026-04-28T07:58:39.309Z</time></trkpt><trkpt lat="44.824475" lon="8.6804883"><ele>124.0</ele><time>2026-04-28T07:58:40.309Z</time></trkpt><trkpt lat="44.8243467" lon="8.6804283"><ele>124.0</ele><time>2026-04-28T07:58:41.309Z</time></trkpt><trkpt lat="44.82422" lon="8.68038"><ele>124.2</ele><time>2026-04-28T07:58:42.309Z</time></trkpt><trkpt lat="44.824105" lon="8.6803433"><ele>124.4</ele><time>2026-04-28T07:58:43.309Z</time></trkpt><trkpt lat="44.8240117" lon="8.68031"><ele>124.6</ele><time>2026-04-28T07:58:44.309Z</time></trkpt><trkpt lat="44.8239433" lon="8.680285"><ele>124.8</ele><time>2026-04-28T07:58:45.309Z</time></trkpt><trkpt lat="44.8238567" lon="8.6802733"><ele>125.0</ele><time>2026-04-28T07:58:47.309Z</time></trkpt><trkpt lat="44.823735" lon="8.6802667"><ele>124.5</ele><time>2026-04-28T07:59:35.309Z</time></trkpt><trkpt lat="44.8236217" lon="8.6802367"><ele>124.0</ele><time>2026-04-28T07:59:36.309Z</time></trkpt><trkpt lat="44.8234867" lon="8.6802033"><ele>123.5</ele><time>2026-04-28T07:59:37.309Z</time></trkpt><trkpt lat="44.82335" lon="8.68019"><ele>123.0</ele><time>2026-04-28T07:59:38.309Z</time></trkpt><trkpt lat="44.8231983" lon="8.6801833"><ele>123.0</ele><time>2026-04-28T07:59:39.308Z</time></trkpt><trkpt lat="44.823035" lon="8.6801883"><ele>123.0</ele><time>2026-04-28T07:59:40.309Z</time></trkpt><trkpt lat="44.8228683" lon="8.6802083"><ele>123.0</ele><time>2026-04-28T07:59:41.309Z</time></trkpt><trkpt lat="44.8227017" lon="8.6802433"><ele>123.0</ele><time>2026-04-28T07:59:42.309Z</time></trkpt><trkpt lat="44.8225333" lon="8.6803083"><ele>123.0</ele><time>2026-04-28T07:59:43.309Z</time></trkpt><trkpt lat="44.822365" lon="8.680395"><ele>123.0</ele><time>2026-04-28T07:59:44.309Z</time></trkpt><trkpt lat="44.8222033" lon="8.6804867"><ele>123.0</ele><time>2026-04-28T07:59:45.309Z</time></trkpt><trkpt lat="44.8220467" lon="8.68059"><ele>123.0</ele><time>2026-04-28T07:59:46.309Z</time></trkpt><trkpt lat="44.8218967" lon="8.68069"><ele>123.0</ele><time>2026-04-28T07:59:47.309Z</time></trkpt><trkpt lat="44.82175" lon="8.6807917"><ele>122.33333333333334</ele><time>2026-04-28T07:59:48.309Z</time></trkpt><trkpt lat="44.8216017" lon="8.680895"><ele>121.66666666666667</ele><time>2026-04-28T07:59:49.309Z</time></trkpt><trkpt lat="44.8214483" lon="8.680995"><ele>121.0</ele><time>2026-04-28T07:59:50.309Z</time></trkpt><trkpt lat="44.8212967" lon="8.6810967"><ele>121.0</ele><time>2026-04-28T07:59:51.309Z</time></trkpt><trkpt lat="44.8211467" lon="8.6811983"><ele>121.0</ele><time>2026-04-28T07:59:52.309Z</time></trkpt><trkpt lat="44.8209867" lon="8.6813133"><ele>121.0</ele><time>2026-04-28T07:59:53.309Z</time></trkpt><trkpt lat="44.82083" lon="8.6814233"><ele>121.33333333333334</ele><time>2026-04-28T07:59:54.309Z</time></trkpt><trkpt lat="44.8206783" lon="8.68154"><ele>121.66666666666666</ele><time>2026-04-28T07:59:55.309Z</time></trkpt><trkpt lat="44.820525" lon="8.6816567"><ele>122.0</ele><time>2026-04-28T07:59:56.309Z</time></trkpt><trkpt lat="44.820375" lon="8.68176"><ele>122.0</ele><time>2026-04-28T07:59:57.309Z</time></trkpt><trkpt lat="44.8202183" lon="8.681865"><ele>122.0</ele><time>2026-04-28T07:59:58.309Z</time></trkpt><trkpt lat="44.8200667" lon="8.6819617"><ele>122.0</ele><time>2026-04-28T07:59:59.309Z</time></trkpt><trkpt lat="44.81992" lon="8.6820517"><ele>122.5</ele><time>2026-04-28T08:00:00.309Z</time></trkpt><trkpt lat="44.8197767" lon="8.682145"><ele>123.0</ele><time>2026-04-28T08:00:01.309Z</time></trkpt><trkpt lat="44.8196417" lon="8.6822233"><ele>123.5</ele><time>2026-04-28T08:00:02.309Z</time></trkpt><trkpt lat="44.8195283" lon="8.6822933"><ele>124.0</ele><time>2026-04-28T08:00:03.308Z</time></trkpt><trkpt lat="44.81942" lon="8.6823533"><ele>124.0</ele><time>2026-04-28T08:00:04.309Z</time></trkpt><trkpt lat="44.8193233" lon="8.6823933"><ele>124.0</ele><time>2026-04-28T08:00:05.309Z</time></trkpt><trkpt lat="44.819235" lon="8.682465"><ele>124.0</ele><time>2026-04-28T08:00:06.309Z</time></trkpt><trkpt lat="44.8191367" lon="8.6825433"><ele>124.0</ele><time>2026-04-28T08:00:07.309Z</time></trkpt><trkpt lat="44.81903" lon="8.6826533"><ele>124.0</ele><time>2026-04-28T08:00:08.309Z</time></trkpt><trkpt lat="44.818905" lon="8.6827533"><ele>123.33333333333334</ele><time>2026-04-28T08:00:09.309Z</time></trkpt><trkpt lat="44.818765" lon="8.6828667"><ele>122.66666666666666</ele><time>2026-04-28T08:00:10.309Z</time></trkpt><trkpt lat="44.8186233" lon="8.6829767"><ele>122.0</ele><time>2026-04-28T08:00:11.309Z</time></trkpt><trkpt lat="44.8184867" lon="8.6830933"><ele>123.0</ele><time>2026-04-28T08:00:12.309Z</time></trkpt><trkpt lat="44.8183483" lon="8.6832217"><ele>124.0</ele><time>2026-04-28T08:00:13.309Z</time></trkpt><trkpt lat="44.8182067" lon="8.68336"><ele>125.0</ele><time>2026-04-28T08:00:14.309Z</time></trkpt><trkpt lat="44.8180633" lon="8.6835033"><ele>124.66666666666666</ele><time>2026-04-28T08:00:15.309Z</time></trkpt><trkpt lat="44.8179267" lon="8.6836533"><ele>124.33333333333334</ele><time>2026-04-28T08:00:16.309Z</time></trkpt><trkpt lat="44.8177867" lon="8.6837917"><ele>124.0</ele><time>2026-04-28T08:00:17.309Z</time></trkpt><trkpt lat="44.8176533" lon="8.683935"><ele>124.66666666666667</ele><time>2026-04-28T08:00:18.309Z</time></trkpt><trkpt lat="44.817525" lon="8.68408"><ele>125.33333333333334</ele><time>2026-04-28T08:00:19.309Z</time></trkpt><trkpt lat="44.8174033" lon="8.6842083"><ele>126.0</ele><time>2026-04-28T08:00:20.309Z</time></trkpt><trkpt lat="44.8172917" lon="8.68434"><ele>126.0</ele><time>2026-04-28T08:00:21.309Z</time></trkpt><trkpt lat="44.8171817" lon="8.6844567"><ele>126.0</ele><time>2026-04-28T08:00:22.309Z</time></trkpt><trkpt lat="44.8170617" lon="8.68458"><ele>126.0</ele><time>2026-04-28T08:00:23.309Z</time></trkpt><trkpt lat="44.8169517" lon="8.6847083"><ele>126.0</ele><time>2026-04-28T08:00:24.309Z</time></trkpt><trkpt lat="44.8168317" lon="8.684825"><ele>125.66666666666666</ele><time>2026-04-28T08:00:25.309Z</time></trkpt><trkpt lat="44.8167083" lon="8.6849467"><ele>125.33333333333333</ele><time>2026-04-28T08:00:26.308Z</time></trkpt><trkpt lat="44.8165833" lon="8.6850733"><ele>125.0</ele><time>2026-04-28T08:00:27.309Z</time></trkpt><trkpt lat="44.8164617" lon="8.68521"><ele>125.66666666666666</ele><time>2026-04-28T08:00:28.309Z</time></trkpt><trkpt lat="44.8163317" lon="8.68534"><ele>126.33333333333334</ele><time>2026-04-28T08:00:29.309Z</time></trkpt><trkpt lat="44.8161967" lon="8.6854767"><ele>127.0</ele><time>2026-04-28T08:00:30.309Z</time></trkpt><trkpt lat="44.8160567" lon="8.6856117"><ele>126.66666666666667</ele><time>2026-04-28T08:00:31.308Z</time></trkpt><trkpt lat="44.8159133" lon="8.68575"><ele>126.33333333333334</ele><time>2026-04-28T08:00:32.309Z</time></trkpt><trkpt lat="44.8157633" lon="8.6859"><ele>126.0</ele><time>2026-04-28T08:00:33.308Z</time></trkpt><trkpt lat="44.81562" lon="8.6860317"><ele>126.0</ele><time>2026-04-28T08:00:34.309Z</time></trkpt><trkpt lat="44.8154667" lon="8.68616"><ele>126.0</ele><time>2026-04-28T08:00:35.309Z</time></trkpt><trkpt lat="44.815275" lon="8.686275"><ele>126.0</ele><time>2026-04-28T08:00:36.309Z</time></trkpt><trkpt lat="44.81505" lon="8.6863917"><ele>125.0</ele><time>2026-04-28T08:00:37.309Z</time></trkpt><trkpt lat="44.8148133" lon="8.6864967"><ele>124.0</ele><time>2026-04-28T08:00:38.309Z</time></trkpt><trkpt lat="44.81459" lon="8.686595"><ele>124.0</ele><time>2026-04-28T08:00:39.309Z</time></trkpt><trkpt lat="44.8143733" lon="8.6866883"><ele>124.0</ele><time>2026-04-28T08:00:40.309Z</time></trkpt><trkpt lat="44.81417" lon="8.686775"><ele>124.0</ele><time>2026-04-28T08:00:41.309Z</time></trkpt><trkpt lat="44.813975" lon="8.68687"><ele>124.66666666666667</ele><time>2026-04-28T08:00:42.308Z</time></trkpt><trkpt lat="44.8137867" lon="8.68696"><ele>125.33333333333334</ele><time>2026-04-28T08:00:43.309Z</time></trkpt><trkpt lat="44.8135983" lon="8.68708"><ele>126.0</ele><time>2026-04-28T08:00:44.309Z</time></trkpt><trkpt lat="44.8134167" lon="8.68722"><ele>126.66666666666666</ele><time>2026-04-28T08:00:45.309Z</time></trkpt><trkpt lat="44.8132417" lon="8.6873683"><ele>127.33333333333333</ele><time>2026-04-28T08:00:46.309Z</time></trkpt><trkpt lat="44.8130617" lon="8.6875417"><ele>128.0</ele><time>2026-04-28T08:00:47.309Z</time></trkpt><trkpt lat="44.812865" lon="8.6877233"><ele>127.5</ele><time>2026-04-28T08:00:48.309Z</time></trkpt><trkpt lat="44.8126583" lon="8.6879117"><ele>127.0</ele><time>2026-04-28T08:00:49.309Z</time></trkpt><trkpt lat="44.8124333" lon="8.6881117"><ele>127.0</ele><time>2026-04-28T08:00:50.309Z</time></trkpt><trkpt lat="44.8122017" lon="8.6883233"><ele>127.0</ele><time>2026-04-28T08:00:51.309Z</time></trkpt><trkpt lat="44.8119683" lon="8.6885383"><ele>128.0</ele><time>2026-04-28T08:00:52.309Z</time></trkpt><trkpt lat="44.81174" lon="8.6887533"><ele>129.0</ele><time>2026-04-28T08:00:53.309Z</time></trkpt><trkpt lat="44.8115283" lon="8.6889633"><ele>129.0</ele><time>2026-04-28T08:00:54.309Z</time></trkpt><trkpt lat="44.8113333" lon="8.689175"><ele>129.0</ele><time>2026-04-28T08:00:55.309Z</time></trkpt><trkpt lat="44.81114" lon="8.6893883"><ele>128.5</ele><time>2026-04-28T08:00:56.309Z</time></trkpt><trkpt lat="44.810945" lon="8.6896083"><ele>128.0</ele><time>2026-04-28T08:00:57.309Z</time></trkpt><trkpt lat="44.8107617" lon="8.689825"><ele>128.0</ele><time>2026-04-28T08:00:58.309Z</time></trkpt><trkpt lat="44.8105867" lon="8.6900333"><ele>128.0</ele><time>2026-04-28T08:00:59.309Z</time></trkpt><trkpt lat="44.81041" lon="8.6902333"><ele>128.66666666666666</ele><time>2026-04-28T08:01:00.309Z</time></trkpt><trkpt lat="44.810245" lon="8.6904167"><ele>129.33333333333334</ele><time>2026-04-28T08:01:01.309Z</time></trkpt><trkpt lat="44.8100817" lon="8.6905967"><ele>130.0</ele><time>2026-04-28T08:01:02.309Z</time></trkpt><trkpt lat="44.8099167" lon="8.69077"><ele>130.0</ele><time>2026-04-28T08:01:03.309Z</time></trkpt><trkpt lat="44.8097517" lon="8.6909267"><ele>130.0</ele><time>2026-04-28T08:01:04.309Z</time></trkpt><trkpt lat="44.8095717" lon="8.691055"><ele>130.0</ele><time>2026-04-28T08:01:05.309Z</time></trkpt><trkpt lat="44.8093633" lon="8.6911667"><ele>131.0</ele><time>2026-04-28T08:01:06.309Z</time></trkpt><trkpt lat="44.8091467" lon="8.6912717"><ele>132.0</ele><time>2026-04-28T08:01:07.309Z</time></trkpt><trkpt lat="44.808905" lon="8.6913667"><ele>132.0</ele><time>2026-04-28T08:01:08.309Z</time></trkpt><trkpt lat="44.8086433" lon="8.6914533"><ele>132.0</ele><time>2026-04-28T08:01:09.309Z</time></trkpt><trkpt lat="44.8083783" lon="8.6915283"><ele>131.5</ele><time>2026-04-28T08:01:10.309Z</time></trkpt><trkpt lat="44.8081433" lon="8.6916"><ele>131.0</ele><time>2026-04-28T08:01:11.309Z</time></trkpt><trkpt lat="44.80791" lon="8.691675"><ele>131.0</ele><time>2026-04-28T08:01:12.309Z</time></trkpt><trkpt lat="44.8077083" lon="8.6917467"><ele>131.0</ele><time>2026-04-28T08:01:13.309Z</time></trkpt><trkpt lat="44.8075183" lon="8.6917933"><ele>131.0</ele><time>2026-04-28T08:01:14.309Z</time></trkpt><trkpt lat="44.8073333" lon="8.6918217"><ele>131.33333333333331</ele><time>2026-04-28T08:01:15.309Z</time></trkpt><trkpt lat="44.8071433" lon="8.69183"><ele>131.66666666666666</ele><time>2026-04-28T08:01:16.309Z</time></trkpt><trkpt lat="44.8069633" lon="8.6918283"><ele>132.0</ele><time>2026-04-28T08:01:17.309Z</time></trkpt><trkpt lat="44.806775" lon="8.6918117"><ele>132.33333333333334</ele><time>2026-04-28T08:01:18.309Z</time></trkpt><trkpt lat="44.8065817" lon="8.6917617"><ele>132.66666666666669</ele><time>2026-04-28T08:01:19.309Z</time></trkpt><trkpt lat="44.806385" lon="8.6916833"><ele>133.0</ele><time>2026-04-28T08:01:20.309Z</time></trkpt><trkpt lat="44.8061733" lon="8.691595"><ele>133.0</ele><time>2026-04-28T08:01:21.309Z</time></trkpt><trkpt lat="44.805945" lon="8.6915017"><ele>133.0</ele><time>2026-04-28T08:01:22.309Z</time></trkpt><trkpt lat="44.8057133" lon="8.6913917"><ele>133.0</ele><time>2026-04-28T08:01:23.309Z</time></trkpt><trkpt lat="44.8054483" lon="8.691285"><ele>133.0</ele><time>2026-04-28T08:01:24.309Z</time></trkpt><trkpt lat="44.8051883" lon="8.6911867"><ele>133.0</ele><time>2026-04-28T08:01:25.309Z</time></trkpt><trkpt lat="44.804945" lon="8.6910867"><ele>133.0</ele><time>2026-04-28T08:01:26.309Z</time></trkpt><trkpt lat="44.8047133" lon="8.6909967"><ele>133.0</ele><time>2026-04-28T08:01:27.309Z</time></trkpt><trkpt lat="44.8044783" lon="8.690905"><ele>133.0</ele><time>2026-04-28T08:01:28.309Z</time></trkpt><trkpt lat="44.80425" lon="8.6908233"><ele>132.5</ele><time>2026-04-28T08:01:29.309Z</time></trkpt><trkpt lat="44.8040133" lon="8.690745"><ele>132.0</ele><time>2026-04-28T08:01:30.309Z</time></trkpt><trkpt lat="44.8037717" lon="8.6906617"><ele>132.0</ele><time>2026-04-28T08:01:31.309Z</time></trkpt><trkpt lat="44.803535" lon="8.6905767"><ele>132.0</ele><time>2026-04-28T08:01:32.309Z</time></trkpt><trkpt lat="44.8033" lon="8.6904917"><ele>132.0</ele><time>2026-04-28T08:01:33.309Z</time></trkpt><trkpt lat="44.80306" lon="8.690405"><ele>132.0</ele><time>2026-04-28T08:01:34.309Z</time></trkpt><trkpt lat="44.8028267" lon="8.6903233"><ele>132.0</ele><time>2026-04-28T08:01:35.308Z</time></trkpt><trkpt lat="44.8025933" lon="8.6902433"><ele>132.0</ele><time>2026-04-28T08:01:36.309Z</time></trkpt><trkpt lat="44.8023633" lon="8.6901683"><ele>132.0</ele><time>2026-04-28T08:01:37.309Z</time></trkpt><trkpt lat="44.8021333" lon="8.690085"><ele>132.0</ele><time>2026-04-28T08:01:38.309Z</time></trkpt><trkpt lat="44.8019017" lon="8.6900083"><ele>132.0</ele><time>2026-04-28T08:01:39.309Z</time></trkpt><trkpt lat="44.801665" lon="8.6899317"><ele>132.0</ele><time>2026-04-28T08:01:40.309Z</time></trkpt><trkpt lat="44.8014267" lon="8.6898483"><ele>132.0</ele><time>2026-04-28T08:01:41.308Z</time></trkpt><trkpt lat="44.80117" lon="8.68976"><ele>132.0</ele><time>2026-04-28T08:01:42.309Z</time></trkpt><trkpt lat="44.8008933" lon="8.6896667"><ele>132.5</ele><time>2026-04-28T08:01:43.309Z</time></trkpt><trkpt lat="44.8005967" lon="8.68957"><ele>133.0</ele><time>2026-04-28T08:01:44.309Z</time></trkpt><trkpt lat="44.8003017" lon="8.6894717"><ele>133.5</ele><time>2026-04-28T08:01:45.309Z</time></trkpt><trkpt lat="44.8000217" lon="8.6893733"><ele>134.0</ele><time>2026-04-28T08:01:46.309Z</time></trkpt><trkpt lat="44.7997583" lon="8.6892783"><ele>134.0</ele><time>2026-04-28T08:01:47.309Z</time></trkpt><trkpt lat="44.7995017" lon="8.6891917"><ele>134.0</ele><time>2026-04-28T08:01:48.309Z</time></trkpt><trkpt lat="44.79926" lon="8.6891083"><ele>133.5</ele><time>2026-04-28T08:01:49.309Z</time></trkpt><trkpt lat="44.7990217" lon="8.689025"><ele>133.0</ele><time>2026-04-28T08:01:50.309Z</time></trkpt><trkpt lat="44.7987833" lon="8.6889467"><ele>133.0</ele><time>2026-04-28T08:01:51.309Z</time></trkpt><trkpt lat="44.7985533" lon="8.6888633"><ele>133.0</ele><time>2026-04-28T08:01:52.309Z</time></trkpt><trkpt lat="44.7983267" lon="8.6887883"><ele>133.0</ele><time>2026-04-28T08:01:53.309Z</time></trkpt><trkpt lat="44.798105" lon="8.6887167"><ele>133.0</ele><time>2026-04-28T08:01:54.309Z</time></trkpt><trkpt lat="44.7978917" lon="8.6886467"><ele>133.0</ele><time>2026-04-28T08:01:55.309Z</time></trkpt><trkpt lat="44.797675" lon="8.6885817"><ele>133.66666666666669</ele><time>2026-04-28T08:01:56.308Z</time></trkpt><trkpt lat="44.797465" lon="8.688515"><ele>134.33333333333334</ele><time>2026-04-28T08:01:57.309Z</time></trkpt><trkpt lat="44.7972583" lon="8.6884483"><ele>135.0</ele><time>2026-04-28T08:01:58.309Z</time></trkpt><trkpt lat="44.797055" lon="8.68838"><ele>135.0</ele><time>2026-04-28T08:01:59.309Z</time></trkpt><trkpt lat="44.7968533" lon="8.68832"><ele>135.0</ele><time>2026-04-28T08:02:00.309Z</time></trkpt><trkpt lat="44.7966583" lon="8.6882583"><ele>135.0</ele><time>2026-04-28T08:02:01.309Z</time></trkpt><trkpt lat="44.7964517" lon="8.6881933"><ele>134.66666666666666</ele><time>2026-04-28T08:02:02.309Z</time></trkpt><trkpt lat="44.7962583" lon="8.6881283"><ele>134.33333333333331</ele><time>2026-04-28T08:02:03.309Z</time></trkpt><trkpt lat="44.7960567" lon="8.6880633"><ele>134.0</ele><time>2026-04-28T08:02:04.308Z</time></trkpt><trkpt lat="44.7958517" lon="8.6879933"><ele>134.66666666666666</ele><time>2026-04-28T08:02:05.308Z</time></trkpt><trkpt lat="44.7956517" lon="8.6879267"><ele>135.33333333333334</ele><time>2026-04-28T08:02:06.309Z</time></trkpt><trkpt lat="44.7954467" lon="8.6878617"><ele>136.0</ele><time>2026-04-28T08:02:07.309Z</time></trkpt><trkpt lat="44.79525" lon="8.68779"><ele>135.0</ele><time>2026-04-28T08:02:08.309Z</time></trkpt><trkpt lat="44.7950633" lon="8.6877217"><ele>134.0</ele><time>2026-04-28T08:02:09.309Z</time></trkpt><trkpt lat="44.7948717" lon="8.6876583"><ele>133.0</ele><time>2026-04-28T08:02:10.309Z</time></trkpt><trkpt lat="44.7946917" lon="8.6876067"><ele>133.0</ele><time>2026-04-28T08:02:11.308Z</time></trkpt><trkpt lat="44.7945183" lon="8.687565"><ele>133.0</ele><time>2026-04-28T08:02:12.309Z</time></trkpt><trkpt lat="44.794325" lon="8.687555"><ele>133.0</ele><time>2026-04-28T08:02:13.309Z</time></trkpt><trkpt lat="44.7941267" lon="8.6875633"><ele>131.33333333333334</ele><time>2026-04-28T08:02:14.308Z</time></trkpt><trkpt lat="44.793915" lon="8.6875967"><ele>129.66666666666666</ele><time>2026-04-28T08:02:15.309Z</time></trkpt><trkpt lat="44.79369" lon="8.687635"><ele>128.0</ele><time>2026-04-28T08:02:16.309Z</time></trkpt><trkpt lat="44.79345" lon="8.6876717"><ele>126.5</ele><time>2026-04-28T08:02:17.308Z</time></trkpt><trkpt lat="44.7932183" lon="8.687705"><ele>125.0</ele><time>2026-04-28T08:02:18.309Z</time></trkpt><trkpt lat="44.7929883" lon="8.6877433"><ele>125.0</ele><time>2026-04-28T08:02:19.309Z</time></trkpt><trkpt lat="44.7927683" lon="8.6877767"><ele>125.0</ele><time>2026-04-28T08:02:20.309Z</time></trkpt><trkpt lat="44.7925533" lon="8.6878267"><ele>125.0</ele><time>2026-04-28T08:02:21.309Z</time></trkpt><trkpt lat="44.7923383" lon="8.6878683"><ele>125.0</ele><time>2026-04-28T08:02:22.308Z</time></trkpt><trkpt lat="44.7921267" lon="8.6879217"><ele>125.0</ele><time>2026-04-28T08:02:23.309Z</time></trkpt><trkpt lat="44.79192" lon="8.68797"><ele>125.0</ele><time>2026-04-28T08:02:24.309Z</time></trkpt><trkpt lat="44.7917267" lon="8.688"><ele>125.33333333333333</ele><time>2026-04-28T08:02:25.308Z</time></trkpt><trkpt lat="44.7915417" lon="8.6880133"><ele>125.66666666666666</ele><time>2026-04-28T08:02:26.309Z</time></trkpt><trkpt lat="44.7913733" lon="8.6879983"><ele>126.0</ele><time>2026-04-28T08:02:27.309Z</time></trkpt><trkpt lat="44.7912083" lon="8.6879467"><ele>126.0</ele><time>2026-04-28T08:02:28.309Z</time></trkpt><trkpt lat="44.7910517" lon="8.6878867"><ele>126.0</ele><time>2026-04-28T08:02:29.308Z</time></trkpt><trkpt lat="44.7909033" lon="8.68782"><ele>126.0</ele><time>2026-04-28T08:02:30.309Z</time></trkpt><trkpt lat="44.7907533" lon="8.6877833"><ele>128.0</ele><time>2026-04-28T08:02:31.309Z</time></trkpt><trkpt lat="44.790615" lon="8.6878033"><ele>130.0</ele><time>2026-04-28T08:02:32.309Z</time></trkpt><trkpt lat="44.7904817" lon="8.6878683"><ele>132.0</ele><time>2026-04-28T08:02:33.308Z</time></trkpt><trkpt lat="44.7903467" lon="8.6879583"><ele>134.0</ele><time>2026-04-28T08:02:34.309Z</time></trkpt><trkpt lat="44.7902" lon="8.6880567"><ele>134.66666666666666</ele><time>2026-04-28T08:02:35.309Z</time></trkpt><trkpt lat="44.790045" lon="8.6881633"><ele>135.33333333333334</ele><time>2026-04-28T08:02:36.309Z</time></trkpt><trkpt lat="44.7898683" lon="8.68828"><ele>136.0</ele><time>2026-04-28T08:02:37.309Z</time></trkpt><trkpt lat="44.7896833" lon="8.6884017"><ele>136.0</ele><time>2026-04-28T08:02:38.309Z</time></trkpt><trkpt lat="44.78947" lon="8.6885117"><ele>136.0</ele><time>2026-04-28T08:02:39.309Z</time></trkpt><trkpt lat="44.7892683" lon="8.68863"><ele>136.0</ele><time>2026-04-28T08:02:40.309Z</time></trkpt><trkpt lat="44.7890633" lon="8.6887533"><ele>137.66666666666669</ele><time>2026-04-28T08:02:41.309Z</time></trkpt><trkpt lat="44.7888733" lon="8.6888717"><ele>139.33333333333334</ele><time>2026-04-28T08:02:42.309Z</time></trkpt><trkpt lat="44.7887" lon="8.6889783"><ele>141.0</ele><time>2026-04-28T08:02:43.309Z</time></trkpt><trkpt lat="44.7885317" lon="8.6890767"><ele>140.33333333333334</ele><time>2026-04-28T08:02:44.309Z</time></trkpt><trkpt lat="44.788365" lon="8.6891767"><ele>139.66666666666669</ele><time>2026-04-28T08:02:45.309Z</time></trkpt><trkpt lat="44.78819" lon="8.6892717"><ele>139.0</ele><time>2026-04-28T08:02:46.309Z</time></trkpt><trkpt lat="44.7880083" lon="8.6893667"><ele>139.0</ele><time>2026-04-28T08:02:47.309Z</time></trkpt><trkpt lat="44.78782" lon="8.6894583"><ele>139.0</ele><time>2026-04-28T08:02:48.309Z</time></trkpt><trkpt lat="44.7876317" lon="8.6895383"><ele>139.0</ele><time>2026-04-28T08:02:49.309Z</time></trkpt><trkpt lat="44.787445" lon="8.6896083"><ele>139.0</ele><time>2026-04-28T08:02:50.309Z</time></trkpt><trkpt lat="44.78727" lon="8.6896717"><ele>139.0</ele><time>2026-04-28T08:02:51.308Z</time></trkpt><trkpt lat="44.7871" lon="8.6897167"><ele>139.0</ele><time>2026-04-28T08:02:52.308Z</time></trkpt><trkpt lat="44.7869167" lon="8.6897483"><ele>139.33333333333334</ele><time>2026-04-28T08:02:53.309Z</time></trkpt><trkpt lat="44.7867383" lon="8.6897517"><ele>139.66666666666666</ele><time>2026-04-28T08:02:54.309Z</time></trkpt><trkpt lat="44.7865783" lon="8.6897217"><ele>140.0</ele><time>2026-04-28T08:02:55.309Z</time></trkpt><trkpt lat="44.786425" lon="8.6896567"><ele>140.0</ele><time>2026-04-28T08:02:56.309Z</time></trkpt><trkpt lat="44.78627" lon="8.6895633"><ele>140.0</ele><time>2026-04-28T08:02:57.309Z</time></trkpt><trkpt lat="44.7861167" lon="8.6894767"><ele>140.0</ele><time>2026-04-28T08:02:58.309Z</time></trkpt><trkpt lat="44.7859617" lon="8.68939"><ele>141.0</ele><time>2026-04-28T08:02:59.309Z</time></trkpt><trkpt lat="44.7858017" lon="8.6893"><ele>142.0</ele><time>2026-04-28T08:03:00.309Z</time></trkpt><trkpt lat="44.785645" lon="8.6892233"><ele>143.0</ele><time>2026-04-28T08:03:01.309Z</time></trkpt><trkpt lat="44.7854933" lon="8.6891633"><ele>143.0</ele><time>2026-04-28T08:03:02.309Z</time></trkpt><trkpt lat="44.7853433" lon="8.6891167"><ele>143.0</ele><time>2026-04-28T08:03:03.309Z</time></trkpt><trkpt lat="44.7851917" lon="8.6890967"><ele>143.0</ele><time>2026-04-28T08:03:04.309Z</time></trkpt><trkpt lat="44.7850717" lon="8.68911"><ele>143.0</ele><time>2026-04-28T08:03:05.309Z</time></trkpt><trkpt lat="44.784945" lon="8.6891283"><ele>143.25</ele><time>2026-04-28T08:03:06.309Z</time></trkpt><trkpt lat="44.7848283" lon="8.6891867"><ele>143.5</ele><time>2026-04-28T08:03:07.309Z</time></trkpt><trkpt lat="44.7847133" lon="8.6892617"><ele>143.75</ele><time>2026-04-28T08:03:08.309Z</time></trkpt><trkpt lat="44.78459" lon="8.68935"><ele>144.0</ele><time>2026-04-28T08:03:09.308Z</time></trkpt><trkpt lat="44.784475" lon="8.6894317"><ele>144.0</ele><time>2026-04-28T08:03:10.309Z</time></trkpt><trkpt lat="44.7843583" lon="8.6895133"><ele>144.0</ele><time>2026-04-28T08:03:11.309Z</time></trkpt><trkpt lat="44.78425" lon="8.68959"><ele>144.0</ele><time>2026-04-28T08:03:12.309Z</time></trkpt><trkpt lat="44.7841083" lon="8.68961"><ele>144.0</ele><time>2026-04-28T08:03:13.309Z</time></trkpt><trkpt lat="44.7839883" lon="8.6896433"><ele>143.75</ele><time>2026-04-28T08:03:14.309Z</time></trkpt><trkpt lat="44.7838433" lon="8.6896517"><ele>143.5</ele><time>2026-04-28T08:03:15.309Z</time></trkpt><trkpt lat="44.78371" lon="8.689635"><ele>143.25</ele><time>2026-04-28T08:03:16.308Z</time></trkpt><trkpt lat="44.7835817" lon="8.689655"><ele>143.0</ele><time>2026-04-28T08:03:17.309Z</time></trkpt><trkpt lat="44.783455" lon="8.689665"><ele>143.0</ele><time>2026-04-28T08:03:18.309Z</time></trkpt><trkpt lat="44.78334" lon="8.6897167"><ele>143.0</ele><time>2026-04-28T08:03:19.309Z</time></trkpt><trkpt lat="44.78322" lon="8.68977"><ele>143.0</ele><time>2026-04-28T08:03:20.309Z</time></trkpt><trkpt lat="44.7830833" lon="8.6898267"><ele>143.0</ele><time>2026-04-28T08:03:21.309Z</time></trkpt><trkpt lat="44.7829417" lon="8.68988"><ele>143.0</ele><time>2026-04-28T08:03:22.309Z</time></trkpt><trkpt lat="44.7828017" lon="8.6899317"><ele>143.0</ele><time>2026-04-28T08:03:23.309Z</time></trkpt><trkpt lat="44.7826483" lon="8.689995"><ele>143.0</ele><time>2026-04-28T08:03:24.309Z</time></trkpt><trkpt lat="44.7824967" lon="8.6900667"><ele>143.5</ele><time>2026-04-28T08:03:25.309Z</time></trkpt><trkpt lat="44.7823617" lon="8.690155"><ele>144.0</ele><time>2026-04-28T08:03:26.309Z</time></trkpt><trkpt lat="44.782225" lon="8.69023"><ele>144.5</ele><time>2026-04-28T08:03:27.309Z</time></trkpt><trkpt lat="44.7820833" lon="8.6903"><ele>145.0</ele><time>2026-04-28T08:03:28.309Z</time></trkpt><trkpt lat="44.7819467" lon="8.690365"><ele>145.25</ele><time>2026-04-28T08:03:29.309Z</time></trkpt><trkpt lat="44.781815" lon="8.6904333"><ele>145.5</ele><time>2026-04-28T08:03:30.309Z</time></trkpt><trkpt lat="44.7816917" lon="8.6904833"><ele>145.75</ele><time>2026-04-28T08:03:31.309Z</time></trkpt><trkpt lat="44.7815833" lon="8.69055"><ele>146.0</ele><time>2026-04-28T08:03:32.309Z</time></trkpt><trkpt lat="44.7814817" lon="8.6906383"><ele>146.0</ele><time>2026-04-28T08:03:33.309Z</time></trkpt><trkpt lat="44.78143" lon="8.6907867"><ele>146.0</ele><time>2026-04-28T08:03:34.309Z</time></trkpt><trkpt lat="44.78134" lon="8.6909117"><ele>146.0</ele><time>2026-04-28T08:03:35.309Z</time></trkpt><trkpt lat="44.7812583" lon="8.6910767"><ele>146.0</ele><time>2026-04-28T08:03:36.309Z</time></trkpt><trkpt lat="44.7811817" lon="8.6912583"><ele>145.66666666666666</ele><time>2026-04-28T08:03:37.309Z</time></trkpt><trkpt lat="44.7810933" lon="8.6914517"><ele>145.33333333333334</ele><time>2026-04-28T08:03:38.308Z</time></trkpt><trkpt lat="44.7809967" lon="8.691645"><ele>145.0</ele><time>2026-04-28T08:03:39.309Z</time></trkpt><trkpt lat="44.780895" lon="8.6918483"><ele>145.0</ele><time>2026-04-28T08:03:40.309Z</time></trkpt><trkpt lat="44.780795" lon="8.6920583"><ele>145.0</ele><time>2026-04-28T08:03:41.309Z</time></trkpt><trkpt lat="44.7806917" lon="8.69228"><ele>145.0</ele><time>2026-04-28T08:03:42.309Z</time></trkpt><trkpt lat="44.7805917" lon="8.692505"><ele>145.0</ele><time>2026-04-28T08:03:43.309Z</time></trkpt><trkpt lat="44.78048" lon="8.6927317"><ele>145.0</ele><time>2026-04-28T08:03:44.309Z</time></trkpt><trkpt lat="44.780375" lon="8.6929383"><ele>145.0</ele><time>2026-04-28T08:03:45.309Z</time></trkpt><trkpt lat="44.7802667" lon="8.69313"><ele>145.0</ele><time>2026-04-28T08:03:46.309Z</time></trkpt><trkpt lat="44.78015" lon="8.6933067"><ele>145.0</ele><time>2026-04-28T08:03:47.309Z</time></trkpt><trkpt lat="44.7800233" lon="8.693465"><ele>145.0</ele><time>2026-04-28T08:03:48.309Z</time></trkpt><trkpt lat="44.7798833" lon="8.6936"><ele>145.0</ele><time>2026-04-28T08:03:49.309Z</time></trkpt><trkpt lat="44.7797367" lon="8.69373"><ele>145.0</ele><time>2026-04-28T08:03:50.309Z</time></trkpt><trkpt lat="44.7795767" lon="8.693865"><ele>145.0</ele><time>2026-04-28T08:03:51.309Z</time></trkpt><trkpt lat="44.7794017" lon="8.6940117"><ele>146.33333333333334</ele><time>2026-04-28T08:03:52.308Z</time></trkpt><trkpt lat="44.7792183" lon="8.69416"><ele>147.66666666666666</ele><time>2026-04-28T08:03:53.309Z</time></trkpt><trkpt lat="44.77905" lon="8.6942933"><ele>149.0</ele><time>2026-04-28T08:03:54.308Z</time></trkpt><trkpt lat="44.7788833" lon="8.6944117"><ele>148.33333333333331</ele><time>2026-04-28T08:03:55.309Z</time></trkpt><trkpt lat="44.7787067" lon="8.694505"><ele>147.66666666666666</ele><time>2026-04-28T08:03:56.308Z</time></trkpt><trkpt lat="44.7785183" lon="8.694585"><ele>147.0</ele><time>2026-04-28T08:03:57.309Z</time></trkpt><trkpt lat="44.7783117" lon="8.6946583"><ele>146.5</ele><time>2026-04-28T08:03:58.308Z</time></trkpt><trkpt lat="44.7780883" lon="8.694735"><ele>146.0</ele><time>2026-04-28T08:03:59.309Z</time></trkpt><trkpt lat="44.7778617" lon="8.6948183"><ele>146.5</ele><time>2026-04-28T08:04:00.309Z</time></trkpt><trkpt lat="44.7776333" lon="8.6949"><ele>147.0</ele><time>2026-04-28T08:04:01.309Z</time></trkpt><trkpt lat="44.777425" lon="8.694985"><ele>147.0</ele><time>2026-04-28T08:04:02.309Z</time></trkpt><trkpt lat="44.7772317" lon="8.6950717"><ele>147.0</ele><time>2026-04-28T08:04:03.309Z</time></trkpt><trkpt lat="44.7770417" lon="8.69516"><ele>147.0</ele><time>2026-04-28T08:04:04.309Z</time></trkpt><trkpt lat="44.77685" lon="8.69525"><ele>147.33333333333334</ele><time>2026-04-28T08:04:05.309Z</time></trkpt><trkpt lat="44.77666" lon="8.6953333"><ele>147.66666666666669</ele><time>2026-04-28T08:04:06.309Z</time></trkpt><trkpt lat="44.7764617" lon="8.695425"><ele>148.0</ele><time>2026-04-28T08:04:07.309Z</time></trkpt><trkpt lat="44.776245" lon="8.6955217"><ele>148.0</ele><time>2026-04-28T08:04:08.309Z</time></trkpt><trkpt lat="44.7760267" lon="8.6956283"><ele>148.0</ele><time>2026-04-28T08:04:09.309Z</time></trkpt><trkpt lat="44.775825" lon="8.6957217"><ele>148.0</ele><time>2026-04-28T08:04:10.309Z</time></trkpt><trkpt lat="44.775635" lon="8.6958167"><ele>147.66666666666669</ele><time>2026-04-28T08:04:11.309Z</time></trkpt><trkpt lat="44.775465" lon="8.69592"><ele>147.33333333333334</ele><time>2026-04-28T08:04:12.309Z</time></trkpt><trkpt lat="44.7752883" lon="8.6960167"><ele>147.0</ele><time>2026-04-28T08:04:13.309Z</time></trkpt><trkpt lat="44.7751167" lon="8.6961033"><ele>146.33333333333334</ele><time>2026-04-28T08:04:14.308Z</time></trkpt><trkpt lat="44.77494" lon="8.696195"><ele>145.66666666666669</ele><time>2026-04-28T08:04:15.309Z</time></trkpt><trkpt lat="44.774755" lon="8.696285"><ele>145.0</ele><time>2026-04-28T08:04:16.309Z</time></trkpt><trkpt lat="44.77458" lon="8.6963883"><ele>145.0</ele><time>2026-04-28T08:04:17.309Z</time></trkpt><trkpt lat="44.77441" lon="8.6965033"><ele>145.0</ele><time>2026-04-28T08:04:18.309Z</time></trkpt><trkpt lat="44.7742433" lon="8.69662"><ele>145.0</ele><time>2026-04-28T08:04:19.309Z</time></trkpt><trkpt lat="44.7740817" lon="8.6967267"><ele>145.33333333333334</ele><time>2026-04-28T08:04:20.309Z</time></trkpt><trkpt lat="44.7739083" lon="8.69684"><ele>145.66666666666666</ele><time>2026-04-28T08:04:21.309Z</time></trkpt><trkpt lat="44.77373" lon="8.696935"><ele>146.0</ele><time>2026-04-28T08:04:22.309Z</time></trkpt><trkpt lat="44.7735367" lon="8.6970117"><ele>146.0</ele><time>2026-04-28T08:04:23.309Z</time></trkpt><trkpt lat="44.77334" lon="8.6970583"><ele>146.0</ele><time>2026-04-28T08:04:24.309Z</time></trkpt><trkpt lat="44.7731283" lon="8.6970983"><ele>146.0</ele><time>2026-04-28T08:04:25.309Z</time></trkpt><trkpt lat="44.772905" lon="8.6971383"><ele>146.0</ele><time>2026-04-28T08:04:26.309Z</time></trkpt><trkpt lat="44.772695" lon="8.6971917"><ele>146.0</ele><time>2026-04-28T08:04:27.309Z</time></trkpt><trkpt lat="44.7724867" lon="8.69724"><ele>146.0</ele><time>2026-04-28T08:04:28.309Z</time></trkpt><trkpt lat="44.7722917" lon="8.6972917"><ele>145.66666666666666</ele><time>2026-04-28T08:04:29.308Z</time></trkpt><trkpt lat="44.7720917" lon="8.6973617"><ele>145.33333333333334</ele><time>2026-04-28T08:04:30.309Z</time></trkpt><trkpt lat="44.7718967" lon="8.6974483"><ele>145.0</ele><time>2026-04-28T08:04:31.309Z</time></trkpt><trkpt lat="44.7717067" lon="8.69755"><ele>144.66666666666669</ele><time>2026-04-28T08:04:32.309Z</time></trkpt><trkpt lat="44.771515" lon="8.697665"><ele>144.33333333333334</ele><time>2026-04-28T08:04:33.309Z</time></trkpt><trkpt lat="44.7713183" lon="8.6977833"><ele>144.0</ele><time>2026-04-28T08:04:34.309Z</time></trkpt><trkpt lat="44.7711167" lon="8.6979183"><ele>143.66666666666666</ele><time>2026-04-28T08:04:35.308Z</time></trkpt><trkpt lat="44.7709383" lon="8.6980517"><ele>143.33333333333331</ele><time>2026-04-28T08:04:36.309Z</time></trkpt><trkpt lat="44.7707667" lon="8.6981833"><ele>143.0</ele><time>2026-04-28T08:04:37.309Z</time></trkpt><trkpt lat="44.7706" lon="8.6983267"><ele>143.0</ele><time>2026-04-28T08:04:38.309Z</time></trkpt><trkpt lat="44.7704367" lon="8.698475"><ele>143.0</ele><time>2026-04-28T08:04:39.309Z</time></trkpt><trkpt lat="44.7702783" lon="8.6986183"><ele>143.0</ele><time>2026-04-28T08:04:40.308Z</time></trkpt><trkpt lat="44.7701383" lon="8.6987583"><ele>143.33333333333331</ele><time>2026-04-28T08:04:41.309Z</time></trkpt><trkpt lat="44.7700167" lon="8.6989133"><ele>143.66666666666666</ele><time>2026-04-28T08:04:42.309Z</time></trkpt><trkpt lat="44.7699033" lon="8.699085"><ele>144.0</ele><time>2026-04-28T08:04:43.309Z</time></trkpt><trkpt lat="44.7697983" lon="8.6992567"><ele>144.33333333333334</ele><time>2026-04-28T08:04:44.309Z</time></trkpt><trkpt lat="44.7697083" lon="8.699435"><ele>144.66666666666669</ele><time>2026-04-28T08:04:45.309Z</time></trkpt><trkpt lat="44.7696133" lon="8.6996283"><ele>145.0</ele><time>2026-04-28T08:04:46.309Z</time></trkpt><trkpt lat="44.7695167" lon="8.6998217"><ele>145.0</ele><time>2026-04-28T08:04:47.309Z</time></trkpt><trkpt lat="44.7694333" lon="8.70003"><ele>145.0</ele><time>2026-04-28T08:04:48.308Z</time></trkpt><trkpt lat="44.76936" lon="8.70025"><ele>145.0</ele><time>2026-04-28T08:04:49.309Z</time></trkpt><trkpt lat="44.76931" lon="8.70047"><ele>145.25</ele><time>2026-04-28T08:04:50.309Z</time></trkpt><trkpt lat="44.7692617" lon="8.70067"><ele>145.5</ele><time>2026-04-28T08:04:51.309Z</time></trkpt><trkpt lat="44.7692333" lon="8.7008583"><ele>145.75</ele><time>2026-04-28T08:04:52.309Z</time></trkpt><trkpt lat="44.769215" lon="8.7010367"><ele>146.0</ele><time>2026-04-28T08:04:53.309Z</time></trkpt><trkpt lat="44.7691883" lon="8.7011617"><ele>146.2</ele><time>2026-04-28T08:04:54.309Z</time></trkpt><trkpt lat="44.76916" lon="8.7012483"><ele>146.39999999999998</ele><time>2026-04-28T08:04:55.309Z</time></trkpt><trkpt lat="44.7691083" lon="8.70136"><ele>146.6</ele><time>2026-04-28T08:04:57.309Z</time></trkpt><trkpt lat="44.7690867" lon="8.701555"><ele>146.79999999999998</ele><time>2026-04-28T08:04:59.309Z</time></trkpt><trkpt lat="44.769105" lon="8.7017367"><ele>147.0</ele><time>2026-04-28T08:05:00.309Z</time></trkpt><trkpt lat="44.7691333" lon="8.701975"><ele>147.0</ele><time>2026-04-28T08:05:01.309Z</time></trkpt><trkpt lat="44.7691733" lon="8.7022317"><ele>147.0</ele><time>2026-04-28T08:05:02.308Z</time></trkpt><trkpt lat="44.769205" lon="8.702475"><ele>147.0</ele><time>2026-04-28T08:05:03.309Z</time></trkpt><trkpt lat="44.7692383" lon="8.7027"><ele>147.0</ele><time>2026-04-28T08:05:04.309Z</time></trkpt><trkpt lat="44.76927" lon="8.702905"><ele>147.0</ele><time>2026-04-28T08:05:05.309Z</time></trkpt><trkpt lat="44.7692867" lon="8.7031167"><ele>147.0</ele><time>2026-04-28T08:05:06.309Z</time></trkpt><trkpt lat="44.769305" lon="8.7033267"><ele>147.0</ele><time>2026-04-28T08:05:07.308Z</time></trkpt><trkpt lat="44.7693267" lon="8.7035333"><ele>147.0</ele><time>2026-04-28T08:05:08.309Z</time></trkpt><trkpt lat="44.7693567" lon="8.70374"><ele>147.0</ele><time>2026-04-28T08:05:09.309Z</time></trkpt><trkpt lat="44.76938" lon="8.7039617"><ele>147.66666666666666</ele><time>2026-04-28T08:05:10.309Z</time></trkpt><trkpt lat="44.7694" lon="8.70417"><ele>148.33333333333331</ele><time>2026-04-28T08:05:11.308Z</time></trkpt><trkpt lat="44.769415" lon="8.7043833"><ele>149.0</ele><time>2026-04-28T08:05:12.309Z</time></trkpt><trkpt lat="44.7694333" lon="8.7046017"><ele>149.33333333333331</ele><time>2026-04-28T08:05:13.309Z</time></trkpt><trkpt lat="44.7694367" lon="8.7048133"><ele>149.66666666666666</ele><time>2026-04-28T08:05:14.309Z</time></trkpt><trkpt lat="44.7694167" lon="8.705025"><ele>150.0</ele><time>2026-04-28T08:05:15.309Z</time></trkpt><trkpt lat="44.7694017" lon="8.705235"><ele>149.75</ele><time>2026-04-28T08:05:16.309Z</time></trkpt><trkpt lat="44.7693683" lon="8.7054383"><ele>149.5</ele><time>2026-04-28T08:05:17.309Z</time></trkpt><trkpt lat="44.76932" lon="8.7056217"><ele>149.25</ele><time>2026-04-28T08:05:18.309Z</time></trkpt><trkpt lat="44.76926" lon="8.7058117"><ele>149.0</ele><time>2026-04-28T08:05:19.309Z</time></trkpt><trkpt lat="44.7691967" lon="8.7060017"><ele>149.66666666666666</ele><time>2026-04-28T08:05:20.309Z</time></trkpt><trkpt lat="44.7691183" lon="8.7061933"><ele>150.33333333333334</ele><time>2026-04-28T08:05:21.309Z</time></trkpt><trkpt lat="44.7690517" lon="8.7063917"><ele>151.0</ele><time>2026-04-28T08:05:22.309Z</time></trkpt><trkpt lat="44.7689883" lon="8.7065883"><ele>151.0</ele><time>2026-04-28T08:05:23.309Z</time></trkpt><trkpt lat="44.768925" lon="8.70678"><ele>151.0</ele><time>2026-04-28T08:05:24.309Z</time></trkpt><trkpt lat="44.7688717" lon="8.7069583"><ele>151.0</ele><time>2026-04-28T08:05:25.309Z</time></trkpt><trkpt lat="44.7688233" lon="8.7071017"><ele>151.0</ele><time>2026-04-28T08:05:26.309Z</time></trkpt><trkpt lat="44.7687833" lon="8.7072083"><ele>151.0</ele><time>2026-04-28T08:05:27.309Z</time></trkpt><trkpt lat="44.7687233" lon="8.70729"><ele>151.0</ele><time>2026-04-28T08:05:29.309Z</time></trkpt><trkpt lat="44.76866" lon="8.7072517"><ele>151.0</ele><time>2026-04-28T08:05:31.309Z</time></trkpt><trkpt lat="44.7685967" lon="8.7071233"><ele>151.0</ele><time>2026-04-28T08:05:33.309Z</time></trkpt><trkpt lat="44.7685733" lon="8.70701"><ele>151.0</ele><time>2026-04-28T08:05:34.309Z</time></trkpt><trkpt lat="44.7685667" lon="8.70686"><ele>151.0</ele><time>2026-04-28T08:05:35.309Z</time></trkpt><trkpt lat="44.7685583" lon="8.706715"><ele>151.0</ele><time>2026-04-28T08:05:36.309Z</time></trkpt><trkpt lat="44.76855" lon="8.7066133"><ele>151.0</ele><time>2026-04-28T08:05:37.309Z</time></trkpt><trkpt lat="44.7685017" lon="8.7064733"><ele>151.0</ele><time>2026-04-28T08:05:39.309Z</time></trkpt><trkpt lat="44.7683783" lon="8.706385"><ele>151.0</ele><time>2026-04-28T08:05:41.309Z</time></trkpt><trkpt lat="44.76829" lon="8.7063283"><ele>151.25</ele><time>2026-04-28T08:05:42.309Z</time></trkpt><trkpt lat="44.76818" lon="8.7062617"><ele>151.5</ele><time>2026-04-28T08:05:43.309Z</time></trkpt><trkpt lat="44.7680383" lon="8.70619"><ele>151.75</ele><time>2026-04-28T08:05:44.309Z</time></trkpt><trkpt lat="44.76788" lon="8.7061017"><ele>152.0</ele><time>2026-04-28T08:05:45.309Z</time></trkpt><trkpt lat="44.767725" lon="8.706015"><ele>151.25</ele><time>2026-04-28T08:05:46.309Z</time></trkpt><trkpt lat="44.76758" lon="8.7059417"><ele>150.5</ele><time>2026-04-28T08:05:47.309Z</time></trkpt><trkpt lat="44.76745" lon="8.7058717"><ele>149.75</ele><time>2026-04-28T08:05:48.309Z</time></trkpt><trkpt lat="44.7673233" lon="8.7058083"><ele>149.0</ele><time>2026-04-28T08:05:49.309Z</time></trkpt><trkpt lat="44.7672117" lon="8.7057467"><ele>149.0</ele><time>2026-04-28T08:05:50.309Z</time></trkpt><trkpt lat="44.7671267" lon="8.705695"><ele>149.0</ele><time>2026-04-28T08:05:51.309Z</time></trkpt><trkpt lat="44.76705" lon="8.705665"><ele>149.0</ele><time>2026-04-28T08:05:52.309Z</time></trkpt><trkpt lat="44.7669633" lon="8.7056333"><ele>149.0</ele><time>2026-04-28T08:05:53.309Z</time></trkpt><trkpt lat="44.7668833" lon="8.705615"><ele>149.0</ele><time>2026-04-28T08:05:54.309Z</time></trkpt><trkpt lat="44.7668033" lon="8.7055817"><ele>149.0</ele><time>2026-04-28T08:05:55.309Z</time></trkpt><trkpt lat="44.76673" lon="8.705525"><ele>148.8</ele><time>2026-04-28T08:05:56.309Z</time></trkpt><trkpt lat="44.76661" lon="8.70546"><ele>148.60000000000002</ele><time>2026-04-28T08:05:58.309Z</time></trkpt><trkpt lat="44.766515" lon="8.7054233"><ele>148.4</ele><time>2026-04-28T08:06:00.309Z</time></trkpt><trkpt lat="44.7664517" lon="8.7054483"><ele>148.20000000000002</ele><time>2026-04-28T08:06:02.309Z</time></trkpt><trkpt lat="44.766415" lon="8.7055217"><ele>148.0</ele><time>2026-04-28T08:06:03.309Z</time></trkpt><trkpt lat="44.76637" lon="8.70565"><ele>148.0</ele><time>2026-04-28T08:06:04.308Z</time></trkpt><trkpt lat="44.7663217" lon="8.7058"><ele>148.0</ele><time>2026-04-28T08:06:05.308Z</time></trkpt><trkpt lat="44.7662683" lon="8.7059983"><ele>148.0</ele><time>2026-04-28T08:06:06.309Z</time></trkpt><trkpt lat="44.7662" lon="8.7062"><ele>148.0</ele><time>2026-04-28T08:06:07.309Z</time></trkpt><trkpt lat="44.766085" lon="8.7063983"><ele>147.66666666666669</ele><time>2026-04-28T08:06:08.308Z</time></trkpt><trkpt lat="44.7659767" lon="8.7066083"><ele>147.33333333333334</ele><time>2026-04-28T08:06:09.309Z</time></trkpt><trkpt lat="44.7658683" lon="8.7068167"><ele>147.0</ele><time>2026-04-28T08:06:10.309Z</time></trkpt><trkpt lat="44.7657817" lon="8.7070117"><ele>147.0</ele><time>2026-04-28T08:06:11.309Z</time></trkpt><trkpt lat="44.765725" lon="8.7071817"><ele>147.0</ele><time>2026-04-28T08:06:12.309Z</time></trkpt><trkpt lat="44.76567" lon="8.707345"><ele>147.0</ele><time>2026-04-28T08:06:13.309Z</time></trkpt><trkpt lat="44.7656167" lon="8.7075283"><ele>147.0</ele><time>2026-04-28T08:06:14.309Z</time></trkpt><trkpt lat="44.765565" lon="8.7077067"><ele>147.33333333333334</ele><time>2026-04-28T08:06:15.309Z</time></trkpt><trkpt lat="44.7655067" lon="8.7079067"><ele>147.66666666666669</ele><time>2026-04-28T08:06:16.309Z</time></trkpt><trkpt lat="44.76544" lon="8.70811"><ele>148.0</ele><time>2026-04-28T08:06:17.309Z</time></trkpt><trkpt lat="44.7653683" lon="8.7083083"><ele>148.0</ele><time>2026-04-28T08:06:18.309Z</time></trkpt><trkpt lat="44.7652817" lon="8.7085117"><ele>148.0</ele><time>2026-04-28T08:06:19.309Z</time></trkpt><trkpt lat="44.7651917" lon="8.7087133"><ele>148.0</ele><time>2026-04-28T08:06:20.309Z</time></trkpt><trkpt lat="44.7651017" lon="8.708915"><ele>148.0</ele><time>2026-04-28T08:06:21.309Z</time></trkpt><trkpt lat="44.76501" lon="8.7091017"><ele>148.0</ele><time>2026-04-28T08:06:22.309Z</time></trkpt><trkpt lat="44.7649133" lon="8.7092833"><ele>148.0</ele><time>2026-04-28T08:06:23.309Z</time></trkpt><trkpt lat="44.7647883" lon="8.7094233"><ele>148.66666666666669</ele><time>2026-04-28T08:06:24.309Z</time></trkpt><trkpt lat="44.7646467" lon="8.70953"><ele>149.33333333333334</ele><time>2026-04-28T08:06:25.309Z</time></trkpt><trkpt lat="44.764505" lon="8.7096467"><ele>150.0</ele><time>2026-04-28T08:06:26.309Z</time></trkpt><trkpt lat="44.7643633" lon="8.70977"><ele>150.0</ele><time>2026-04-28T08:06:27.309Z</time></trkpt><trkpt lat="44.7642183" lon="8.709925"><ele>150.0</ele><time>2026-04-28T08:06:28.308Z</time></trkpt><trkpt lat="44.76407" lon="8.7101017"><ele>150.0</ele><time>2026-04-28T08:06:29.309Z</time></trkpt><trkpt lat="44.7639283" lon="8.71028"><ele>150.0</ele><time>2026-04-28T08:06:30.308Z</time></trkpt><trkpt lat="44.7637733" lon="8.7104683"><ele>150.0</ele><time>2026-04-28T08:06:31.309Z</time></trkpt><trkpt lat="44.763615" lon="8.7106667"><ele>150.0</ele><time>2026-04-28T08:06:32.309Z</time></trkpt><trkpt lat="44.7634733" lon="8.7108567"><ele>150.0</ele><time>2026-04-28T08:06:33.309Z</time></trkpt><trkpt lat="44.7633433" lon="8.711035"><ele>150.0</ele><time>2026-04-28T08:06:34.309Z</time></trkpt><trkpt lat="44.7632167" lon="8.711195"><ele>150.0</ele><time>2026-04-28T08:06:35.309Z</time></trkpt><trkpt lat="44.7631033" lon="8.7113433"><ele>150.0</ele><time>2026-04-28T08:06:36.309Z</time></trkpt><trkpt lat="44.7629817" lon="8.7114867"><ele>150.0</ele><time>2026-04-28T08:06:37.309Z</time></trkpt><trkpt lat="44.7628417" lon="8.7116133"><ele>150.0</ele><time>2026-04-28T08:06:38.309Z</time></trkpt><trkpt lat="44.7626983" lon="8.7117233"><ele>149.66666666666666</ele><time>2026-04-28T08:06:39.309Z</time></trkpt><trkpt lat="44.7625333" lon="8.711825"><ele>149.33333333333331</ele><time>2026-04-28T08:06:40.309Z</time></trkpt><trkpt lat="44.7623667" lon="8.7119233"><ele>149.0</ele><time>2026-04-28T08:06:41.309Z</time></trkpt><trkpt lat="44.7622017" lon="8.71203"><ele>149.33333333333331</ele><time>2026-04-28T08:06:42.309Z</time></trkpt><trkpt lat="44.762045" lon="8.7121717"><ele>149.66666666666666</ele><time>2026-04-28T08:06:43.309Z</time></trkpt><trkpt lat="44.7618883" lon="8.7123467"><ele>150.0</ele><time>2026-04-28T08:06:44.309Z</time></trkpt><trkpt lat="44.76172" lon="8.712535"><ele>150.0</ele><time>2026-04-28T08:06:45.308Z</time></trkpt><trkpt lat="44.761555" lon="8.7127083"><ele>150.0</ele><time>2026-04-28T08:06:46.309Z</time></trkpt><trkpt lat="44.7614117" lon="8.7128467"><ele>150.0</ele><time>2026-04-28T08:06:47.309Z</time></trkpt><trkpt lat="44.7612733" lon="8.71297"><ele>150.0</ele><time>2026-04-28T08:06:48.309Z</time></trkpt><trkpt lat="44.7611383" lon="8.7130733"><ele>150.0</ele><time>2026-04-28T08:06:49.309Z</time></trkpt><trkpt lat="44.7610017" lon="8.713165"><ele>150.0</ele><time>2026-04-28T08:06:50.309Z</time></trkpt><trkpt lat="44.760845" lon="8.7132417"><ele>150.0</ele><time>2026-04-28T08:06:51.309Z</time></trkpt><trkpt lat="44.76069" lon="8.7133083"><ele>150.0</ele><time>2026-04-28T08:06:52.309Z</time></trkpt><trkpt lat="44.7605367" lon="8.7133567"><ele>150.0</ele><time>2026-04-28T08:06:53.308Z</time></trkpt><trkpt lat="44.7603583" lon="8.7134183"><ele>149.0</ele><time>2026-04-28T08:06:54.309Z</time></trkpt><trkpt lat="44.7601883" lon="8.7135"><ele>148.0</ele><time>2026-04-28T08:06:55.309Z</time></trkpt><trkpt lat="44.7600117" lon="8.7135967"><ele>147.0</ele><time>2026-04-28T08:06:56.309Z</time></trkpt><trkpt lat="44.7598217" lon="8.7137083"><ele>147.0</ele><time>2026-04-28T08:06:57.309Z</time></trkpt><trkpt lat="44.7596283" lon="8.7138367"><ele>147.0</ele><time>2026-04-28T08:06:58.309Z</time></trkpt><trkpt lat="44.759425" lon="8.713975"><ele>147.0</ele><time>2026-04-28T08:06:59.309Z</time></trkpt><trkpt lat="44.7592167" lon="8.714105"><ele>145.5</ele><time>2026-04-28T08:07:00.309Z</time></trkpt><trkpt lat="44.7590167" lon="8.7142383"><ele>144.0</ele><time>2026-04-28T08:07:01.308Z</time></trkpt><trkpt lat="44.7588" lon="8.7143867"><ele>144.5</ele><time>2026-04-28T08:07:02.309Z</time></trkpt><trkpt lat="44.7585567" lon="8.7145433"><ele>145.0</ele><time>2026-04-28T08:07:03.309Z</time></trkpt><trkpt lat="44.7583133" lon="8.71471"><ele>145.0</ele><time>2026-04-28T08:07:04.309Z</time></trkpt><trkpt lat="44.758075" lon="8.714875"><ele>145.0</ele><time>2026-04-28T08:07:05.309Z</time></trkpt><trkpt lat="44.7578233" lon="8.7150417"><ele>147.5</ele><time>2026-04-28T08:07:06.309Z</time></trkpt><trkpt lat="44.7575833" lon="8.7151917"><ele>150.0</ele><time>2026-04-28T08:07:07.308Z</time></trkpt><trkpt lat="44.757355" lon="8.715345"><ele>150.0</ele><time>2026-04-28T08:07:08.309Z</time></trkpt><trkpt lat="44.7571283" lon="8.7154867"><ele>150.0</ele><time>2026-04-28T08:07:09.309Z</time></trkpt><trkpt lat="44.7569133" lon="8.7156333"><ele>148.0</ele><time>2026-04-28T08:07:10.309Z</time></trkpt><trkpt lat="44.7567067" lon="8.7157683"><ele>146.0</ele><time>2026-04-28T08:07:11.309Z</time></trkpt><trkpt lat="44.7565217" lon="8.7159033"><ele>144.0</ele><time>2026-04-28T08:07:12.309Z</time></trkpt><trkpt lat="44.756335" lon="8.7160167"><ele>144.66666666666666</ele><time>2026-04-28T08:07:13.309Z</time></trkpt><trkpt lat="44.7561683" lon="8.71612"><ele>145.33333333333331</ele><time>2026-04-28T08:07:14.309Z</time></trkpt><trkpt lat="44.7560233" lon="8.7162283"><ele>146.0</ele><time>2026-04-28T08:07:15.309Z</time></trkpt><trkpt lat="44.7558883" lon="8.716375"><ele>146.0</ele><time>2026-04-28T08:07:16.309Z</time></trkpt><trkpt lat="44.7557683" lon="8.716545"><ele>146.0</ele><time>2026-04-28T08:07:17.308Z</time></trkpt><trkpt lat="44.7556583" lon="8.7167333"><ele>146.0</ele><time>2026-04-28T08:07:18.309Z</time></trkpt><trkpt lat="44.7555417" lon="8.7169433"><ele>145.66666666666666</ele><time>2026-04-28T08:07:19.309Z</time></trkpt><trkpt lat="44.7554283" lon="8.71717"><ele>145.33333333333334</ele><time>2026-04-28T08:07:20.309Z</time></trkpt><trkpt lat="44.7553017" lon="8.7174017"><ele>145.0</ele><time>2026-04-28T08:07:21.309Z</time></trkpt><trkpt lat="44.7551667" lon="8.71762"><ele>148.0</ele><time>2026-04-28T08:07:22.309Z</time></trkpt><trkpt lat="44.7550167" lon="8.7178233"><ele>151.0</ele><time>2026-04-28T08:07:23.308Z</time></trkpt><trkpt lat="44.7548417" lon="8.718025"><ele>154.0</ele><time>2026-04-28T08:07:24.309Z</time></trkpt><trkpt lat="44.7546567" lon="8.7182167"><ele>154.0</ele><time>2026-04-28T08:07:25.309Z</time></trkpt><trkpt lat="44.7544833" lon="8.7183967"><ele>154.0</ele><time>2026-04-28T08:07:26.309Z</time></trkpt><trkpt lat="44.7543167" lon="8.7185667"><ele>154.0</ele><time>2026-04-28T08:07:27.309Z</time></trkpt><trkpt lat="44.7541633" lon="8.718725"><ele>154.0</ele><time>2026-04-28T08:07:28.309Z</time></trkpt><trkpt lat="44.75402" lon="8.7188833"><ele>154.0</ele><time>2026-04-28T08:07:29.309Z</time></trkpt><trkpt lat="44.75388" lon="8.7190317"><ele>154.0</ele><time>2026-04-28T08:07:30.309Z</time></trkpt><trkpt lat="44.7537467" lon="8.7191717"><ele>154.0</ele><time>2026-04-28T08:07:31.308Z</time></trkpt><trkpt lat="44.7536133" lon="8.7193033"><ele>154.0</ele><time>2026-04-28T08:07:32.309Z</time></trkpt><trkpt lat="44.75348" lon="8.7194417"><ele>154.0</ele><time>2026-04-28T08:07:33.308Z</time></trkpt><trkpt lat="44.753345" lon="8.71958"><ele>153.33333333333334</ele><time>2026-04-28T08:07:34.308Z</time></trkpt><trkpt lat="44.753215" lon="8.7196983"><ele>152.66666666666666</ele><time>2026-04-28T08:07:35.309Z</time></trkpt><trkpt lat="44.75307" lon="8.719785"><ele>152.0</ele><time>2026-04-28T08:07:36.309Z</time></trkpt><trkpt lat="44.7529267" lon="8.7198467"><ele>152.0</ele><time>2026-04-28T08:07:37.309Z</time></trkpt><trkpt lat="44.7527833" lon="8.71989"><ele>152.0</ele><time>2026-04-28T08:07:38.309Z</time></trkpt><trkpt lat="44.7526367" lon="8.719915"><ele>152.0</ele><time>2026-04-28T08:07:39.309Z</time></trkpt><trkpt lat="44.7524817" lon="8.7199383"><ele>149.66666666666666</ele><time>2026-04-28T08:07:40.309Z</time></trkpt><trkpt lat="44.752325" lon="8.719945"><ele>147.33333333333334</ele><time>2026-04-28T08:07:41.309Z</time></trkpt><trkpt lat="44.7521567" lon="8.7199417"><ele>145.0</ele><time>2026-04-28T08:07:42.309Z</time></trkpt><trkpt lat="44.7519933" lon="8.7199383"><ele>144.66666666666669</ele><time>2026-04-28T08:07:43.308Z</time></trkpt><trkpt lat="44.7518217" lon="8.719925"><ele>144.33333333333334</ele><time>2026-04-28T08:07:44.309Z</time></trkpt><trkpt lat="44.75165" lon="8.7199267"><ele>144.0</ele><time>2026-04-28T08:07:45.309Z</time></trkpt><trkpt lat="44.7514717" lon="8.719915"><ele>144.0</ele><time>2026-04-28T08:07:46.309Z</time></trkpt><trkpt lat="44.7512917" lon="8.71991"><ele>144.0</ele><time>2026-04-28T08:07:47.309Z</time></trkpt><trkpt lat="44.751115" lon="8.7199033"><ele>144.0</ele><time>2026-04-28T08:07:48.309Z</time></trkpt><trkpt lat="44.75094" lon="8.7198917"><ele>143.33333333333334</ele><time>2026-04-28T08:07:49.309Z</time></trkpt><trkpt lat="44.7507633" lon="8.7198783"><ele>142.66666666666669</ele><time>2026-04-28T08:07:50.309Z</time></trkpt><trkpt lat="44.7505817" lon="8.71987"><ele>142.0</ele><time>2026-04-28T08:07:51.309Z</time></trkpt><trkpt lat="44.750395" lon="8.7198633"><ele>142.0</ele><time>2026-04-28T08:07:52.309Z</time></trkpt><trkpt lat="44.7502267" lon="8.7198583"><ele>142.0</ele><time>2026-04-28T08:07:53.309Z</time></trkpt><trkpt lat="44.7500683" lon="8.71987"><ele>142.0</ele><time>2026-04-28T08:07:54.309Z</time></trkpt><trkpt lat="44.7499067" lon="8.7198967"><ele>143.66666666666669</ele><time>2026-04-28T08:07:55.309Z</time></trkpt><trkpt lat="44.749755" lon="8.71995"><ele>145.33333333333334</ele><time>2026-04-28T08:07:56.309Z</time></trkpt><trkpt lat="44.7496083" lon="8.720035"><ele>147.0</ele><time>2026-04-28T08:07:57.309Z</time></trkpt><trkpt lat="44.7494667" lon="8.72015"><ele>148.33333333333334</ele><time>2026-04-28T08:07:58.309Z</time></trkpt><trkpt lat="44.7493233" lon="8.7202583"><ele>149.66666666666669</ele><time>2026-04-28T08:07:59.309Z</time></trkpt><trkpt lat="44.7491867" lon="8.7203767"><ele>151.0</ele><time>2026-04-28T08:08:00.309Z</time></trkpt><trkpt lat="44.749065" lon="8.7204883"><ele>151.0</ele><time>2026-04-28T08:08:01.309Z</time></trkpt><trkpt lat="44.7489617" lon="8.72062"><ele>151.0</ele><time>2026-04-28T08:08:02.309Z</time></trkpt><trkpt lat="44.7488733" lon="8.72075"><ele>151.0</ele><time>2026-04-28T08:08:03.309Z</time></trkpt><trkpt lat="44.7487783" lon="8.7208683"><ele>151.0</ele><time>2026-04-28T08:08:04.309Z</time></trkpt><trkpt lat="44.748675" lon="8.7209767"><ele>151.0</ele><time>2026-04-28T08:08:05.309Z</time></trkpt><trkpt lat="44.7485567" lon="8.721055"><ele>151.0</ele><time>2026-04-28T08:08:06.309Z</time></trkpt><trkpt lat="44.7484217" lon="8.72111"><ele>151.0</ele><time>2026-04-28T08:08:07.309Z</time></trkpt><trkpt lat="44.748265" lon="8.7211517"><ele>151.0</ele><time>2026-04-28T08:08:08.309Z</time></trkpt><trkpt lat="44.7481033" lon="8.7212"><ele>151.66666666666669</ele><time>2026-04-28T08:08:09.309Z</time></trkpt><trkpt lat="44.7479083" lon="8.7212583"><ele>152.33333333333334</ele><time>2026-04-28T08:08:10.309Z</time></trkpt><trkpt lat="44.7477067" lon="8.7213117"><ele>153.0</ele><time>2026-04-28T08:08:11.309Z</time></trkpt><trkpt lat="44.7474883" lon="8.7213833"><ele>153.0</ele><time>2026-04-28T08:08:12.309Z</time></trkpt><trkpt lat="44.7472617" lon="8.7214567"><ele>153.0</ele><time>2026-04-28T08:08:13.309Z</time></trkpt><trkpt lat="44.7470217" lon="8.7215367"><ele>151.0</ele><time>2026-04-28T08:08:14.309Z</time></trkpt><trkpt lat="44.7467867" lon="8.721605"><ele>149.0</ele><time>2026-04-28T08:08:15.309Z</time></trkpt><trkpt lat="44.7465683" lon="8.7216767"><ele>149.0</ele><time>2026-04-28T08:08:16.309Z</time></trkpt><trkpt lat="44.7463567" lon="8.7217417"><ele>149.0</ele><time>2026-04-28T08:08:17.309Z</time></trkpt><trkpt lat="44.7461783" lon="8.7218"><ele>149.0</ele><time>2026-04-28T08:08:18.309Z</time></trkpt><trkpt lat="44.746005" lon="8.72187"><ele>149.66666666666666</ele><time>2026-04-28T08:08:19.309Z</time></trkpt><trkpt lat="44.745845" lon="8.7219733"><ele>150.33333333333334</ele><time>2026-04-28T08:08:20.309Z</time></trkpt><trkpt lat="44.745685" lon="8.7221217"><ele>151.0</ele><time>2026-04-28T08:08:21.309Z</time></trkpt><trkpt lat="44.7455183" lon="8.7222783"><ele>151.0</ele><time>2026-04-28T08:08:22.309Z</time></trkpt><trkpt lat="44.7453517" lon="8.7224383"><ele>151.0</ele><time>2026-04-28T08:08:23.309Z</time></trkpt><trkpt lat="44.7451683" lon="8.7226017"><ele>151.0</ele><time>2026-04-28T08:08:24.309Z</time></trkpt><trkpt lat="44.7449767" lon="8.722785"><ele>150.0</ele><time>2026-04-28T08:08:25.309Z</time></trkpt><trkpt lat="44.744775" lon="8.722975"><ele>149.0</ele><time>2026-04-28T08:08:26.309Z</time></trkpt><trkpt lat="44.74456" lon="8.723175"><ele>149.5</ele><time>2026-04-28T08:08:27.309Z</time></trkpt><trkpt lat="44.7443317" lon="8.723395"><ele>150.0</ele><time>2026-04-28T08:08:28.309Z</time></trkpt><trkpt lat="44.7440833" lon="8.723615"><ele>150.0</ele><time>2026-04-28T08:08:29.309Z</time></trkpt><trkpt lat="44.7438217" lon="8.7238467"><ele>150.0</ele><time>2026-04-28T08:08:30.309Z</time></trkpt><trkpt lat="44.7435583" lon="8.724095"><ele>151.0</ele><time>2026-04-28T08:08:31.309Z</time></trkpt><trkpt lat="44.7432867" lon="8.7243467"><ele>152.0</ele><time>2026-04-28T08:08:32.309Z</time></trkpt><trkpt lat="44.7430217" lon="8.7245883"><ele>152.0</ele><time>2026-04-28T08:08:33.309Z</time></trkpt><trkpt lat="44.7427683" lon="8.7248133"><ele>152.0</ele><time>2026-04-28T08:08:34.309Z</time></trkpt><trkpt lat="44.7425383" lon="8.7250233"><ele>154.5</ele><time>2026-04-28T08:08:35.309Z</time></trkpt><trkpt lat="44.7423117" lon="8.725235"><ele>157.0</ele><time>2026-04-28T08:08:36.309Z</time></trkpt><trkpt lat="44.742095" lon="8.72543"><ele>155.0</ele><time>2026-04-28T08:08:37.309Z</time></trkpt><trkpt lat="44.7418817" lon="8.72562"><ele>153.0</ele><time>2026-04-28T08:08:38.309Z</time></trkpt><trkpt lat="44.7416767" lon="8.72581"><ele>153.0</ele><time>2026-04-28T08:08:39.309Z</time></trkpt><trkpt lat="44.7414733" lon="8.726"><ele>153.0</ele><time>2026-04-28T08:08:40.309Z</time></trkpt><trkpt lat="44.7412717" lon="8.7261817"><ele>154.0</ele><time>2026-04-28T08:08:41.309Z</time></trkpt><trkpt lat="44.74108" lon="8.7263667"><ele>155.0</ele><time>2026-04-28T08:08:42.309Z</time></trkpt><trkpt lat="44.740875" lon="8.7265567"><ele>155.0</ele><time>2026-04-28T08:08:43.309Z</time></trkpt><trkpt lat="44.740675" lon="8.7267333"><ele>155.0</ele><time>2026-04-28T08:08:44.309Z</time></trkpt><trkpt lat="44.7404817" lon="8.726905"><ele>155.0</ele><time>2026-04-28T08:08:45.309Z</time></trkpt><trkpt lat="44.7403017" lon="8.7270733"><ele>155.0</ele><time>2026-04-28T08:08:46.308Z</time></trkpt><trkpt lat="44.7401317" lon="8.7272333"><ele>155.0</ele><time>2026-04-28T08:08:47.308Z</time></trkpt><trkpt lat="44.73996" lon="8.72739"><ele>155.0</ele><time>2026-04-28T08:08:48.309Z</time></trkpt><trkpt lat="44.739785" lon="8.72755"><ele>155.0</ele><time>2026-04-28T08:08:49.309Z</time></trkpt><trkpt lat="44.7396017" lon="8.7277217"><ele>155.0</ele><time>2026-04-28T08:08:50.309Z</time></trkpt><trkpt lat="44.739405" lon="8.7279"><ele>156.5</ele><time>2026-04-28T08:08:51.308Z</time></trkpt><trkpt lat="44.7392067" lon="8.7280767"><ele>158.0</ele><time>2026-04-28T08:08:52.309Z</time></trkpt><trkpt lat="44.7390083" lon="8.72826"><ele>158.0</ele><time>2026-04-28T08:08:53.308Z</time></trkpt><trkpt lat="44.738815" lon="8.7284317"><ele>158.0</ele><time>2026-04-28T08:08:54.309Z</time></trkpt><trkpt lat="44.738635" lon="8.7285983"><ele>158.0</ele><time>2026-04-28T08:08:55.309Z</time></trkpt><trkpt lat="44.738465" lon="8.728755"><ele>160.0</ele><time>2026-04-28T08:08:56.309Z</time></trkpt><trkpt lat="44.7382983" lon="8.7289083"><ele>162.0</ele><time>2026-04-28T08:08:57.309Z</time></trkpt><trkpt lat="44.7381383" lon="8.7290533"><ele>164.0</ele><time>2026-04-28T08:08:58.309Z</time></trkpt><trkpt lat="44.7379783" lon="8.7291983"><ele>164.0</ele><time>2026-04-28T08:08:59.309Z</time></trkpt><trkpt lat="44.7378183" lon="8.7293433"><ele>164.0</ele><time>2026-04-28T08:09:00.308Z</time></trkpt><trkpt lat="44.7376667" lon="8.7294683"><ele>164.0</ele><time>2026-04-28T08:09:01.309Z</time></trkpt><trkpt lat="44.7375133" lon="8.7296067"><ele>164.0</ele><time>2026-04-28T08:09:02.309Z</time></trkpt><trkpt lat="44.737365" lon="8.7297517"><ele>164.0</ele><time>2026-04-28T08:09:03.308Z</time></trkpt><trkpt lat="44.7372133" lon="8.729895"><ele>164.0</ele><time>2026-04-28T08:09:04.309Z</time></trkpt><trkpt lat="44.7370617" lon="8.7300333"><ele>164.0</ele><time>2026-04-28T08:09:05.309Z</time></trkpt><trkpt lat="44.7369133" lon="8.730165"><ele>164.0</ele><time>2026-04-28T08:09:06.308Z</time></trkpt><trkpt lat="44.7367717" lon="8.7303033"><ele>164.0</ele><time>2026-04-28T08:09:07.309Z</time></trkpt><trkpt lat="44.7366333" lon="8.7304383"><ele>164.0</ele><time>2026-04-28T08:09:08.309Z</time></trkpt><trkpt lat="44.7365" lon="8.7305567"><ele>164.0</ele><time>2026-04-28T08:09:09.309Z</time></trkpt><trkpt lat="44.7363783" lon="8.7306667"><ele>164.0</ele><time>2026-04-28T08:09:10.309Z</time></trkpt><trkpt lat="44.736265" lon="8.7307733"><ele>164.0</ele><time>2026-04-28T08:09:11.309Z</time></trkpt><trkpt lat="44.7361633" lon="8.7308783"><ele>164.0</ele><time>2026-04-28T08:09:12.309Z</time></trkpt><trkpt lat="44.73605" lon="8.7309783"><ele>164.0</ele><time>2026-04-28T08:09:13.309Z</time></trkpt><trkpt lat="44.73593" lon="8.73107"><ele>164.0</ele><time>2026-04-28T08:09:14.309Z</time></trkpt><trkpt lat="44.7358267" lon="8.7311633"><ele>164.0</ele><time>2026-04-28T08:09:15.309Z</time></trkpt><trkpt lat="44.7357383" lon="8.73124"><ele>164.2</ele><time>2026-04-28T08:09:16.309Z</time></trkpt><trkpt lat="44.7356683" lon="8.7313017"><ele>164.39999999999998</ele><time>2026-04-28T08:09:17.308Z</time></trkpt><trkpt lat="44.7356167" lon="8.7313583"><ele>164.6</ele><time>2026-04-28T08:09:18.308Z</time></trkpt><trkpt lat="44.7355067" lon="8.73146"><ele>164.8</ele><time>2026-04-28T08:09:20.309Z</time></trkpt><trkpt lat="44.73543" lon="8.731525"><ele>165.0</ele><time>2026-04-28T08:09:21.308Z</time></trkpt><trkpt lat="44.7353517" lon="8.7316117"><ele>165.0</ele><time>2026-04-28T08:09:22.309Z</time></trkpt><trkpt lat="44.7352517" lon="8.731705"><ele>165.0</ele><time>2026-04-28T08:09:23.309Z</time></trkpt><trkpt lat="44.7351333" lon="8.7318083"><ele>165.0</ele><time>2026-04-28T08:09:24.309Z</time></trkpt><trkpt lat="44.7350117" lon="8.7319267"><ele>165.0</ele><time>2026-04-28T08:09:25.309Z</time></trkpt><trkpt lat="44.7348833" lon="8.7320417"><ele>165.33333333333334</ele><time>2026-04-28T08:09:26.308Z</time></trkpt><trkpt lat="44.7347517" lon="8.7321683"><ele>165.66666666666669</ele><time>2026-04-28T08:09:27.309Z</time></trkpt><trkpt lat="44.73462" lon="8.7322833"><ele>166.0</ele><time>2026-04-28T08:09:28.309Z</time></trkpt><trkpt lat="44.7344917" lon="8.7323983"><ele>166.25</ele><time>2026-04-28T08:09:29.309Z</time></trkpt><trkpt lat="44.734375" lon="8.7325133"><ele>166.5</ele><time>2026-04-28T08:09:30.309Z</time></trkpt><trkpt lat="44.7342667" lon="8.73261"><ele>166.75</ele><time>2026-04-28T08:09:31.309Z</time></trkpt><trkpt lat="44.7341833" lon="8.7326833"><ele>167.0</ele><time>2026-04-28T08:09:32.309Z</time></trkpt><trkpt lat="44.73411" lon="8.7327467"><ele>168.0</ele><time>2026-04-28T08:09:33.309Z</time></trkpt><trkpt lat="44.73404" lon="8.7328133"><ele>169.0</ele><time>2026-04-28T08:09:34.309Z</time></trkpt><trkpt lat="44.733965" lon="8.732885"><ele>170.0</ele><time>2026-04-28T08:09:35.308Z</time></trkpt><trkpt lat="44.733875" lon="8.73297"><ele>171.0</ele><time>2026-04-28T08:09:36.309Z</time></trkpt><trkpt lat="44.7337733" lon="8.733075"><ele>172.0</ele><time>2026-04-28T08:09:37.309Z</time></trkpt><trkpt lat="44.7336583" lon="8.7331833"><ele>171.75</ele><time>2026-04-28T08:09:38.309Z</time></trkpt><trkpt lat="44.7335417" lon="8.7332867"><ele>171.5</ele><time>2026-04-28T08:09:39.309Z</time></trkpt><trkpt lat="44.7334333" lon="8.73339"><ele>171.25</ele><time>2026-04-28T08:09:40.309Z</time></trkpt><trkpt lat="44.73332" lon="8.7334833"><ele>171.0</ele><time>2026-04-28T08:09:41.309Z</time></trkpt><trkpt lat="44.7332" lon="8.7335833"><ele>171.0</ele><time>2026-04-28T08:09:42.308Z</time></trkpt><trkpt lat="44.7330683" lon="8.733675"><ele>171.0</ele><time>2026-04-28T08:09:43.309Z</time></trkpt><trkpt lat="44.7329417" lon="8.733745"><ele>171.0</ele><time>2026-04-28T08:09:44.309Z</time></trkpt><trkpt lat="44.732825" lon="8.73382"><ele>171.0</ele><time>2026-04-28T08:09:45.309Z</time></trkpt><trkpt lat="44.7327" lon="8.7339233"><ele>168.33333333333334</ele><time>2026-04-28T08:09:46.309Z</time></trkpt><trkpt lat="44.7325717" lon="8.7340267"><ele>165.66666666666669</ele><time>2026-04-28T08:09:47.309Z</time></trkpt><trkpt lat="44.7324517" lon="8.7341683"><ele>163.0</ele><time>2026-04-28T08:09:48.309Z</time></trkpt><trkpt lat="44.7323417" lon="8.73432"><ele>167.66666666666669</ele><time>2026-04-28T08:09:49.309Z</time></trkpt><trkpt lat="44.7322267" lon="8.7344733"><ele>172.33333333333334</ele><time>2026-04-28T08:09:50.309Z</time></trkpt><trkpt lat="44.7321067" lon="8.7346233"><ele>177.0</ele><time>2026-04-28T08:09:51.308Z</time></trkpt><trkpt lat="44.7319917" lon="8.7347517"><ele>174.0</ele><time>2026-04-28T08:09:52.309Z</time></trkpt><trkpt lat="44.73189" lon="8.7348567"><ele>171.0</ele><time>2026-04-28T08:09:53.309Z</time></trkpt><trkpt lat="44.7317917" lon="8.7349267"><ele>168.0</ele><time>2026-04-28T08:09:54.309Z</time></trkpt><trkpt lat="44.7316917" lon="8.73498"><ele>165.0</ele><time>2026-04-28T08:09:55.309Z</time></trkpt><trkpt lat="44.7315817" lon="8.735035"><ele>165.0</ele><time>2026-04-28T08:09:56.309Z</time></trkpt><trkpt lat="44.7314867" lon="8.7350983"><ele>165.0</ele><time>2026-04-28T08:09:57.309Z</time></trkpt><trkpt lat="44.731385" lon="8.735145"><ele>165.0</ele><time>2026-04-28T08:09:58.309Z</time></trkpt><trkpt lat="44.731265" lon="8.7351817"><ele>165.0</ele><time>2026-04-28T08:09:59.309Z</time></trkpt><trkpt lat="44.7311367" lon="8.7352017"><ele>164.25</ele><time>2026-04-28T08:10:00.309Z</time></trkpt><trkpt lat="44.7310033" lon="8.7352183"><ele>163.5</ele><time>2026-04-28T08:10:01.309Z</time></trkpt><trkpt lat="44.7308783" lon="8.735255"><ele>162.75</ele><time>2026-04-28T08:10:02.309Z</time></trkpt><trkpt lat="44.7307517" lon="8.7353117"><ele>162.0</ele><time>2026-04-28T08:10:03.309Z</time></trkpt><trkpt lat="44.7306367" lon="8.7353883"><ele>165.66666666666666</ele><time>2026-04-28T08:10:04.309Z</time></trkpt><trkpt lat="44.7305217" lon="8.7354983"><ele>169.33333333333331</ele><time>2026-04-28T08:10:05.309Z</time></trkpt><trkpt lat="44.7304017" lon="8.7356467"><ele>173.0</ele><time>2026-04-28T08:10:06.309Z</time></trkpt><trkpt lat="44.7302783" lon="8.7358133"><ele>173.0</ele><time>2026-04-28T08:10:07.309Z</time></trkpt><trkpt lat="44.7301383" lon="8.7360033"><ele>173.0</ele><time>2026-04-28T08:10:08.308Z</time></trkpt><trkpt lat="44.7299917" lon="8.7362"><ele>173.0</ele><time>2026-04-28T08:10:09.309Z</time></trkpt><trkpt lat="44.7298433" lon="8.7363833"><ele>173.0</ele><time>2026-04-28T08:10:10.309Z</time></trkpt><trkpt lat="44.729705" lon="8.7365467"><ele>173.0</ele><time>2026-04-28T08:10:11.309Z</time></trkpt><trkpt lat="44.729565" lon="8.7366833"><ele>173.0</ele><time>2026-04-28T08:10:12.309Z</time></trkpt><trkpt lat="44.7294333" lon="8.7368183"><ele>172.75</ele><time>2026-04-28T08:10:13.309Z</time></trkpt><trkpt lat="44.7293083" lon="8.7369367"><ele>172.5</ele><time>2026-04-28T08:10:14.309Z</time></trkpt><trkpt lat="44.72919" lon="8.73706"><ele>172.25</ele><time>2026-04-28T08:10:15.309Z</time></trkpt><trkpt lat="44.7290717" lon="8.7371683"><ele>172.0</ele><time>2026-04-28T08:10:16.309Z</time></trkpt><trkpt lat="44.7289567" lon="8.7372683"><ele>172.0</ele><time>2026-04-28T08:10:17.309Z</time></trkpt><trkpt lat="44.7288433" lon="8.737385"><ele>172.0</ele><time>2026-04-28T08:10:18.309Z</time></trkpt><trkpt lat="44.728705" lon="8.7374983"><ele>172.0</ele><time>2026-04-28T08:10:19.309Z</time></trkpt><trkpt lat="44.72855" lon="8.7376167"><ele>168.66666666666669</ele><time>2026-04-28T08:10:20.309Z</time></trkpt><trkpt lat="44.728375" lon="8.737735"><ele>165.33333333333334</ele><time>2026-04-28T08:10:21.309Z</time></trkpt><trkpt lat="44.72818" lon="8.7378567"><ele>162.0</ele><time>2026-04-28T08:10:22.309Z</time></trkpt><trkpt lat="44.72797" lon="8.7379717"><ele>162.0</ele><time>2026-04-28T08:10:23.309Z</time></trkpt><trkpt lat="44.7277617" lon="8.73811"><ele>162.0</ele><time>2026-04-28T08:10:24.309Z</time></trkpt><trkpt lat="44.7275433" lon="8.738245"><ele>161.5</ele><time>2026-04-28T08:10:25.309Z</time></trkpt><trkpt lat="44.7273167" lon="8.738395"><ele>161.0</ele><time>2026-04-28T08:10:26.309Z</time></trkpt><trkpt lat="44.7270883" lon="8.73854"><ele>160.5</ele><time>2026-04-28T08:10:27.309Z</time></trkpt><trkpt lat="44.726855" lon="8.7386883"><ele>160.0</ele><time>2026-04-28T08:10:28.309Z</time></trkpt><trkpt lat="44.7266167" lon="8.7388383"><ele>160.0</ele><time>2026-04-28T08:10:29.309Z</time></trkpt><trkpt lat="44.7263767" lon="8.7389983"><ele>160.0</ele><time>2026-04-28T08:10:30.309Z</time></trkpt><trkpt lat="44.72613" lon="8.7391733"><ele>160.5</ele><time>2026-04-28T08:10:31.309Z</time></trkpt><trkpt lat="44.72588" lon="8.739335"><ele>161.0</ele><time>2026-04-28T08:10:32.309Z</time></trkpt><trkpt lat="44.7256367" lon="8.7395033"><ele>161.0</ele><time>2026-04-28T08:10:33.309Z</time></trkpt><trkpt lat="44.7254033" lon="8.7396567"><ele>161.0</ele><time>2026-04-28T08:10:34.309Z</time></trkpt><trkpt lat="44.7251833" lon="8.7398083"><ele>161.5</ele><time>2026-04-28T08:10:35.309Z</time></trkpt><trkpt lat="44.7249533" lon="8.73996"><ele>162.0</ele><time>2026-04-28T08:10:36.309Z</time></trkpt><trkpt lat="44.7247233" lon="8.7401133"><ele>162.0</ele><time>2026-04-28T08:10:37.309Z</time></trkpt><trkpt lat="44.7244867" lon="8.7402667"><ele>162.0</ele><time>2026-04-28T08:10:38.308Z</time></trkpt><trkpt lat="44.7242333" lon="8.7404333"><ele>162.0</ele><time>2026-04-28T08:10:39.308Z</time></trkpt><trkpt lat="44.7239733" lon="8.7406117"><ele>162.0</ele><time>2026-04-28T08:10:40.309Z</time></trkpt><trkpt lat="44.7237183" lon="8.7407817"><ele>162.0</ele><time>2026-04-28T08:10:41.309Z</time></trkpt><trkpt lat="44.7234667" lon="8.7409383"><ele>162.0</ele><time>2026-04-28T08:10:42.308Z</time></trkpt><trkpt lat="44.7232283" lon="8.7410917"><ele>162.0</ele><time>2026-04-28T08:10:43.309Z</time></trkpt><trkpt lat="44.7229983" lon="8.7412417"><ele>162.0</ele><time>2026-04-28T08:10:44.309Z</time></trkpt><trkpt lat="44.722775" lon="8.7413817"><ele>162.5</ele><time>2026-04-28T08:10:45.309Z</time></trkpt><trkpt lat="44.7225617" lon="8.74152"><ele>163.0</ele><time>2026-04-28T08:10:46.309Z</time></trkpt><trkpt lat="44.7223483" lon="8.74166"><ele>163.0</ele><time>2026-04-28T08:10:47.309Z</time></trkpt><trkpt lat="44.7221417" lon="8.741805"><ele>163.0</ele><time>2026-04-28T08:10:48.309Z</time></trkpt><trkpt lat="44.72195" lon="8.741935"><ele>163.0</ele><time>2026-04-28T08:10:49.309Z</time></trkpt><trkpt lat="44.721765" lon="8.7420683"><ele>164.33333333333334</ele><time>2026-04-28T08:10:50.309Z</time></trkpt><trkpt lat="44.72159" lon="8.7421833"><ele>165.66666666666666</ele><time>2026-04-28T08:10:51.309Z</time></trkpt><trkpt lat="44.7214167" lon="8.7423017"><ele>167.0</ele><time>2026-04-28T08:10:52.309Z</time></trkpt><trkpt lat="44.721255" lon="8.7424483"><ele>167.0</ele><time>2026-04-28T08:10:53.309Z</time></trkpt><trkpt lat="44.7210883" lon="8.7426033"><ele>167.0</ele><time>2026-04-28T08:10:54.309Z</time></trkpt><trkpt lat="44.7209233" lon="8.7427867"><ele>167.0</ele><time>2026-04-28T08:10:55.309Z</time></trkpt><trkpt lat="44.7207517" lon="8.7429717"><ele>168.0</ele><time>2026-04-28T08:10:56.309Z</time></trkpt><trkpt lat="44.7205633" lon="8.743175"><ele>169.0</ele><time>2026-04-28T08:10:57.309Z</time></trkpt><trkpt lat="44.7203617" lon="8.7433933"><ele>168.5</ele><time>2026-04-28T08:10:58.309Z</time></trkpt><trkpt lat="44.7201467" lon="8.7436217"><ele>168.0</ele><time>2026-04-28T08:10:59.309Z</time></trkpt><trkpt lat="44.7199183" lon="8.74386"><ele>168.0</ele><time>2026-04-28T08:11:00.308Z</time></trkpt><trkpt lat="44.7196783" lon="8.744115"><ele>168.0</ele><time>2026-04-28T08:11:01.309Z</time></trkpt><trkpt lat="44.7194333" lon="8.7443833"><ele>169.5</ele><time>2026-04-28T08:11:02.309Z</time></trkpt><trkpt lat="44.71917" lon="8.7446683"><ele>171.0</ele><time>2026-04-28T08:11:03.309Z</time></trkpt><trkpt lat="44.7188967" lon="8.7449617"><ele>170.0</ele><time>2026-04-28T08:11:04.309Z</time></trkpt><trkpt lat="44.7186183" lon="8.745255"><ele>169.0</ele><time>2026-04-28T08:11:05.309Z</time></trkpt><trkpt lat="44.7183417" lon="8.7455633"><ele>169.0</ele><time>2026-04-28T08:11:06.309Z</time></trkpt><trkpt lat="44.7180733" lon="8.7458633"><ele>169.0</ele><time>2026-04-28T08:11:07.309Z</time></trkpt><trkpt lat="44.717825" lon="8.7461333"><ele>168.0</ele><time>2026-04-28T08:11:08.309Z</time></trkpt><trkpt lat="44.717595" lon="8.7463817"><ele>167.0</ele><time>2026-04-28T08:11:09.309Z</time></trkpt><trkpt lat="44.717375" lon="8.7466167"><ele>167.0</ele><time>2026-04-28T08:11:10.309Z</time></trkpt><trkpt lat="44.71717" lon="8.7468367"><ele>167.0</ele><time>2026-04-28T08:11:11.309Z</time></trkpt><trkpt lat="44.7169717" lon="8.747045"><ele>165.5</ele><time>2026-04-28T08:11:12.309Z</time></trkpt><trkpt lat="44.716785" lon="8.7472383"><ele>164.0</ele><time>2026-04-28T08:11:13.309Z</time></trkpt><trkpt lat="44.71661" lon="8.7474233"><ele>164.0</ele><time>2026-04-28T08:11:14.308Z</time></trkpt><trkpt lat="44.7164433" lon="8.7476067"><ele>164.0</ele><time>2026-04-28T08:11:15.309Z</time></trkpt><trkpt lat="44.7162733" lon="8.7477883"><ele>164.0</ele><time>2026-04-28T08:11:16.309Z</time></trkpt><trkpt lat="44.7161117" lon="8.747955"><ele>165.0</ele><time>2026-04-28T08:11:17.309Z</time></trkpt><trkpt lat="44.7159567" lon="8.748115"><ele>166.0</ele><time>2026-04-28T08:11:18.308Z</time></trkpt><trkpt lat="44.7158083" lon="8.7482633"><ele>167.0</ele><time>2026-04-28T08:11:19.309Z</time></trkpt><trkpt lat="44.7156633" lon="8.7484067"><ele>167.0</ele><time>2026-04-28T08:11:20.309Z</time></trkpt><trkpt lat="44.71552" lon="8.74854"><ele>167.0</ele><time>2026-04-28T08:11:21.309Z</time></trkpt><trkpt lat="44.71538" lon="8.748655"><ele>167.0</ele><time>2026-04-28T08:11:22.309Z</time></trkpt><trkpt lat="44.7152367" lon="8.7487567"><ele>167.66666666666666</ele><time>2026-04-28T08:11:23.309Z</time></trkpt><trkpt lat="44.7150867" lon="8.748865"><ele>168.33333333333334</ele><time>2026-04-28T08:11:24.309Z</time></trkpt><trkpt lat="44.7149383" lon="8.74896"><ele>169.0</ele><time>2026-04-28T08:11:25.308Z</time></trkpt><trkpt lat="44.714755" lon="8.74907"><ele>169.0</ele><time>2026-04-28T08:11:26.309Z</time></trkpt><trkpt lat="44.7145683" lon="8.7491767"><ele>169.0</ele><time>2026-04-28T08:11:27.309Z</time></trkpt><trkpt lat="44.71439" lon="8.7492617"><ele>169.0</ele><time>2026-04-28T08:11:28.309Z</time></trkpt><trkpt lat="44.7142183" lon="8.74934"><ele>169.66666666666669</ele><time>2026-04-28T08:11:29.309Z</time></trkpt><trkpt lat="44.7140483" lon="8.74942"><ele>170.33333333333334</ele><time>2026-04-28T08:11:30.309Z</time></trkpt><trkpt lat="44.7138783" lon="8.7495"><ele>171.0</ele><time>2026-04-28T08:11:31.309Z</time></trkpt><trkpt lat="44.713715" lon="8.74958"><ele>171.0</ele><time>2026-04-28T08:11:32.309Z</time></trkpt><trkpt lat="44.7135567" lon="8.749655"><ele>171.0</ele><time>2026-04-28T08:11:33.309Z</time></trkpt><trkpt lat="44.7133967" lon="8.7497417"><ele>171.0</ele><time>2026-04-28T08:11:34.309Z</time></trkpt><trkpt lat="44.7132333" lon="8.7498467"><ele>171.0</ele><time>2026-04-28T08:11:35.309Z</time></trkpt><trkpt lat="44.7130783" lon="8.7499433"><ele>171.0</ele><time>2026-04-28T08:11:36.309Z</time></trkpt><trkpt lat="44.7129283" lon="8.7500417"><ele>171.0</ele><time>2026-04-28T08:11:37.308Z</time></trkpt><trkpt lat="44.7127717" lon="8.7501333"><ele>173.33333333333334</ele><time>2026-04-28T08:11:38.309Z</time></trkpt><trkpt lat="44.71261" lon="8.7502333"><ele>175.66666666666669</ele><time>2026-04-28T08:11:39.309Z</time></trkpt><trkpt lat="44.7124467" lon="8.7503283"><ele>178.0</ele><time>2026-04-28T08:11:40.309Z</time></trkpt><trkpt lat="44.7122883" lon="8.75042"><ele>178.0</ele><time>2026-04-28T08:11:41.309Z</time></trkpt><trkpt lat="44.7121317" lon="8.7505133"><ele>178.0</ele><time>2026-04-28T08:11:42.309Z</time></trkpt><trkpt lat="44.7119733" lon="8.7506017"><ele>178.0</ele><time>2026-04-28T08:11:43.309Z</time></trkpt><trkpt lat="44.711805" lon="8.7506667"><ele>178.0</ele><time>2026-04-28T08:11:44.309Z</time></trkpt><trkpt lat="44.7116267" lon="8.7507217"><ele>178.0</ele><time>2026-04-28T08:11:45.308Z</time></trkpt><trkpt lat="44.7114467" lon="8.7507633"><ele>178.0</ele><time>2026-04-28T08:11:46.309Z</time></trkpt><trkpt lat="44.7112633" lon="8.7508183"><ele>178.0</ele><time>2026-04-28T08:11:47.308Z</time></trkpt><trkpt lat="44.711095" lon="8.7508683"><ele>178.0</ele><time>2026-04-28T08:11:48.309Z</time></trkpt><trkpt lat="44.7109317" lon="8.7509383"><ele>178.0</ele><time>2026-04-28T08:11:49.309Z</time></trkpt><trkpt lat="44.7107667" lon="8.7510517"><ele>181.33333333333334</ele><time>2026-04-28T08:11:50.309Z</time></trkpt><trkpt lat="44.7106033" lon="8.751185"><ele>184.66666666666666</ele><time>2026-04-28T08:11:51.309Z</time></trkpt><trkpt lat="44.7104417" lon="8.7513267"><ele>188.0</ele><time>2026-04-28T08:11:52.309Z</time></trkpt><trkpt lat="44.7102767" lon="8.751455"><ele>185.0</ele><time>2026-04-28T08:11:53.309Z</time></trkpt><trkpt lat="44.710115" lon="8.7515633"><ele>182.0</ele><time>2026-04-28T08:11:54.308Z</time></trkpt><trkpt lat="44.70995" lon="8.7516733"><ele>179.0</ele><time>2026-04-28T08:11:55.309Z</time></trkpt><trkpt lat="44.7097767" lon="8.7517667"><ele>179.0</ele><time>2026-04-28T08:11:56.309Z</time></trkpt><trkpt lat="44.7096017" lon="8.7518517"><ele>179.0</ele><time>2026-04-28T08:11:57.309Z</time></trkpt><trkpt lat="44.7094283" lon="8.7519317"><ele>179.0</ele><time>2026-04-28T08:11:58.309Z</time></trkpt><trkpt lat="44.7092533" lon="8.7520167"><ele>181.33333333333331</ele><time>2026-04-28T08:11:59.309Z</time></trkpt><trkpt lat="44.70908" lon="8.7521167"><ele>183.66666666666666</ele><time>2026-04-28T08:12:00.309Z</time></trkpt><trkpt lat="44.70891" lon="8.7522283"><ele>186.0</ele><time>2026-04-28T08:12:01.308Z</time></trkpt><trkpt lat="44.708735" lon="8.7523383"><ele>187.33333333333334</ele><time>2026-04-28T08:12:02.308Z</time></trkpt><trkpt lat="44.708545" lon="8.7524567"><ele>188.66666666666669</ele><time>2026-04-28T08:12:03.309Z</time></trkpt><trkpt lat="44.7083367" lon="8.7525833"><ele>190.0</ele><time>2026-04-28T08:12:04.309Z</time></trkpt><trkpt lat="44.708115" lon="8.752725"><ele>190.0</ele><time>2026-04-28T08:12:05.309Z</time></trkpt><trkpt lat="44.7078733" lon="8.75288"><ele>190.0</ele><time>2026-04-28T08:12:06.309Z</time></trkpt><trkpt lat="44.7076117" lon="8.7530383"><ele>184.5</ele><time>2026-04-28T08:12:07.308Z</time></trkpt><trkpt lat="44.70736" lon="8.75319"><ele>179.0</ele><time>2026-04-28T08:12:08.309Z</time></trkpt><trkpt lat="44.7071117" lon="8.753325"><ele>177.0</ele><time>2026-04-28T08:12:09.309Z</time></trkpt><trkpt lat="44.7068767" lon="8.7534317"><ele>175.0</ele><time>2026-04-28T08:12:10.308Z</time></trkpt><trkpt lat="44.7066567" lon="8.7535217"><ele>175.0</ele><time>2026-04-28T08:12:11.309Z</time></trkpt><trkpt lat="44.7064417" lon="8.7536067"><ele>175.0</ele><time>2026-04-28T08:12:12.309Z</time></trkpt><trkpt lat="44.7062333" lon="8.7536983"><ele>175.0</ele><time>2026-04-28T08:12:13.309Z</time></trkpt><trkpt lat="44.7060383" lon="8.753785"><ele>175.0</ele><time>2026-04-28T08:12:14.309Z</time></trkpt><trkpt lat="44.705845" lon="8.75387"><ele>175.0</ele><time>2026-04-28T08:12:15.309Z</time></trkpt><trkpt lat="44.7056567" lon="8.753955"><ele>175.0</ele><time>2026-04-28T08:12:16.309Z</time></trkpt><trkpt lat="44.7054783" lon="8.7540333"><ele>175.0</ele><time>2026-04-28T08:12:17.309Z</time></trkpt><trkpt lat="44.70531" lon="8.75412"><ele>175.0</ele><time>2026-04-28T08:12:18.309Z</time></trkpt><trkpt lat="44.705145" lon="8.75419"><ele>175.0</ele><time>2026-04-28T08:12:19.309Z</time></trkpt><trkpt lat="44.7049833" lon="8.75425"><ele>175.0</ele><time>2026-04-28T08:12:20.309Z</time></trkpt><trkpt lat="44.704825" lon="8.7543117"><ele>175.0</ele><time>2026-04-28T08:12:21.308Z</time></trkpt><trkpt lat="44.704675" lon="8.7543617"><ele>175.0</ele><time>2026-04-28T08:12:22.308Z</time></trkpt><trkpt lat="44.70453" lon="8.754415"><ele>175.5</ele><time>2026-04-28T08:12:23.309Z</time></trkpt><trkpt lat="44.7043917" lon="8.75447"><ele>176.0</ele><time>2026-04-28T08:12:24.309Z</time></trkpt><trkpt lat="44.70425" lon="8.754525"><ele>176.5</ele><time>2026-04-28T08:12:25.309Z</time></trkpt><trkpt lat="44.7041183" lon="8.754575"><ele>177.0</ele><time>2026-04-28T08:12:26.309Z</time></trkpt><trkpt lat="44.70402" lon="8.7546133"><ele>177.0</ele><time>2026-04-28T08:12:27.309Z</time></trkpt><trkpt lat="44.7039467" lon="8.7546417"><ele>177.0</ele><time>2026-04-28T08:12:28.309Z</time></trkpt><trkpt lat="44.703865" lon="8.75465"><ele>177.0</ele><time>2026-04-28T08:12:30.309Z</time></trkpt><trkpt lat="44.7038017" lon="8.7545867"><ele>177.0</ele><time>2026-04-28T08:12:32.309Z</time></trkpt><trkpt lat="44.70375" lon="8.7545167"><ele>177.0</ele><time>2026-04-28T08:12:34.309Z</time></trkpt><trkpt lat="44.7037033" lon="8.7544367"><ele>177.0</ele><time>2026-04-28T08:12:36.309Z</time></trkpt><trkpt lat="44.7036583" lon="8.7543717"><ele>177.0</ele><time>2026-04-28T08:12:38.308Z</time></trkpt></trkseg></trk></gpx>